Provisional Data: Choconut Creek near Vestal Center, NY


Please select a monitoring station.
Please select start date.
Please select start date.

Toggle Unit: C/F Toggle Unit: C/F
Sample Time Temperature (C) Temperature (F) Specific Conductivity (mS/cm) pH   Turbidity (NTU+) DO (mg/L)
3/7/2021 12:00:00 AM 0.24 32.432 0.111 7.2 4.87 13.85
3/7/2021 12:15:00 AM 0.21 32.378 0.111 7.2 4.83 13.86
3/7/2021 12:30:00 AM 0.18 32.324 0.11 7.2 4.83 13.87
3/7/2021 12:45:00 AM 0.17 32.306 0.11 7.21 4.96 13.87
3/7/2021 1:00:00 AM 0.15 32.27 0.111 7.21 4.83 13.88
3/7/2021 1:15:00 AM 0.13 32.234 0.111 7.2 4.64 13.89
3/7/2021 1:30:00 AM 0.11 32.198 0.111 7.2 4.63 13.89
3/7/2021 1:45:00 AM 0.09 32.162 0.111 7.2 4.87 13.89
3/7/2021 2:00:00 AM 0.07 32.126 0.111 7.19 4.6 13.91
3/7/2021 2:15:00 AM 0.05 32.09 0.111 7.19 4.99 13.91
3/7/2021 2:30:00 AM 0.03 32.054 0.111 7.2 4.65 13.92
3/7/2021 2:45:00 AM 0.01 32.018 0.11 7.2 4.87 13.92
3/7/2021 3:00:00 AM -0.01 31.982 0.111 7.2 4.9 13.93
3/7/2021 3:15:00 AM -0.02 31.964 0.111 7.2 5.24 13.94
3/7/2021 3:30:00 AM -0.02 31.964 0.11 7.2 5.35 13.96
3/7/2021 3:45:00 AM -0.01 31.982 0.109 7.21 6.47 13.97
3/7/2021 4:00:00 AM -0.01 31.982 0.111 7.22 4.72 13.97
3/7/2021 4:15:00 AM -0.01 31.982 0.111 7.22 5.24 13.97
3/7/2021 4:30:00 AM 0 32 0.111 7.2 4.89 13.98
3/7/2021 4:45:00 AM 0 32 0.112 7.21 4.82 13.98
3/7/2021 5:00:00 AM 0 32 0.112 7.21 4.91 13.98
3/7/2021 5:15:00 AM 0 32 0.112 7.21 5.03 13.99
3/7/2021 5:30:00 AM 0 32 0.112 7.21 4.68 13.99
3/7/2021 5:45:00 AM 0 32 0.112 7.21 5.23 13.99
3/7/2021 6:00:00 AM 0 32 0.112 7.21 5.77 14
3/7/2021 6:15:00 AM 0 32 0.113 7.2 5.25 14
3/7/2021 6:30:00 AM 0 32 0.113 7.2 4.5 14
3/7/2021 6:45:00 AM 0 32 0.112 7.2 4.69 14.01
3/7/2021 7:00:00 AM 0 32 0.112 7.2 4.65 14.04
3/7/2021 7:15:00 AM 0 32 0.112 7.21 4.6 14.08
3/7/2021 7:30:00 AM 0 32 0.112 7.21 4.41 14.11
3/7/2021 7:45:00 AM 0 32 0.112 7.21 4.49 14.15
3/7/2021 8:00:00 AM 0.01 32.018 0.112 7.23 4.56 14.18
3/7/2021 8:15:00 AM 0.01 32.018 0.112 7.23 4.49 14.22
3/7/2021 8:30:00 AM 0.01 32.018 0.112 7.23 4.43 14.25
3/7/2021 8:45:00 AM 0.01 32.018 0.112 7.23 4.49 14.26
3/7/2021 9:00:00 AM 0.01 32.018 0.112 7.23 4.58 14.28
3/7/2021 9:15:00 AM 0.02 32.036 0.112 7.23 4.54 14.29
3/7/2021 9:30:00 AM 0.02 32.036 0.111 7.23 4.86 14.3
3/7/2021 9:45:00 AM 0.05 32.09 0.111 7.23 4.62 14.32
3/7/2021 10:00:00 AM 0.11 32.198 0.11 7.23 4.71 14.33
3/7/2021 10:15:00 AM 0.2 32.36 0.109 7.25 4.76 14.34
3/7/2021 10:30:00 AM 0.28 32.504 0.109 7.26 4.9 14.35
3/7/2021 10:45:00 AM 0.38 32.684 0.109 7.27 4.65 14.35
3/7/2021 11:00:00 AM 0.44 32.792 0.11 7.27 4.54 14.36
3/7/2021 11:15:00 AM 0.53 32.954 0.11 7.27 4.46 14.37
3/7/2021 11:30:00 AM 0.6 33.08 0.111 7.29 4.72 14.38
3/7/2021 11:45:00 AM 0.81 33.458 0.111 7.29 4.63 14.38
3/7/2021 12:00:00 PM 0.93 33.674 0.112 7.29 4.68 14.36
3/7/2021 12:15:00 PM 1.09 33.962 0.112 7.3 4.57 14.35
3/7/2021 12:30:00 PM 1.27 34.286 0.112 7.3 4.83 14.33
3/7/2021 12:45:00 PM 1.4 34.52 0.112 7.3 4.99 14.32
3/7/2021 1:00:00 PM 1.54 34.772 0.111 7.29 5.01 14.31
3/7/2021 1:15:00 PM 1.67 35.006 0.11 7.3 4.93 14.3
3/7/2021 1:30:00 PM 1.77 35.186 0.11 7.3 5.11 14.28
3/7/2021 1:45:00 PM 1.87 35.366 0.109 7.31 5.18 14.26
3/7/2021 2:00:00 PM 1.9 35.42 0.109 7.31 5.2 14.23
3/7/2021 2:15:00 PM 1.92 35.456 0.108 7.32 5.18 14.21
3/7/2021 2:30:00 PM 1.99 35.582 0.108 7.32 4.96 14.19
3/7/2021 2:45:00 PM 2.09 35.762 0.108 7.32 5.1 14.17
3/7/2021 3:00:00 PM 2.16 35.888 0.107 7.33 4.74 14.14
3/7/2021 3:15:00 PM 2.21 35.978 0.107 7.32 4.99 14.12
3/7/2021 3:30:00 PM 2.23 36.014 0.107 7.33 5.06 14.09
3/7/2021 3:45:00 PM 2.23 36.014 0.107 7.33 4.97 14.06
3/7/2021 4:00:00 PM 2.23 36.014 0.107 7.35 4.8 14.03
3/7/2021 4:15:00 PM 2.24 36.032 0.107 7.35 5.19 13.99
3/7/2021 4:30:00 PM 2.24 36.032 0.107 7.35 5 13.96
3/7/2021 4:45:00 PM 2.22 35.996 0.107 7.35 4.99 13.93
3/7/2021 5:00:00 PM 2.19 35.942 0.107 7.34 4.89 13.89
3/7/2021 5:15:00 PM 2.14 35.852 0.108 7.34 5.11 13.86
3/7/2021 5:30:00 PM 2.1 35.78 0.108 7.34 5.15 13.82
3/7/2021 5:45:00 PM 2.06 35.708 0.108 7.33 5.08 13.77
3/7/2021 6:00:00 PM 2.03 35.654 0.108 7.33 5.33 13.73
3/7/2021 6:15:00 PM 2.01 35.618 0.108 7.31 5.01 13.68
3/7/2021 6:30:00 PM 1.98 35.564 0.108 7.31 5.15 13.63
3/7/2021 6:45:00 PM 1.94 35.492 0.108 7.3 5.11 13.6
3/7/2021 7:00:00 PM 1.9 35.42 0.108 7.29 5.16 13.58
3/7/2021 7:15:00 PM 1.86 35.348 0.108 7.29 5.58 13.56
3/7/2021 7:30:00 PM 1.82 35.276 0.108 7.27 5.35 13.55
3/7/2021 7:45:00 PM 1.77 35.186 0.108 7.27 5.37 13.54
3/7/2021 8:00:00 PM 1.71 35.078 0.108 7.27 5.53 13.54
3/7/2021 8:15:00 PM 1.65 34.97 0.108 7.27 5.19 13.54
3/7/2021 8:30:00 PM 1.58 34.844 0.108 7.26 5.23 13.55
3/7/2021 8:45:00 PM 1.5 34.7 0.108 7.25 5.79 13.56
3/7/2021 9:00:00 PM 1.41 34.538 0.108 7.26 5.47 13.56
3/7/2021 9:15:00 PM 1.33 34.394 0.108 7.24 5.56 13.57
3/7/2021 9:30:00 PM 1.24 34.232 0.109 7.25 5.35 13.6
3/7/2021 9:45:00 PM 1.15 34.07 0.108 7.24 5.76 13.61
3/7/2021 10:00:00 PM 1.06 33.908 0.108 7.24 5.74 13.62
3/7/2021 10:15:00 PM 0.98 33.764 0.108 7.23 5.59 13.64
3/7/2021 10:30:00 PM 0.9 33.62 0.108 7.23 5.73 13.65
3/7/2021 10:45:00 PM 0.82 33.476 0.108 7.22 5.47 13.67
3/7/2021 11:00:00 PM 0.74 33.332 0.108 7.23 5.54 13.69
3/7/2021 11:15:00 PM 0.66 33.188 0.108 7.21 5.66 13.71
3/7/2021 11:30:00 PM 0.59 33.062 0.108 7.21 5.67 13.72
3/7/2021 11:45:00 PM 0.51 32.918 0.107 7.22 5.69 13.74
3/8/2021 12:00:00 AM 0.44 32.792 0.107 7.21 5.75 13.76
3/8/2021 12:15:00 AM 0.37 32.666 0.107 7.21 5.73 13.78
3/8/2021 12:30:00 AM 0.3 32.54 0.107 7.21 5.5 13.8
3/8/2021 12:45:00 AM 0.23 32.414 0.107 7.21 5.64 13.83
3/8/2021 1:00:00 AM 0.16 32.288 0.108 7.21 5.42 13.85
3/8/2021 1:15:00 AM 0.09 32.162 0.108 7.21 5.52 13.87
3/8/2021 1:30:00 AM 0.02 32.036 0.109 7.2 5.52 13.89
3/8/2021 1:45:00 AM -0.03 31.946 0.109 7.21 5.74 13.92
3/8/2021 2:00:00 AM -0.01 31.982 0.11 7.2 5.59 13.95
3/8/2021 2:15:00 AM -0.01 31.982 0.111 7.2 5.52 13.95
3/8/2021 2:30:00 AM 0 32 0.112 7.2 5.33 13.97
3/8/2021 2:45:00 AM 0 32 0.113 7.2 5.04 13.97
3/8/2021 3:00:00 AM 0 32 0.114 7.2 5.17 13.98
3/8/2021 3:15:00 AM 0 32 0.115 7.2 5.3 13.99
3/8/2021 3:30:00 AM 0 32 0.115 7.19 5.23 14
3/8/2021 3:45:00 AM 0 32 0.116 7.19 5.58 14.01
3/8/2021 4:00:00 AM 0 32 0.116 7.19 5.34 14.01
3/8/2021 4:15:00 AM 0 32 0.117 7.18 8.21 14.01
3/8/2021 4:30:00 AM 0 32 0.117 7.18 5.74 14.02
3/8/2021 4:45:00 AM 0 32 0.118 7.18 5.5 14.02
3/8/2021 5:00:00 AM 0 32 0.119 7.17 5.47 14.02
3/8/2021 5:15:00 AM 0 32 0.12 7.16 5.59 14.03
3/8/2021 5:30:00 AM 0 32 0.12 7.16 5.4 14.03
3/8/2021 5:45:00 AM 0 32 0.121 7.17 5.39 14.02
3/8/2021 6:00:00 AM 0 32 0.121 7.17 5.11 14.02
3/8/2021 6:15:00 AM 0 32 0.122 7.17 5.1 14.02
3/8/2021 6:30:00 AM 0 32 0.122 7.16 5.19 14.02
3/8/2021 6:45:00 AM 0 32 0.123 7.17 5.06 14.06
3/8/2021 7:00:00 AM 0 32 0.124 7.18 5.25 14.09
3/8/2021 7:15:00 AM 0 32 0.124 7.18 5.4 14.14
3/8/2021 7:30:00 AM 0.01 32.018 0.125 7.19 4.96 14.19
3/8/2021 7:45:00 AM 0.01 32.018 0.125 7.18 4.98 14.22
3/8/2021 8:00:00 AM 0.01 32.018 0.126 7.19 5.25 14.27
3/8/2021 8:15:00 AM 0.01 32.018 0.127 7.2 4.65 14.29
3/8/2021 8:30:00 AM 0.01 32.018 0.127 7.19 4.89 14.3
3/8/2021 8:45:00 AM 0.02 32.036 0.127 7.2 4.82 14.32
3/8/2021 9:00:00 AM 0.03 32.054 0.127 7.21 4.79 14.34
3/8/2021 9:15:00 AM 0.05 32.09 0.127 7.21 4.84 14.37
3/8/2021 9:30:00 AM 0.05 32.09 0.126 7.2 5.04 14.37
3/8/2021 9:45:00 AM 0.06 32.108 0.126 7.22 4.82 14.37
3/8/2021 10:00:00 AM 0.08 32.144 0.124 7.22 5.26 14.36
3/8/2021 10:15:00 AM 0.14 32.252 0.122 7.22 5.32 14.36
3/8/2021 10:30:00 AM 0.2 32.36 0.12 7.23 5.64 14.35
3/8/2021 10:45:00 AM 0.26 32.468 0.118 7.23 5.59 14.34
3/8/2021 11:00:00 AM 0.36 32.648 0.116 7.23 5.66 14.34
3/8/2021 11:15:00 AM 0.5 32.9 0.115 7.25 5.44 14.34
3/8/2021 11:30:00 AM 0.66 33.188 0.114 7.25 5.5 14.32
3/8/2021 11:45:00 AM 0.82 33.476 0.113 7.26 5.48 14.31
3/8/2021 12:00:00 PM 0.98 33.764 0.112 7.26 5.6 14.31
3/8/2021 12:15:00 PM 1.14 34.052 0.113 7.28 5.61 14.3
3/8/2021 12:30:00 PM 1.27 34.286 0.113 7.28 5.82 14.3
3/8/2021 12:45:00 PM 1.38 34.484 0.114 7.3 5.88 14.29
3/8/2021 1:00:00 PM 1.48 34.664 0.115 7.31 6.11 14.29
3/8/2021 1:15:00 PM 1.48 34.664 0.116 7.31 6.46 14.29
3/8/2021 1:30:00 PM 1.54 34.772 0.115 7.32 6.96 14.3
3/8/2021 1:45:00 PM 1.57 34.826 0.114 7.32 6.96 14.29
3/8/2021 2:00:00 PM 1.57 34.826 0.113 7.33 7.55 14.28
3/8/2021 2:15:00 PM 1.59 34.862 0.112 7.33 7.58 14.28
3/8/2021 2:30:00 PM 1.54 34.772 0.111 7.34 7.43 14.28
3/8/2021 2:45:00 PM 1.52 34.736 0.11 7.34 7.76 14.28
3/8/2021 3:00:00 PM 1.52 34.736 0.109 7.35 7.29 14.27
3/8/2021 3:15:00 PM 1.55 34.79 0.108 7.35 7.54 14.27
3/8/2021 3:30:00 PM 1.58 34.844 0.108 7.35 7.32 14.25
3/8/2021 3:45:00 PM 1.64 34.952 0.107 7.35 7.3 14.24
3/8/2021 4:00:00 PM 1.69 35.042 0.107 7.35 7.07 14.22
3/8/2021 4:15:00 PM 1.73 35.114 0.106 7.36 6.91 14.2
3/8/2021 4:30:00 PM 1.76 35.168 0.106 7.36 7.16 14.18
3/8/2021 4:45:00 PM 1.77 35.186 0.106 7.36 6.52 14.14
3/8/2021 5:00:00 PM 1.79 35.222 0.105 7.36 6.55 14.11
3/8/2021 5:15:00 PM 1.82 35.276 0.105 7.35 6.5 14.07
3/8/2021 5:30:00 PM 1.84 35.312 0.105 7.34 6.59 14.02
3/8/2021 5:45:00 PM 1.87 35.366 0.105 7.34 7.08 13.96
3/8/2021 6:00:00 PM 1.88 35.384 0.105 7.34 7.17 13.91
3/8/2021 6:15:00 PM 1.88 35.384 0.105 7.33 7.21 13.85
3/8/2021 6:30:00 PM 1.87 35.366 0.105 7.32 7.03 13.79
3/8/2021 6:45:00 PM 1.86 35.348 0.105 7.31 7.42 13.75
3/8/2021 7:00:00 PM 1.84 35.312 0.106 7.31 7.54 13.71
3/8/2021 7:15:00 PM 1.83 35.294 0.106 7.31 7.19 13.69
3/8/2021 7:30:00 PM 1.81 35.258 0.106 7.3 7.49 13.67
3/8/2021 7:45:00 PM 1.78 35.204 0.106 7.29 8.02 13.65
3/8/2021 8:00:00 PM 1.75 35.15 0.106 7.29 7.77 13.64
3/8/2021 8:15:00 PM 1.71 35.078 0.106 7.28 7.54 13.63
3/8/2021 8:30:00 PM 1.67 35.006 0.106 7.28 7.66 13.63
3/8/2021 8:45:00 PM 1.64 34.952 0.106 7.27 7.07 13.62
3/8/2021 9:00:00 PM 1.6 34.88 0.106 7.26 6.84 13.62
3/8/2021 9:15:00 PM 1.55 34.79 0.106 7.26 6.88 13.62
3/8/2021 9:30:00 PM 1.51 34.718 0.106 7.25 7.06 13.62
3/8/2021 9:45:00 PM 1.48 34.664 0.106 7.24 7.33 13.62
3/8/2021 10:00:00 PM 1.44 34.592 0.106 7.25 7.29 13.62
3/8/2021 10:15:00 PM 1.41 34.538 0.106 7.24 7.01 13.62
3/8/2021 10:30:00 PM 1.38 34.484 0.107 7.23 7.32 13.62
3/8/2021 10:45:00 PM 1.36 34.448 0.107 7.22 6.85 13.62
3/8/2021 11:00:00 PM 1.34 34.412 0.107 7.23 6.76 13.62
3/8/2021 11:15:00 PM 1.32 34.376 0.107 7.23 6.97 13.62
3/8/2021 11:30:00 PM 1.3 34.34 0.107 7.22 6.58 13.62
3/8/2021 11:45:00 PM 1.28 34.304 0.107 7.22 6.46 13.61
3/9/2021 12:00:00 AM 1.26 34.268 0.107 7.22 6.67 13.61
3/9/2021 12:15:00 AM 1.25 34.25 0.107 7.21 6.45 13.61
3/9/2021 12:30:00 AM 1.24 34.232 0.107 7.22 6.2 13.6
3/9/2021 12:45:00 AM 1.22 34.196 0.107 7.22 6.57 13.61
3/9/2021 1:00:00 AM 1.21 34.178 0.108 7.21 6.18 13.6
3/9/2021 1:15:00 AM 1.18 34.124 0.108 7.21 5.9 13.6
3/9/2021 1:30:00 AM 1.15 34.07 0.108 7.2 6 13.61
3/9/2021 1:45:00 AM 1.12 34.016 0.108 7.2 5.89 13.61
3/9/2021 2:00:00 AM 1.08 33.944 0.108 7.21 5.97 13.62
3/9/2021 2:15:00 AM 1.04 33.872 0.108 7.2 5.82 13.62
3/9/2021 2:30:00 AM 1 33.8 0.108 7.19 5.81 13.63
3/9/2021 2:45:00 AM 0.97 33.746 0.108 7.21 5.83 13.63
3/9/2021 3:00:00 AM 0.94 33.692 0.108 7.2 5.6 13.64
3/9/2021 3:15:00 AM 0.91 33.638 0.108 7.2 5.65 13.64
3/9/2021 3:30:00 AM 0.9 33.62 0.108 7.19 5.75 13.65
3/9/2021 3:45:00 AM 0.89 33.602 0.108 7.18 5.63 13.65
3/9/2021 4:00:00 AM 0.87 33.566 0.108 7.2 5.84 13.66
3/9/2021 4:15:00 AM 0.86 33.548 0.108 7.21 5.53 13.66
3/9/2021 4:30:00 AM 0.84 33.512 0.108 7.2 5.27 13.66
3/9/2021 4:45:00 AM 0.81 33.458 0.108 7.19 5.43 13.67
3/9/2021 5:00:00 AM 0.78 33.404 0.108 7.19 5.26 13.67
3/9/2021 5:15:00 AM 0.75 33.35 0.109 7.2 5.38 13.68
3/9/2021 5:30:00 AM 0.71 33.278 0.108 7.19 5.3 13.69
3/9/2021 5:45:00 AM 0.69 33.242 0.109 7.19 5.22 13.7
3/9/2021 6:00:00 AM 0.66 33.188 0.109 7.19 5.3 13.7
3/9/2021 6:15:00 AM 0.64 33.152 0.109 7.2 5.22 13.71
3/9/2021 6:30:00 AM 0.62 33.116 0.109 7.19 5.3 13.72
3/9/2021 6:45:00 AM 0.61 33.098 0.109 7.2 5.23 13.74
3/9/2021 7:00:00 AM 0.59 33.062 0.109 7.21 5.24 13.78
3/9/2021 7:15:00 AM 0.58 33.044 0.109 7.21 5.27 13.83
3/9/2021 7:30:00 AM 0.58 33.044 0.109 7.22 5.42 13.88
3/9/2021 7:45:00 AM 0.59 33.062 0.109 7.21 4.88 13.93
3/9/2021 8:00:00 AM 0.61 33.098 0.109 7.23 4.99 13.98
3/9/2021 8:15:00 AM 0.63 33.134 0.109 7.25 4.97 14.02
3/9/2021 8:30:00 AM 0.67 33.206 0.109 7.25 5.05 14.06
3/9/2021 8:45:00 AM 0.72 33.296 0.109 7.26 5.21 14.09
3/9/2021 9:00:00 AM 0.79 33.422 0.109 7.27 5.13 14.12
3/9/2021 9:15:00 AM 0.88 33.584 0.109 7.25 5.34 14.14
3/9/2021 9:30:00 AM 0.98 33.764 0.109 7.28 5.26 14.16
3/9/2021 9:45:00 AM 1.11 33.998 0.109 7.27 5.12 14.18
3/9/2021 10:00:00 AM 1.26 34.268 0.109 7.28 5.42 14.19
3/9/2021 10:15:00 AM 1.43 34.574 0.109 7.3 6.31 14.2
3/9/2021 10:30:00 AM 1.57 34.826 0.109 7.3 7.2 14.2
3/9/2021 10:45:00 AM 1.73 35.114 0.109 7.31 6.9 14.19
3/9/2021 11:00:00 AM 1.93 35.474 0.108 7.31 7.17 14.18
3/9/2021 11:15:00 AM 2.22 35.996 0.108 7.31 6.9 14.17
3/9/2021 11:30:00 AM 2.52 36.536 0.109 7.33 7.48 14.15
3/9/2021 11:45:00 AM 2.75 36.95 0.109 7.34 8.52 14.11
3/9/2021 12:00:00 PM 2.99 37.382 0.108 7.35 8.91 14.1
3/9/2021 12:15:00 PM 3.2 37.76 0.109 7.34 11.19 14.05
3/9/2021 12:30:00 PM 3.32 37.976 0.109 7.36 10.55 14.03
3/9/2021 12:45:00 PM 3.53 38.354 0.109 7.36 12.81 13.99
3/9/2021 1:00:00 PM 3.71 38.678 0.11 7.36 11.93 13.96
3/9/2021 1:15:00 PM 3.93 39.074 0.112 7.36 12.31 13.92
3/9/2021 1:30:00 PM 4.12 39.416 0.113 7.37 12.98 13.88
3/9/2021 1:45:00 PM 4.26 39.668 0.114 7.38 12.76 13.84
3/9/2021 2:00:00 PM 4.36 39.848 0.115 7.39 14.69 13.8
3/9/2021 2:15:00 PM 4.43 39.974 0.116 7.39 13.55 13.77
3/9/2021 2:30:00 PM 4.49 40.082 0.116 7.39 12.96 13.74
3/9/2021 2:45:00 PM 4.51 40.118 0.117 7.39 14.15 13.7
3/9/2021 3:00:00 PM 4.5 40.1 0.117 7.39 12.62 13.67
3/9/2021 3:15:00 PM 4.45 40.01 0.118 7.39 14.87 13.65
3/9/2021 3:30:00 PM 4.38 39.884 0.118 7.39 13.62 13.62
3/9/2021 3:45:00 PM 4.3 39.74 0.119 7.39 12.24 13.59
3/9/2021 4:00:00 PM 4.22 39.596 0.121 7.39 12.45 13.57
3/9/2021 4:15:00 PM 4.12 39.416 0.122 7.38 13.26 13.55
3/9/2021 4:30:00 PM 4.03 39.254 0.124 7.39 13.5 13.51
3/9/2021 4:45:00 PM 3.94 39.092 0.125 7.38 13.79 13.49
3/9/2021 5:00:00 PM 3.84 38.912 0.125 7.37 14.62 13.45
3/9/2021 5:15:00 PM 3.76 38.768 0.126 7.36 14.65 13.42
3/9/2021 5:30:00 PM 3.7 38.66 0.125 7.35 16.99 13.37
3/9/2021 5:45:00 PM 3.63 38.534 0.125 7.35 17.14 13.33
3/9/2021 6:00:00 PM 3.56 38.408 0.124 7.34 17.27 13.3
3/9/2021 6:15:00 PM 3.51 38.318 0.123 7.33 18.08 13.27
3/9/2021 6:30:00 PM 3.45 38.21 0.123 7.32 18.42 13.23
3/9/2021 6:45:00 PM 3.4 38.12 0.122 7.32 18.91 13.21
3/9/2021 7:00:00 PM 3.34 38.012 0.12 7.31 19.34 13.2
3/9/2021 7:15:00 PM 3.25 37.85 0.12 7.3 30.33 13.2
3/9/2021 7:30:00 PM 3.17 37.706 0.119 7.28 22.58 13.19
3/9/2021 7:45:00 PM 3.07 37.526 0.118 7.28 16.86 13.2
3/9/2021 8:00:00 PM 2.97 37.346 0.118 7.27 15.55 13.2
3/9/2021 8:15:00 PM 2.86 37.148 0.116 7.27 29.6 13.21
3/9/2021 8:30:00 PM 2.75 36.95 0.116 7.26 22.1 13.22
3/9/2021 8:45:00 PM 2.66 36.788 0.115 7.25 25.03 13.23
3/9/2021 9:00:00 PM 2.57 36.626 0.114 7.25 17.44 13.25
3/9/2021 9:15:00 PM 2.48 36.464 0.113 7.24 21.92 13.26
3/9/2021 9:30:00 PM 2.39 36.302 0.113 7.23 20.51 13.27
3/9/2021 9:45:00 PM 2.3 36.14 0.113 7.23 16.82 13.29
3/9/2021 10:00:00 PM 2.21 35.978 0.112 7.22 39.48 13.31
3/9/2021 10:15:00 PM 2.11 35.798 0.112 7.22 20.04 13.33
3/9/2021 10:30:00 PM 2.01 35.618 0.112 7.21 20.05 13.35
3/9/2021 10:45:00 PM 1.92 35.456 0.111 7.21 18.91 13.38
3/9/2021 11:00:00 PM 1.82 35.276 0.111 7.2 18.86 13.41
3/9/2021 11:15:00 PM 1.73 35.114 0.111 7.2 18.52 13.43
3/9/2021 11:30:00 PM 1.65 34.97 0.111 7.2 18.45 13.46
3/9/2021 11:45:00 PM 1.56 34.808 0.111 7.2 18.21 13.49
3/10/2021 12:00:00 AM 1.49 34.682 0.111 7.2 18.2 13.51
3/10/2021 12:15:00 AM 1.41 34.538 0.111 7.19 17.85 13.54
3/10/2021 12:30:00 AM 1.34 34.412 0.111 7.19 17.68 13.56
3/10/2021 12:45:00 AM 1.28 34.304 0.111 7.19 16.79 13.58
3/10/2021 1:00:00 AM 1.21 34.178 0.11 7.19 15.95 13.6
3/10/2021 1:15:00 AM 1.15 34.07 0.111 7.19 16.29 13.62
3/10/2021 1:30:00 AM 1.1 33.98 0.11 7.19 14.04 13.64
3/10/2021 1:45:00 AM 1.05 33.89 0.11 7.19 14.73 13.66
3/10/2021 2:00:00 AM 0.99 33.782 0.11 7.18 14.31 13.68
3/10/2021 2:15:00 AM 0.95 33.71 0.11 7.18 13.91 13.69
3/10/2021 2:30:00 AM 0.9 33.62 0.11 7.17 13.48 13.71
3/10/2021 2:45:00 AM 0.85 33.53 0.11 7.18 12.75 13.72
3/10/2021 3:00:00 AM 0.81 33.458 0.11 7.18 12.87 13.74
3/10/2021 3:15:00 AM 0.77 33.386 0.11 7.18 12.88 13.75
3/10/2021 3:30:00 AM 0.74 33.332 0.11 7.16 11.64 13.76
3/10/2021 3:45:00 AM 0.7 33.26 0.11 7.18 12.53 13.77
3/10/2021 4:00:00 AM 0.67 33.206 0.11 7.17 11.08 13.78
3/10/2021 4:15:00 AM 0.64 33.152 0.11 7.18 10.91 13.8
3/10/2021 4:30:00 AM 0.61 33.098 0.11 7.17 10.12 13.81
3/10/2021 4:45:00 AM 0.59 33.062 0.11 7.17 10.63 13.82
3/10/2021 5:00:00 AM 0.56 33.008 0.11 7.17 9.87 13.82
3/10/2021 5:15:00 AM 0.53 32.954 0.11 7.16 9.93 13.83
3/10/2021 5:30:00 AM 0.51 32.918 0.11 7.17 9.28 13.85
3/10/2021 5:45:00 AM 0.48 32.864 0.11 7.18 9.66 13.85
3/10/2021 6:00:00 AM 0.46 32.828 0.11 7.16 9.27 13.86
3/10/2021 6:15:00 AM 0.44 32.792 0.11 7.18 9.7 13.87
3/10/2021 6:30:00 AM 0.42 32.756 0.11 7.17 9.66 13.88
3/10/2021 6:45:00 AM 0.41 32.738 0.11 7.17 10.04 13.9
3/10/2021 7:00:00 AM 0.4 32.72 0.111 7.18 9.05 13.94
3/10/2021 7:15:00 AM 0.39 32.702 0.11 7.19 8.69 13.98
3/10/2021 7:30:00 AM 0.4 32.72 0.11 7.19 8.25 14.02
3/10/2021 7:45:00 AM 0.41 32.738 0.11 7.2 8.86 14.06
3/10/2021 8:00:00 AM 0.42 32.756 0.11 7.21 8.32 14.1
3/10/2021 8:15:00 AM 0.45 32.81 0.11 7.21 8.1 14.12
3/10/2021 8:30:00 AM 0.48 32.864 0.11 7.22 8.07 14.15
3/10/2021 8:45:00 AM 0.54 32.972 0.11 7.23 8.09 14.18
3/10/2021 9:00:00 AM 0.63 33.134 0.11 7.24 8.5 14.2
3/10/2021 9:15:00 AM 0.73 33.314 0.11 7.24 8.13 14.22
3/10/2021 9:30:00 AM 0.86 33.548 0.11 7.25 8.13 14.24
3/10/2021 9:45:00 AM 1 33.8 0.11 7.25 8.15 14.25
3/10/2021 10:00:00 AM 1.15 34.07 0.11 7.26 8.27 14.26
3/10/2021 10:15:00 AM 1.33 34.394 0.11 7.27 8.72 14.26
3/10/2021 10:30:00 AM 1.52 34.736 0.11 7.27 9.48 14.25
3/10/2021 10:45:00 AM 1.74 35.132 0.11 7.28 9.23 14.24
3/10/2021 11:00:00 AM 1.96 35.528 0.11 7.29 9.26 14.22
3/10/2021 11:15:00 AM 2.19 35.942 0.109 7.29 9.3 14.2
3/10/2021 11:30:00 AM 2.42 36.356 0.109 7.3 9.38 14.18
3/10/2021 11:45:00 AM 2.64 36.752 0.11 7.31 10.47 14.15
3/10/2021 12:00:00 PM 2.87 37.166 0.109 7.31 10.1 14.11
3/10/2021 12:15:00 PM 3.11 37.598 0.11 7.32 10.87 14.08
3/10/2021 12:30:00 PM 3.33 37.994 0.11 7.32 12.8 14.04
3/10/2021 12:45:00 PM 3.53 38.354 0.11 7.32 12.66 14
3/10/2021 1:00:00 PM 3.74 38.732 0.111 7.33 12.75 13.94
3/10/2021 1:15:00 PM 3.94 39.092 0.113 7.34 13.95 13.9
3/10/2021 1:30:00 PM 4.11 39.398 0.113 7.35 14.54 13.86
3/10/2021 1:45:00 PM 4.26 39.668 0.114 7.35 15.62 13.81
3/10/2021 2:00:00 PM 4.36 39.848 0.115 7.35 18.18 13.75
3/10/2021 2:15:00 PM 4.42 39.956 0.117 7.36 18.76 13.71
3/10/2021 2:30:00 PM 4.43 39.974 0.119 7.36 19.04 13.66
3/10/2021 2:45:00 PM 4.39 39.902 0.121 7.36 16.98 13.61
3/10/2021 3:00:00 PM 4.3 39.74 0.125 7.37 19.73 13.57
3/10/2021 3:15:00 PM 4.25 39.65 0.128 7.37 20.78 13.51
3/10/2021 3:30:00 PM 4.22 39.596 0.139 7.38 22.7 13.46
3/10/2021 3:45:00 PM 4.2 39.56 0.131 7.37 34.88 13.41
3/10/2021 4:00:00 PM 4.19 39.542 0.13 7.36 48.56 13.36
3/10/2021 4:15:00 PM 4.2 39.56 0.128 7.36 45.6 13.31
3/10/2021 4:30:00 PM 4.2 39.56 0.127 7.35 46.3 13.26
3/10/2021 4:45:00 PM 4.2 39.56 0.125 7.35 53.94 13.21
3/10/2021 5:00:00 PM 4.16 39.488 0.121 7.34 48.91 13.18
3/10/2021 5:15:00 PM 4.08 39.344 0.117 7.33 69.75 13.16
3/10/2021 5:30:00 PM 3.98 39.164 0.113 7.33 77.29 13.14
3/10/2021 5:45:00 PM 3.86 38.948 0.11 7.31 85.12 13.12
3/10/2021 6:00:00 PM 3.76 38.768 0.105 7.3 95 13.12
3/10/2021 6:15:00 PM 3.66 38.588 0.101 7.29 67.35 13.1
3/10/2021 6:30:00 PM 3.56 38.408 0.099 7.27 79.51 13.09
3/10/2021 6:45:00 PM 3.43 38.174 0.097 7.25 109.17 13.1
3/10/2021 7:00:00 PM 3.28 37.904 0.095 7.23 80.05 13.12
3/10/2021 7:15:00 PM 3.12 37.616 0.095 7.22 93.4 13.14
3/10/2021 7:30:00 PM 2.94 37.292 0.095 7.19 85.39 13.18
3/10/2021 7:45:00 PM 2.77 36.986 0.094 7.2 85.75 13.23
3/10/2021 8:00:00 PM 2.61 36.698 0.093 7.19 135.62 13.27
3/10/2021 8:15:00 PM 2.46 36.428 0.091 7.19 97.57 13.31
3/10/2021 8:30:00 PM 2.33 36.194 0.091 7.18 83.44 13.34
3/10/2021 8:45:00 PM 2.22 35.996 0.09 7.18 67.07 13.38
3/10/2021 9:00:00 PM 2.14 35.852 0.089 7.17 69 13.4
3/10/2021 9:15:00 PM 2.06 35.708 0.089 7.16 63.28 13.41
3/10/2021 9:30:00 PM 2 35.6 0.089 7.16 50.24 13.43
3/10/2021 9:45:00 PM 1.95 35.51 0.089 7.16 77.96 13.44
3/10/2021 10:00:00 PM 1.91 35.438 0.089 7.16 76.15 13.45
3/10/2021 10:15:00 PM 1.87 35.366 0.089 7.16 39.08 13.46
3/10/2021 10:30:00 PM 1.83 35.294 0.089 7.15 66.73 13.47
3/10/2021 10:45:00 PM 1.8 35.24 0.089 7.16 33.12 13.48
3/10/2021 11:00:00 PM 1.77 35.186 0.089 7.16 46.28 13.48
3/10/2021 11:15:00 PM 1.75 35.15 0.089 7.16 37.11 13.49
3/10/2021 11:30:00 PM 1.74 35.132 0.089 7.15 38.52 13.49
3/10/2021 11:45:00 PM 1.72 35.096 0.089 7.15 47.08 13.5
3/11/2021 12:00:00 AM 1.71 35.078 0.089 7.15 29.34 13.5
3/11/2021 12:15:00 AM 1.71 35.078 0.09 7.16 38.48 13.5
3/11/2021 12:30:00 AM 1.7 35.06 0.089 7.16 28.73 13.5
3/11/2021 12:45:00 AM 1.7 35.06 0.089 7.16 32.42 13.5
3/11/2021 1:00:00 AM 1.69 35.042 0.09 7.15 34.43 13.5
3/11/2021 1:15:00 AM 1.68 35.024 0.089 7.15 21.83 13.5
3/11/2021 1:30:00 AM 1.68 35.024 0.09 7.15 25.98 13.5
3/11/2021 1:45:00 AM 1.68 35.024 0.09 7.15 30.24 13.49
3/11/2021 2:00:00 AM 1.68 35.024 0.09 7.15 25.82 13.5
3/11/2021 2:15:00 AM 1.68 35.024 0.09 7.14 26.08 13.49
3/11/2021 2:30:00 AM 1.69 35.042 0.09 7.15 31.04 13.49
3/11/2021 2:45:00 AM 1.7 35.06 0.09 7.15 24.07 13.48
3/11/2021 3:00:00 AM 1.71 35.078 0.09 7.15 24.44 13.49
3/11/2021 3:15:00 AM 1.71 35.078 0.09 7.14 31.18 13.48
3/11/2021 3:30:00 AM 1.73 35.114 0.09 7.15 22.76 13.47
3/11/2021 3:45:00 AM 1.74 35.132 0.09 7.14 30.98 13.47
3/11/2021 4:00:00 AM 1.76 35.168 0.09 7.13 26.68 13.47
3/11/2021 4:15:00 AM 1.77 35.186 0.09 7.12 24.83 13.47
3/11/2021 4:30:00 AM 1.77 35.186 0.09 7.13 28.65 13.46
3/11/2021 4:45:00 AM 1.78 35.204 0.09 7.12 30.76 13.46
3/11/2021 5:00:00 AM 1.8 35.24 0.089 7.13 27.09 13.46
3/11/2021 5:15:00 AM 1.81 35.258 0.09 7.13 26.09 13.45
3/11/2021 5:30:00 AM 1.82 35.276 0.09 7.13 25.01 13.44
3/11/2021 5:45:00 AM 1.82 35.276 0.09 7.13 22.36 13.45
3/11/2021 6:00:00 AM 1.83 35.294 0.09 7.13 31.54 13.45
3/11/2021 6:15:00 AM 1.84 35.312 0.09 7.13 30.4 13.44
3/11/2021 6:30:00 AM 1.86 35.348 0.089 7.13 23.31 13.43
3/11/2021 6:45:00 AM 1.87 35.366 0.089 7.13 32.03 13.44
3/11/2021 7:00:00 AM 1.88 35.384 0.089 7.13 19.44 13.43
3/11/2021 7:15:00 AM 1.91 35.438 0.089 7.14 22 13.45
3/11/2021 7:30:00 AM 1.94 35.492 0.089 7.14 20.04 13.45
3/11/2021 7:45:00 AM 1.98 35.564 0.089 7.14 33.99 13.47
3/11/2021 8:00:00 AM 2.02 35.636 0.089 7.15 21.26 13.47
3/11/2021 8:15:00 AM 2.05 35.69 0.089 7.15 32.7 13.48
3/11/2021 8:30:00 AM 2.11 35.798 0.089 7.15 29.63 13.49
3/11/2021 8:45:00 AM 2.16 35.888 0.089 7.16 25.06 13.5
3/11/2021 9:00:00 AM 2.24 36.032 0.089 7.17 17.97 13.52
3/11/2021 9:15:00 AM 2.32 36.176 0.089 7.17 21.23 13.53
3/11/2021 9:30:00 AM 2.43 36.374 0.089 7.17 23.09 13.52
3/11/2021 9:45:00 AM 2.56 36.608 0.089 7.18 17.06 13.53
3/11/2021 10:00:00 AM 2.7 36.86 0.088 7.18 27.51 13.52
3/11/2021 10:15:00 AM 2.87 37.166 0.088 7.18 28.94 13.51
3/11/2021 10:30:00 AM 3.04 37.472 0.088 7.2 21.49 13.49
3/11/2021 10:45:00 AM 3.19 37.742 0.088 7.2 28.34 13.48
3/11/2021 11:00:00 AM 3.36 38.048 0.089 7.21 22.11 13.45
3/11/2021 11:15:00 AM 3.53 38.354 0.089 7.21 24.63 13.43
3/11/2021 11:30:00 AM 3.72 38.696 0.089 7.21 51.18 13.39
3/11/2021 11:45:00 AM 3.88 38.984 0.09 7.22 43 13.36
3/11/2021 12:00:00 PM 4.02 39.236 0.09 7.23 64.02 13.31
3/11/2021 12:15:00 PM 4.2 39.56 0.09 7.23 31.59 13.27
3/11/2021 12:30:00 PM 4.33 39.794 0.091 7.22 63.19 13.23
3/11/2021 12:45:00 PM 4.45 40.01 0.09 7.23 64.75 13.17
3/11/2021 1:00:00 PM 4.56 40.208 0.09 7.23 63.67 13.12
3/11/2021 1:15:00 PM 4.6 40.28 0.089 7.22 83.15 13.06
3/11/2021 1:30:00 PM 4.57 40.226 0.088 7.18 92.64 13.01
3/11/2021 1:45:00 PM 4.56 40.208 0.085 7.19 114.92 12.97
3/11/2021 2:00:00 PM 4.54 40.172 0.083 7.16 144.13 12.93
3/11/2021 2:15:00 PM 4.5 40.1 0.08 7.15 131.87 12.9
3/11/2021 2:30:00 PM 4.47 40.046 0.078 7.13 144.67 12.87
3/11/2021 2:45:00 PM 4.48 40.064 0.075 7.14 161.8 12.84
3/11/2021 3:00:00 PM 4.42 39.956 0.073 7.12 184.41 12.82
3/11/2021 3:15:00 PM 4.38 39.884 0.069 7.1 216.78 12.81
3/11/2021 3:30:00 PM 4.31 39.758 0.068 7.1 187.52 12.82
3/11/2021 3:45:00 PM 4.2 39.56 0.065 7.08 225.01 12.83
3/11/2021 4:00:00 PM 4.09 39.362 0.067 7.07 200.14 12.84
3/11/2021 4:15:00 PM 4.01 39.218 0.066 7.06 308.27 12.86
3/11/2021 4:30:00 PM 3.92 39.056 0.065 7.06 221.27 12.87
3/11/2021 4:45:00 PM 3.87 38.966 0.064 7.05 197.79 12.89
3/11/2021 5:00:00 PM 3.82 38.876 0.064 7.04 199.74 12.9
3/11/2021 5:15:00 PM 3.79 38.822 0.064 7.04 216.72 12.91
3/11/2021 5:30:00 PM 3.77 38.786 0.063 7.03 198.25 12.91
3/11/2021 5:45:00 PM 3.75 38.75 0.063 7.04 155.75 12.91
3/11/2021 6:00:00 PM 3.72 38.696 0.062 7.03 211.78 12.9
3/11/2021 6:15:00 PM 3.68 38.624 0.062 7.03 157.17 12.91
3/11/2021 6:30:00 PM 3.65 38.57 0.061 7.04 182.62 12.92
3/11/2021 6:45:00 PM 3.62 38.516 0.061 7.05 143.99 12.92
3/11/2021 7:00:00 PM 3.6 38.48 0.061 7.02 136.89 12.92
3/11/2021 7:15:00 PM 3.57 38.426 0.06 7.02 132 12.93
3/11/2021 7:30:00 PM 3.54 38.372 0.06 7.03 153.18 12.93
3/11/2021 7:45:00 PM 3.51 38.318 0.06 7.02 149.41 12.94
3/11/2021 8:00:00 PM 3.47 38.246 0.06 7.02 121.19 12.94
3/11/2021 8:15:00 PM 3.44 38.192 0.06 7.02 109.27 12.94
3/11/2021 8:30:00 PM 3.41 38.138 0.06 7 106.13 12.95
3/11/2021 8:45:00 PM 3.4 38.12 0.06 7.02 121.34 12.95
3/11/2021 9:00:00 PM 3.39 38.102 0.059 7.02 125.49 12.95
3/11/2021 9:15:00 PM 3.37 38.066 0.059 7.01 106.18 12.96
3/11/2021 9:30:00 PM 3.36 38.048 0.059 7.01 101.29 12.96
3/11/2021 9:45:00 PM 3.34 38.012 0.059 7.01 135.15 12.96
3/11/2021 10:00:00 PM 3.33 37.994 0.059 7.01 104.98 12.96
3/11/2021 10:15:00 PM 3.31 37.958 0.059 7.02 120.06 12.97
3/11/2021 10:30:00 PM 3.29 37.922 0.059 7 108.41 12.97
3/11/2021 10:45:00 PM 3.27 37.886 0.059 6.99 82.01 12.97
3/11/2021 11:00:00 PM 3.26 37.868 0.059 6.98 88.48 12.98
3/11/2021 11:15:00 PM 3.24 37.832 0.059 7 87.57 12.99
3/11/2021 11:30:00 PM 3.21 37.778 0.059 7 87.35 12.99
3/11/2021 11:45:00 PM 3.19 37.742 0.059 6.99 121.16 13
3/12/2021 12:00:00 AM 3.17 37.706 0.059 6.99 95.8 13
3/12/2021 12:15:00 AM 3.17 37.706 0.059 7 112.4 13
3/12/2021 12:30:00 AM 3.16 37.688 0.059 6.98 99.5 13
3/12/2021 12:45:00 AM 3.15 37.67 0.058 7 70.81 13
3/12/2021 1:00:00 AM 3.14 37.652 0.058 7.01 105.99 13
3/12/2021 1:15:00 AM 3.14 37.652 0.059 7.01 101.19 13
3/12/2021 1:30:00 AM 3.13 37.634 0.059 6.99 73.44 13
3/12/2021 1:45:00 AM 3.14 37.652 0.059 7 88.97 13
3/12/2021 2:00:00 AM 3.15 37.67 0.059 7 60.35 13
3/12/2021 2:15:00 AM 3.16 37.688 0.059 6.99 67.21 13.01
3/12/2021 2:30:00 AM 3.16 37.688 0.059 6.98 86.34 13.01
3/12/2021 2:45:00 AM 3.18 37.724 0.059 6.98 68.29 13
3/12/2021 3:00:00 AM 3.19 37.742 0.059 6.99 95.02 13
3/12/2021 3:15:00 AM 3.19 37.742 0.059 7 82.87 13
3/12/2021 3:30:00 AM 3.19 37.742 0.059 6.99 86.83 13
3/12/2021 3:45:00 AM 3.2 37.76 0.059 7.01 74.66 13
3/12/2021 4:00:00 AM 3.19 37.742 0.058 7.01 86.82 13
3/12/2021 4:15:00 AM 3.2 37.76 0.059 7 77.83 13
3/12/2021 4:30:00 AM 3.2 37.76 0.059 7.01 67.61 13
3/12/2021 4:45:00 AM 3.2 37.76 0.058 7.01 84.76 13
3/12/2021 5:00:00 AM 3.19 37.742 0.058 7.01 70.1 13
3/12/2021 5:15:00 AM 3.18 37.724 0.058 7.01 59.08 13.01
3/12/2021 5:30:00 AM 3.15 37.67 0.058 7 65.38 13.01
3/12/2021 5:45:00 AM 3.12 37.616 0.058 7 62.46 13.02
3/12/2021 6:00:00 AM 3.09 37.562 0.059 7 70.17 13.02
3/12/2021 6:15:00 AM 3.05 37.49 0.058 7.01 67.85 13.03
3/12/2021 6:30:00 AM 3.01 37.418 0.059 7 63.3 13.04
3/12/2021 6:45:00 AM 2.97 37.346 0.058 7.01 53.48 13.06
3/12/2021 7:00:00 AM 2.93 37.274 0.058 6.99 67.78 13.07
3/12/2021 7:15:00 AM 2.9 37.22 0.059 6.99 76.24 13.09
3/12/2021 7:30:00 AM 2.87 37.166 0.058 6.99 68.21 13.1
3/12/2021 7:45:00 AM 2.84 37.112 0.058 7 85.84 13.12
3/12/2021 8:00:00 AM 2.83 37.094 0.058 7 60.64 13.13
3/12/2021 8:15:00 AM 2.83 37.094 0.058 6.99 62.07 13.14
3/12/2021 8:30:00 AM 2.85 37.13 0.059 6.98 52.11 13.15
3/12/2021 8:45:00 AM 2.88 37.184 0.062 6.99 43.29 13.16
3/12/2021 9:00:00 AM 2.94 37.292 0.059 7 53.4 13.17
3/12/2021 9:15:00 AM 3 37.4 0.059 7.02 41.17 13.18
3/12/2021 9:30:00 AM 3.07 37.526 0.059 7 61.38 13.17
3/12/2021 9:45:00 AM 3.16 37.688 0.059 7.02 56.91 13.18
3/12/2021 10:00:00 AM 3.26 37.868 0.059 7.03 57.21 13.16
3/12/2021 10:15:00 AM 3.37 38.066 0.059 7.03 53.53 13.15
3/12/2021 10:30:00 AM 3.5 38.3 0.059 7.02 64.81 13.14
3/12/2021 10:45:00 AM 3.65 38.57 0.059 7.03 57.45 13.11
3/12/2021 11:00:00 AM 3.81 38.858 0.059 7.03 67.82 13.08
3/12/2021 11:15:00 AM 3.98 39.164 0.059 7.04 47.31 13.05
3/12/2021 11:30:00 AM 4.16 39.488 0.059 7.04 46.6 13.01
3/12/2021 11:45:00 AM 4.34 39.812 0.059 7.04 60.12 12.96
3/12/2021 12:00:00 PM 4.52 40.136 0.059 7.05 51.09 12.92
3/12/2021 12:15:00 PM 4.7 40.46 0.059 7.05 78.39 12.88
3/12/2021 12:30:00 PM 4.88 40.784 0.059 7.05 51.51 12.83
3/12/2021 12:45:00 PM 5.04 41.072 0.059 7.04 58.01 12.78
3/12/2021 1:00:00 PM 5.21 41.378 0.059 7.06 44.03 12.73
3/12/2021 1:15:00 PM 5.36 41.648 0.059 7.06 59.12 12.68
3/12/2021 1:30:00 PM 5.49 41.882 0.059 7.06 70.58 12.64
3/12/2021 1:45:00 PM 5.62 42.116 0.059 7.06 41.4 12.58
3/12/2021 2:00:00 PM 5.73 42.314 0.059 7.05 42.7 12.54
3/12/2021 2:15:00 PM 5.82 42.476 0.059 7.06 58.02 12.5
3/12/2021 2:30:00 PM 5.9 42.62 0.059 7.06 74.69 12.46
3/12/2021 2:45:00 PM 5.96 42.728 0.059 7.05 61.28 12.42
3/12/2021 3:00:00 PM 6 42.8 0.058 7.06 59.26 12.39
3/12/2021 3:15:00 PM 6.02 42.836 0.058 7.05 48.1 12.37
3/12/2021 3:30:00 PM 6.02 42.836 0.058 7.05 68.38 12.35
3/12/2021 3:45:00 PM 6 42.8 0.058 7.06 48.6 12.33
3/12/2021 4:00:00 PM 5.97 42.746 0.058 7.06 56.52 12.31
3/12/2021 4:15:00 PM 5.92 42.656 0.057 7.06 54.13 12.29
3/12/2021 4:30:00 PM 5.86 42.548 0.057 7.05 83.04 12.3
3/12/2021 4:45:00 PM 5.8 42.44 0.058 7.05 74.59 12.29
3/12/2021 5:00:00 PM 5.72 42.296 0.057 7.05 65.68 12.29
3/12/2021 5:15:00 PM 5.63 42.134 0.057 7.05 54.39 12.3
3/12/2021 5:30:00 PM 5.53 41.954 0.057 7.06 61.82 12.3
3/12/2021 5:45:00 PM 5.43 41.774 0.057 7.05 56.95 12.31
3/12/2021 6:00:00 PM 5.33 41.594 0.057 7.03 86.04 12.33
3/12/2021 6:15:00 PM 5.21 41.378 0.057 7.01 70.18 12.35
3/12/2021 6:30:00 PM 5.09 41.162 0.057 7 46.51 12.38
3/12/2021 6:45:00 PM 4.98 40.964 0.056 6.99 59.29 12.38
3/12/2021 7:00:00 PM 4.86 40.748 0.056 6.99 60.86 12.42
3/12/2021 7:15:00 PM 4.75 40.55 0.056 6.99 60.91 12.45
3/12/2021 7:30:00 PM 4.64 40.352 0.056 7.02 66.87 12.47
3/12/2021 7:45:00 PM 4.53 40.154 0.057 7 51.28 12.5
3/12/2021 8:00:00 PM 4.43 39.974 0.056 6.99 51.67 12.53
3/12/2021 8:15:00 PM 4.35 39.83 0.056 7 59.62 12.56
3/12/2021 8:30:00 PM 4.27 39.686 0.057 6.99 39.82 12.58
3/12/2021 8:45:00 PM 4.2 39.56 0.057 6.98 52.03 12.61
3/12/2021 9:00:00 PM 4.13 39.434 0.057 6.98 63.37 12.63
3/12/2021 9:15:00 PM 4.06 39.308 0.057 6.99 42.87 12.65
3/12/2021 9:30:00 PM 3.98 39.164 0.057 6.97 53.29 12.67
3/12/2021 9:45:00 PM 3.9 39.02 0.057 6.98 43.67 12.7
3/12/2021 10:00:00 PM 3.83 38.894 0.057 6.98 44.57 12.73
3/12/2021 10:15:00 PM 3.76 38.768 0.057 6.99 58.42 12.73
3/12/2021 10:30:00 PM 3.68 38.624 0.057 6.99 35.44 12.76
3/12/2021 10:45:00 PM 3.61 38.498 0.057 6.99 44.5 12.79
3/12/2021 11:00:00 PM 3.53 38.354 0.057 6.97 62.67 12.82
3/12/2021 11:15:00 PM 3.45 38.21 0.057 6.99 42.76 12.83
3/12/2021 11:30:00 PM 3.37 38.066 0.057 6.99 47.48 12.85
3/12/2021 11:45:00 PM 3.29 37.922 0.058 6.99 38.22 12.88
3/13/2021 12:00:00 AM 3.2 37.76 0.058 6.99 44.75 12.91
3/13/2021 12:15:00 AM 3.12 37.616 0.058 6.99 38 12.93
3/13/2021 12:30:00 AM 3.03 37.454 0.058 6.99 34.47 12.96
3/13/2021 12:45:00 AM 2.94 37.292 0.058 6.99 34.24 12.99
3/13/2021 1:00:00 AM 2.85 37.13 0.058 7 36.37 13.02
3/13/2021 1:15:00 AM 2.76 36.968 0.058 7.01 36.71 13.06
3/13/2021 1:30:00 AM 2.66 36.788 0.058 7 29.84 13.09
3/13/2021 1:45:00 AM 2.57 36.626 0.058 7 32.79 13.12
3/13/2021 2:00:00 AM 2.48 36.464 0.058 7 35.14 13.15
3/13/2021 2:15:00 AM 2.39 36.302 0.058 7 37.26 13.19
3/13/2021 2:30:00 AM 2.31 36.158 0.058 7.01 37.09 13.22
3/13/2021 2:45:00 AM 2.23 36.014 0.059 7.01 36.56 13.24
3/13/2021 3:00:00 AM 2.15 35.87 0.059 7 25.02 13.27
3/13/2021 3:15:00 AM 2.08 35.744 0.059 7 39.15 13.3
3/13/2021 3:30:00 AM 2.01 35.618 0.059 6.99 29.8 13.33
3/13/2021 3:45:00 AM 1.94 35.492 0.059 6.99 30.44 13.35
3/13/2021 4:00:00 AM 1.88 35.384 0.059 6.99 40.23 13.38
3/13/2021 4:15:00 AM 1.83 35.294 0.059 6.99 29.49 13.4
3/13/2021 4:30:00 AM 1.77 35.186 0.059 6.99 30.51 13.43
3/13/2021 4:45:00 AM 1.7 35.06 0.059 7 28.71 13.45
3/13/2021 5:00:00 AM 1.64 34.952 0.059 7 32.05 13.48
3/13/2021 5:15:00 AM 1.59 34.862 0.059 7 31.44 13.5
3/13/2021 5:30:00 AM 1.53 34.754 0.059 7 26.47 13.52
3/13/2021 5:45:00 AM 1.48 34.664 0.059 7 29.31 13.55
3/13/2021 6:00:00 AM 1.43 34.574 0.059 7 26.18 13.56
3/13/2021 6:15:00 AM 1.38 34.484 0.059 7 26.91 13.59
3/13/2021 6:30:00 AM 1.33 34.394 0.059 7 26.66 13.6
3/13/2021 6:45:00 AM 1.29 34.322 0.06 6.99 23.6 13.62
3/13/2021 7:00:00 AM 1.26 34.268 0.06 7 31.42 13.64
3/13/2021 7:15:00 AM 1.22 34.196 0.06 7.01 24.89 13.66
3/13/2021 7:30:00 AM 1.2 34.16 0.06 7.01 23.49 13.68
3/13/2021 7:45:00 AM 1.18 34.124 0.06 7.02 19.9 13.7
3/13/2021 8:00:00 AM 1.18 34.124 0.06 7.01 30.7 13.71
3/13/2021 8:15:00 AM 1.19 34.142 0.06 7.01 24.67 13.73
3/13/2021 8:30:00 AM 1.22 34.196 0.06 7.01 23.68 13.75
3/13/2021 8:45:00 AM 1.27 34.286 0.06 7.02 18.82 13.76
3/13/2021 9:00:00 AM 1.32 34.376 0.06 7.02 24.64 13.76
3/13/2021 9:15:00 AM 1.4 34.52 0.06 7.03 22.97 13.76
3/13/2021 9:30:00 AM 1.48 34.664 0.06 7.03 26.43 13.77
3/13/2021 9:45:00 AM 1.57 34.826 0.06 7.03 19.41 13.77
3/13/2021 10:00:00 AM 1.67 35.006 0.06 7.03 21.48 13.76
3/13/2021 10:15:00 AM 1.78 35.204 0.06 7.04 20.61 13.75
3/13/2021 10:30:00 AM 1.91 35.438 0.06 7.04 24.34 13.74
3/13/2021 10:45:00 AM 2.04 35.672 0.06 7.03 23.03 13.72
3/13/2021 11:00:00 AM 2.19 35.942 0.06 7.05 21.11 13.71
3/13/2021 11:15:00 AM 2.35 36.23 0.06 7.06 10302.15 13.68
3/13/2021 11:30:00 AM 2.53 36.554 0.06 7.06 20.5 13.65
3/13/2021 11:45:00 AM 2.7 36.86 0.06 7.06 27.43 13.61
3/13/2021 12:00:00 PM 2.88 37.184 0.06 7.06 25.81 13.57
3/13/2021 12:15:00 PM 3.06 37.508 0.061 7.06 22.5 13.52
3/13/2021 12:30:00 PM 3.24 37.832 0.06 7.08 18.45 13.47
3/13/2021 12:45:00 PM 3.41 38.138 0.06 7.07 22.71 13.43
3/13/2021 1:00:00 PM 3.57 38.426 0.06 7.07 23.43 13.37
3/13/2021 1:15:00 PM 3.73 38.714 0.06 7.08 25.1 13.32
3/13/2021 1:30:00 PM 3.88 38.984 0.06 7.09 26.28 13.29
3/13/2021 1:45:00 PM 4.02 39.236 0.06 7.09 18.92 13.23
3/13/2021 2:00:00 PM 4.14 39.452 0.06 7.09 22.11 13.18
3/13/2021 2:15:00 PM 4.26 39.668 0.061 7.09 22.5 13.13
3/13/2021 2:30:00 PM 4.35 39.83 0.06 7.09 18.93 13.08
3/13/2021 2:45:00 PM 4.43 39.974 0.061 7.09 22.36 13.03
3/13/2021 3:00:00 PM 4.51 40.118 0.061 7.09 23.16 12.99
3/13/2021 3:15:00 PM 4.56 40.208 0.061 7.09 23.49 12.95
3/13/2021 3:30:00 PM 4.59 40.262 0.061 7.1 23.16 12.92
3/13/2021 3:45:00 PM 4.6 40.28 0.061 7.1 23.2 12.89
3/13/2021 4:00:00 PM 4.58 40.244 0.061 7.09 23.3 12.86
3/13/2021 4:15:00 PM 4.56 40.208 0.061 7.09 22.51 12.85
3/13/2021 4:30:00 PM 4.51 40.118 0.061 7.08 21.33 12.83
3/13/2021 4:45:00 PM 4.46 40.028 0.061 7.08 22.73 12.82
3/13/2021 5:00:00 PM 4.4 39.92 0.061 7.11 29.32 12.81
3/13/2021 5:15:00 PM 4.34 39.812 0.061 7.12 23.15 12.81
3/13/2021 5:30:00 PM 4.27 39.686 0.061 7.08 21.51 12.8
3/13/2021 5:45:00 PM 4.19 39.542 0.061 7.06 23.84 12.8
3/13/2021 6:00:00 PM 4.11 39.398 0.061 7.06 22.53 12.79
3/13/2021 6:15:00 PM 4.03 39.254 0.061 7.04 24.49 12.79
3/13/2021 6:30:00 PM 3.93 39.074 0.061 7.03 19.93 12.8
3/13/2021 6:45:00 PM 3.83 38.894 0.061 7.03 22.38 12.81
3/13/2021 7:00:00 PM 3.73 38.714 0.061 7.02 27.77 12.82
3/13/2021 7:15:00 PM 3.63 38.534 0.062 7.02 22.46 12.84
3/13/2021 7:30:00 PM 3.54 38.372 0.061 7.02 21.74 12.84
3/13/2021 7:45:00 PM 3.44 38.192 0.061 7.02 23.21 12.86
3/13/2021 8:00:00 PM 3.35 38.03 0.061 7.02 22.05 12.88
3/13/2021 8:15:00 PM 3.25 37.85 0.062 7.03 23.29 12.9
3/13/2021 8:30:00 PM 3.15 37.67 0.062 7.02 21.74 12.92
3/13/2021 8:45:00 PM 3.06 37.508 0.062 7.03 20.54 12.93
3/13/2021 9:00:00 PM 2.97 37.346 0.062 7.01 21.13 12.96
3/13/2021 9:15:00 PM 2.89 37.202 0.062 7.02 23.68 12.98
3/13/2021 9:30:00 PM 2.82 37.076 0.062 7.01 20.27 13
3/13/2021 9:45:00 PM 2.74 36.932 0.062 7.01 20.34 13.02
3/13/2021 10:00:00 PM 2.67 36.806 0.062 7.01 21.38 13.03
3/13/2021 10:15:00 PM 2.6 36.68 0.062 7.01 20.47 13.07
3/13/2021 10:30:00 PM 2.54 36.572 0.063 7.01 20.31 13.09
3/13/2021 10:45:00 PM 2.47 36.446 0.063 7.02 20.58 13.09
3/13/2021 11:00:00 PM 2.42 36.356 0.063 7.01 19.21 13.12
3/13/2021 11:15:00 PM 2.37 36.266 0.063 7.02 20.28 13.14
3/13/2021 11:30:00 PM 2.32 36.176 0.063 7.02 20.13 13.16
3/13/2021 11:45:00 PM 2.27 36.086 0.063 7.02 19.9 13.17
3/14/2021 12:00:00 AM 2.22 35.996 0.063 7.02 20.06 13.19
3/14/2021 12:15:00 AM 2.17 35.906 0.063 7.02 19.35 13.19
3/14/2021 12:30:00 AM 2.11 35.798 0.063 7.02 19.83 13.21
3/14/2021 12:45:00 AM 2.07 35.726 0.063 7.02 19.79 13.23
3/14/2021 1:00:00 AM 2.02 35.636 0.063 7.02 20.37 13.24
3/14/2021 1:15:00 AM 1.98 35.564 0.063 7.02 19.75 13.25
3/14/2021 1:30:00 AM 1.94 35.492 0.063 7.02 19.73 13.26
3/14/2021 1:45:00 AM 1.92 35.456 0.063 7.02 19.35 13.27
3/14/2021 3:00:00 AM 1.89 35.402 0.064 7.02 18.6 13.29
3/14/2021 3:15:00 AM 1.89 35.402 0.064 7.02 18.01 13.29
3/14/2021 3:30:00 AM 1.9 35.42 0.064 7.02 18.33 13.29
3/14/2021 3:45:00 AM 1.9 35.42 0.064 7.01 18.12 13.29
3/14/2021 4:00:00 AM 1.9 35.42 0.064 7.02 18.44 13.29
3/14/2021 5:15:00 AM 1.9 35.42 0.064 7.02 18.15 13.29
3/14/2021 5:30:00 AM 1.9 35.42 0.064 7.02 19.01 13.29
3/14/2021 5:45:00 AM 1.9 35.42 0.064 7.02 17.9 13.28
3/14/2021 6:00:00 AM 1.9 35.42 0.064 7.03 17.36 13.28
3/14/2021 6:15:00 AM 1.91 35.438 0.064 7.02 15.82 13.27
3/14/2021 6:30:00 AM 1.91 35.438 0.064 7.03 18.73 13.27
3/14/2021 6:45:00 AM 1.91 35.438 0.064 7.02 17.93 13.27
3/14/2021 7:00:00 AM 1.91 35.438 0.064 7.03 17.91 13.27
3/14/2021 7:15:00 AM 1.91 35.438 0.064 7.02 17.23 13.27
3/14/2021 7:30:00 AM 1.92 35.456 0.064 7.02 17.08 13.27
3/14/2021 7:45:00 AM 1.93 35.474 0.064 7.03 17.51 13.26
3/14/2021 8:00:00 AM 1.94 35.492 0.064 7.03 17.09 13.27
3/14/2021 8:15:00 AM 1.95 35.51 0.064 7.04 17.61 13.29
3/14/2021 8:30:00 AM 1.96 35.528 0.064 7.04 16.93 13.3
3/14/2021 8:45:00 AM 1.97 35.546 0.064 7.04 16.51 13.31
3/14/2021 9:00:00 AM 1.97 35.546 0.065 7.04 16.47 13.31
3/14/2021 9:15:00 AM 1.99 35.582 0.065 7.05 16.52 13.33
3/14/2021 9:30:00 AM 2.03 35.654 0.065 7.06 17.03 13.34
3/14/2021 9:45:00 AM 2.07 35.726 0.065 7.06 17.29 13.35
3/14/2021 10:00:00 AM 2.12 35.816 0.065 7.06 17.7 13.36
3/14/2021 10:15:00 AM 2.16 35.888 0.065 7.07 17.27 13.37
3/14/2021 10:30:00 AM 2.22 35.996 0.065 7.08 16.69 13.39
3/14/2021 10:45:00 AM 2.26 36.068 0.065 7.06 16.61 13.38
3/14/2021 11:00:00 AM 2.34 36.212 0.065 7.07 16.53 13.39
3/14/2021 11:15:00 AM 2.4 36.32 0.065 7.08 16.81 13.38
3/14/2021 11:30:00 AM 2.54 36.572 0.065 7.08 17.17 13.38
3/14/2021 11:45:00 AM 2.67 36.806 0.065 7.08 17.3 13.36
3/14/2021 12:00:00 PM 2.74 36.932 0.065 7.09 16.95 13.35
3/14/2021 12:15:00 PM 2.8 37.04 0.065 7.09 17.13 13.33
3/14/2021 12:30:00 PM 2.91 37.238 0.065 7.09 17 13.3
3/14/2021 12:45:00 PM 3.06 37.508 0.065 7.1 16.87 13.28
3/14/2021 1:00:00 PM 3.2 37.76 0.065 7.1 16.29 13.26
3/14/2021 1:15:00 PM 3.23 37.814 0.065 7.11 17.13 13.23
3/14/2021 1:30:00 PM 3.22 37.796 0.065 7.11 16.6 13.22
3/14/2021 1:45:00 PM 3.3 37.94 0.065 7.11 17.19 13.2
3/14/2021 2:00:00 PM 3.45 38.21 0.065 7.11 17.14 13.17
3/14/2021 2:15:00 PM 3.58 38.444 0.065 7.12 17.11 13.14
3/14/2021 2:30:00 PM 3.63 38.534 0.065 7.12 17.06 13.11
3/14/2021 2:45:00 PM 3.73 38.714 0.065 7.12 17.6 13.08
3/14/2021 3:00:00 PM 3.81 38.858 0.065 7.12 16.6 13.08
3/14/2021 3:15:00 PM 3.85 38.93 0.065 7.13 16.35 13.05
3/14/2021 3:30:00 PM 3.89 39.002 0.065 7.14 16.41 13.04
3/14/2021 3:45:00 PM 3.92 39.056 0.065 7.16 16.85 13.01
3/14/2021 4:00:00 PM 3.94 39.092 0.065 7.16 16.38 13.01
3/14/2021 4:15:00 PM 3.87 38.966 0.065 7.16 16.4 13
3/14/2021 4:30:00 PM 3.88 38.984 0.065 7.15 16.54 12.99
3/14/2021 4:45:00 PM 3.88 38.984 0.065 7.14 16.8 12.98
3/14/2021 5:00:00 PM 3.85 38.93 0.065 7.15 16.64 12.97
3/14/2021 5:15:00 PM 3.84 38.912 0.065 7.14 16.72 12.96
3/14/2021 5:30:00 PM 3.83 38.894 0.065 7.14 16.92 12.97
3/14/2021 5:45:00 PM 3.77 38.786 0.066 7.14 16.3 12.95
3/14/2021 6:00:00 PM 3.71 38.678 0.066 7.13 16.19 12.97
3/14/2021 6:15:00 PM 3.63 38.534 0.065 7.14 15.64 12.97
3/14/2021 6:30:00 PM 3.54 38.372 0.066 7.14 16.19 12.98
3/14/2021 6:45:00 PM 3.43 38.174 0.066 7.13 16.22 12.98
3/14/2021 7:00:00 PM 3.32 37.976 0.066 7.12 16.62 12.99
3/14/2021 7:15:00 PM 3.24 37.832 0.066 7.1 16.8 12.99
3/14/2021 7:30:00 PM 3.16 37.688 0.066 7.09 16.87 13
3/14/2021 7:45:00 PM 3.07 37.526 0.066 7.1 17.65 13.01
3/14/2021 8:00:00 PM 2.98 37.364 0.066 7.1 17.17 13.02
3/14/2021 8:15:00 PM 2.86 37.148 0.066 7.09 16.94 13.04
3/14/2021 8:30:00 PM 2.73 36.914 0.066 7.08 16.46 13.06
3/14/2021 8:45:00 PM 2.63 36.734 0.066 7.08 16.48 13.08
3/14/2021 9:00:00 PM 2.54 36.572 0.067 7.07 16.63 13.1
3/14/2021 9:15:00 PM 2.46 36.428 0.066 7.08 15.92 13.12
3/14/2021 9:30:00 PM 2.38 36.284 0.067 7.07 16.43 13.15
3/14/2021 9:45:00 PM 2.29 36.122 0.067 7.06 16.12 13.17
3/14/2021 10:00:00 PM 2.17 35.906 0.067 7.07 16.79 13.2
3/14/2021 10:15:00 PM 2.07 35.726 0.067 7.07 15.8 13.23
3/14/2021 10:30:00 PM 1.96 35.528 0.067 7.07 16.04 13.26
3/14/2021 10:45:00 PM 1.85 35.33 0.067 7.07 16.03 13.29
3/14/2021 11:00:00 PM 1.76 35.168 0.067 7.07 16.31 13.32
3/14/2021 11:15:00 PM 1.67 35.006 0.067 7.05 16.57 13.35
3/14/2021 11:30:00 PM 1.57 34.826 0.067 7.06 15.85 13.38
3/14/2021 11:45:00 PM 1.48 34.664 0.067 7.07 17.07 13.43
3/15/2021 12:00:00 AM 1.39 34.502 0.067 7.1 17.84 13.46
3/15/2021 12:15:00 AM 1.3 34.34 0.068 7.1 15.95 13.49
3/15/2021 12:30:00 AM 1.23 34.214 0.068 7.1 16.24 13.51
3/15/2021 12:45:00 AM 1.17 34.106 0.068 7.11 15.58 13.54
3/15/2021 1:00:00 AM 1.1 33.98 0.068 7.11 15.38 13.57
3/15/2021 1:15:00 AM 1.03 33.854 0.068 7.11 17.07 13.6
3/15/2021 1:30:00 AM 0.95 33.71 0.068 7.11 16.09 13.62
3/15/2021 1:45:00 AM 0.89 33.602 0.068 7.12 17.16 13.65
3/15/2021 2:00:00 AM 0.84 33.512 0.068 7.1 16.42 13.67
3/15/2021 2:15:00 AM 0.78 33.404 0.068 7.11 16.46 13.7
3/15/2021 2:30:00 AM 0.73 33.314 0.068 7.09 15.98 13.71
3/15/2021 2:45:00 AM 0.68 33.224 0.069 7.1 14.85 13.74
3/15/2021 3:00:00 AM 0.62 33.116 0.068 7.1 14.7 13.76
3/15/2021 3:15:00 AM 0.56 33.008 0.068 7.11 14.76 13.78
3/15/2021 3:30:00 AM 0.51 32.918 0.068 7.11 15.91 13.8
3/15/2021 3:45:00 AM 0.45 32.81 0.068 7.11 16.83 13.82
3/15/2021 4:00:00 AM 0.4 32.72 0.068 7.12 17.29 13.84
3/15/2021 4:15:00 AM 0.33 32.594 0.068 7.12 16.62 13.87
3/15/2021 4:30:00 AM 0.28 32.504 0.068 7.12 18.04 13.89
3/15/2021 4:45:00 AM 0.23 32.414 0.069 7.09 17.5 13.91
3/15/2021 5:00:00 AM 0.18 32.324 0.069 7.08 19.63 13.93
3/15/2021 5:15:00 AM 0.14 32.252 0.069 7.08 19.32 13.94
3/15/2021 5:30:00 AM 0.09 32.162 0.069 7.07 19.14 13.97
3/15/2021 5:45:00 AM 0.04 32.072 0.069 7.07 17.62 13.99
3/15/2021 6:00:00 AM -0.02 31.964 0.069 7.07 19 14
3/15/2021 6:15:00 AM -0.01 31.982 0.069 7.08 17.51 14.02
3/15/2021 6:30:00 AM 0 32 0.069 7.09 21.9 14.04
3/15/2021 6:45:00 AM 0 32 0.069 7.08 19.19 14.05
3/15/2021 7:00:00 AM 0 32 0.07 7.1 16.1 14.07
3/15/2021 7:15:00 AM 0 32 0.07 7.1 15.05 14.09
3/15/2021 7:30:00 AM 0 32 0.07 7.1 14.95 14.09
3/15/2021 7:45:00 AM 0 32 0.071 7.1 14.72 14.11
3/15/2021 8:00:00 AM 0 32 0.071 7.11 14.94 14.13
3/15/2021 8:15:00 AM 0 32 0.071 7.1 14.79 14.14
3/15/2021 8:30:00 AM 0.01 32.018 0.071 7.11 15.2 14.09
3/15/2021 8:45:00 AM 0.01 32.018 0.071 7.1 14.5 14.08
3/15/2021 9:00:00 AM 0.01 32.018 0.071 7.11 13.78 14.16
3/15/2021 9:15:00 AM 0.01 32.018 0.071 7.11 13.46 14.17
3/15/2021 9:30:00 AM 0.01 32.018 0.071 7.11 13.41 14.21
3/15/2021 9:45:00 AM 0.01 32.018 0.071 7.12 13.49 14.23
3/15/2021 10:00:00 AM 0.01 32.018 0.071 7.13 14.32 14.23
3/15/2021 10:15:00 AM 0.01 32.018 0.071 7.13 16.09 14.24
3/15/2021 10:30:00 AM 0.03 32.054 0.071 7.14 16.67 14.24
3/15/2021 10:45:00 AM 0.07 32.126 0.071 7.14 30.09 14.24
3/15/2021 11:00:00 AM 0.13 32.234 0.071 7.14 1165.32 14.24
3/15/2021 11:15:00 AM 0.21 32.378 0.071 7.14 17.69 14.24
3/15/2021 11:30:00 AM 0.32 32.576 0.071 7.14 18.12 14.23
3/15/2021 11:45:00 AM 0.45 32.81 0.071 7.15 15.87 14.22
3/15/2021 12:00:00 PM 0.6 33.08 0.071 7.15 15.42 14.21
3/15/2021 12:15:00 PM 0.75 33.35 0.071 7.15 16.23 14.21
3/15/2021 12:30:00 PM 0.88 33.584 0.072 7.14 15.55 14.19
3/15/2021 12:45:00 PM 1.03 33.854 0.072 7.17 14.76 14.19
3/15/2021 1:00:00 PM 1.18 34.124 0.072 7.17 14.84 14.16
3/15/2021 1:15:00 PM 1.34 34.412 0.072 7.17 15.29 14.14
3/15/2021 1:30:00 PM 1.49 34.682 0.071 7.17 15.34 14.11
3/15/2021 1:45:00 PM 1.66 34.988 0.071 7.17 16.08 14.08
3/15/2021 2:00:00 PM 1.82 35.276 0.071 7.16 27.57 14.05
3/15/2021 2:15:00 PM 1.98 35.564 0.07 7.15 15.89 14
3/15/2021 2:30:00 PM 2.14 35.852 0.07 7.18 15.35 13.96
3/15/2021 2:45:00 PM 2.3 36.14 0.07 7.18 13.84 13.92
3/15/2021 3:00:00 PM 2.43 36.374 0.07 7.17 14.35 13.87
3/15/2021 3:15:00 PM 2.55 36.59 0.07 7.18 14.81 13.82
3/15/2021 3:30:00 PM 2.66 36.788 0.07 7.18 17.67 13.76
3/15/2021 3:45:00 PM 2.72 36.896 0.07 7.19 14.09 13.73
3/15/2021 4:00:00 PM 2.78 37.004 0.07 7.19 14.41 13.68
3/15/2021 4:15:00 PM 2.82 37.076 0.07 7.19 14.56 13.65
3/15/2021 4:30:00 PM 2.85 37.13 0.07 7.18 14.57 13.62
3/15/2021 4:45:00 PM 2.85 37.13 0.07 7.19 14.54 13.58
3/15/2021 5:00:00 PM 2.84 37.112 0.07 7.19 14.47 13.55
3/15/2021 5:15:00 PM 2.82 37.076 0.07 7.19 14.83 13.53
3/15/2021 5:30:00 PM 2.79 37.022 0.07 7.19 14.52 13.51
3/15/2021 5:45:00 PM 2.76 36.968 0.07 7.17 14.6 13.48
3/15/2021 6:00:00 PM 2.72 36.896 0.071 7.17 14.64 13.47
3/15/2021 6:15:00 PM 2.67 36.806 0.071 7.19 13.85 13.46
3/15/2021 6:30:00 PM 2.61 36.698 0.071 7.18 14.39 13.45
3/15/2021 6:45:00 PM 2.54 36.572 0.071 7.18 13.61 13.44
3/15/2021 7:00:00 PM 2.47 36.446 0.071 7.17 14.19 13.42
3/15/2021 7:15:00 PM 2.39 36.302 0.07 7.17 13.97 13.42
3/15/2021 7:30:00 PM 2.31 36.158 0.071 7.16 14.9 13.42
3/15/2021 7:45:00 PM 2.24 36.032 0.071 7.16 14.76 13.41
3/15/2021 8:00:00 PM 2.15 35.87 0.071 7.16 14.99 13.42
3/15/2021 8:15:00 PM 2.07 35.726 0.071 7.15 14.27 13.42
3/15/2021 8:30:00 PM 1.98 35.564 0.071 7.14 17.55 13.43
3/15/2021 8:45:00 PM 1.89 35.402 0.071 7.14 16.87 13.44
3/15/2021 9:00:00 PM 1.81 35.258 0.071 7.14 14.54 13.45
3/15/2021 9:15:00 PM 1.73 35.114 0.071 7.14 15.64 13.47
3/15/2021 9:30:00 PM 1.65 34.97 0.071 7.13 17.61 13.49
3/15/2021 9:45:00 PM 1.57 34.826 0.071 7.13 14.14 13.51
3/15/2021 10:00:00 PM 1.49 34.682 0.071 7.13 13.89 13.53
3/15/2021 10:15:00 PM 1.4 34.52 0.071 7.12 13.74 13.55
3/15/2021 10:30:00 PM 1.32 34.376 0.071 7.1 13.95 13.58
3/15/2021 10:45:00 PM 1.24 34.232 0.072 7.12 14.45 13.59
3/15/2021 11:00:00 PM 1.16 34.088 0.072 7.12 14.03 13.63
3/15/2021 11:15:00 PM 1.08 33.944 0.072 7.11 13.88 13.65
3/15/2021 11:30:00 PM 1 33.8 0.072 7.11 13.56 13.68
3/15/2021 11:45:00 PM 0.93 33.674 0.072 7.11 14.14 13.7
3/16/2021 12:00:00 AM 0.86 33.548 0.072 7.11 13.58 13.71
3/16/2021 12:15:00 AM 0.8 33.44 0.072 7.11 13.51 13.74
3/16/2021 12:30:00 AM 0.74 33.332 0.072 7.1 13.79 13.76
3/16/2021 12:45:00 AM 0.69 33.242 0.072 7.1 13.49 13.77
3/16/2021 1:00:00 AM 0.64 33.152 0.072 7.09 18.4 13.78
3/16/2021 1:15:00 AM 0.59 33.062 0.072 7.1 12.88 13.8
3/16/2021 1:30:00 AM 0.55 32.99 0.072 7.1 17.85 13.81
3/16/2021 1:45:00 AM 0.51 32.918 0.072 7.1 13.12 13.82
3/16/2021 2:00:00 AM 0.48 32.864 0.072 7.1 12.99 13.83
3/16/2021 2:15:00 AM 0.44 32.792 0.072 7.1 13.16 13.85
3/16/2021 2:30:00 AM 0.41 32.738 0.072 7.09 12.57 13.86
3/16/2021 2:45:00 AM 0.38 32.684 0.072 7.1 12.75 13.87
3/16/2021 3:00:00 AM 0.35 32.63 0.073 7.1 12.52 13.87
3/16/2021 3:15:00 AM 0.34 32.612 0.073 7.1 12.8 13.88
3/16/2021 3:30:00 AM 0.32 32.576 0.073 7.09 12.48 13.89
3/16/2021 3:45:00 AM 0.31 32.558 0.073 7.09 12.21 13.9
3/16/2021 4:00:00 AM 0.29 32.522 0.073 7.1 12.25 13.9
3/16/2021 4:15:00 AM 0.27 32.486 0.073 7.1 12.22 13.91
3/16/2021 4:30:00 AM 0.26 32.468 0.073 7.09 11.84 13.92
3/16/2021 4:45:00 AM 0.25 32.45 0.073 7.1 11.94 13.92
3/16/2021 5:00:00 AM 0.24 32.432 0.073 7.1 12.22 13.92
3/16/2021 5:15:00 AM 0.23 32.414 0.073 7.1 12.24 13.93
3/16/2021 5:30:00 AM 0.22 32.396 0.073 7.09 11.94 13.93
3/16/2021 5:45:00 AM 0.22 32.396 0.073 7.08 11.82 13.93
3/16/2021 6:00:00 AM 0.21 32.378 0.074 7.09 12.05 13.94
3/16/2021 6:15:00 AM 0.21 32.378 0.074 7.09 11.94 13.94
3/16/2021 6:30:00 AM 0.2 32.36 0.074 7.1 11.56 13.93
3/16/2021 6:45:00 AM 0.2 32.36 0.074 7.09 12.1 13.94
3/16/2021 7:00:00 AM 0.2 32.36 0.074 7.1 12.18 13.94
3/16/2021 7:15:00 AM 0.2 32.36 0.074 7.1 11.96 13.94
3/16/2021 7:30:00 AM 0.2 32.36 0.074 7.1 11.59 13.94
3/16/2021 7:45:00 AM 0.2 32.36 0.074 7.09 11.86 13.95
3/16/2021 8:00:00 AM 0.21 32.378 0.074 7.1 11.71 13.95
3/16/2021 8:15:00 AM 0.22 32.396 0.075 7.11 11.92 13.96
3/16/2021 8:30:00 AM 0.24 32.432 0.074 7.1 11.62 13.97
3/16/2021 8:45:00 AM 0.26 32.468 0.075 7.11 11.67 13.99
3/16/2021 9:00:00 AM 0.29 32.522 0.075 7.12 11.1 14
3/16/2021 9:15:00 AM 0.31 32.558 0.075 7.12 11.34 14.01
3/16/2021 9:30:00 AM 0.34 32.612 0.075 7.12 11.4 14.02
3/16/2021 9:45:00 AM 0.37 32.666 0.075 7.12 11.18 14.03
3/16/2021 10:00:00 AM 0.4 32.72 0.075 7.13 11.19 14.04
3/16/2021 10:15:00 AM 0.43 32.774 0.075 7.14 11.21 14.04
3/16/2021 10:30:00 AM 0.46 32.828 0.075 7.12 11.5 14.05
3/16/2021 10:45:00 AM 0.49 32.882 0.075 7.12 11.47 14.05
3/16/2021 11:00:00 AM 0.53 32.954 0.075 7.15 11.23 14.06
3/16/2021 11:15:00 AM 0.56 33.008 0.075 7.15 11.03 14.06
3/16/2021 11:30:00 AM 0.6 33.08 0.076 7.15 11.23 14.07
3/16/2021 11:45:00 AM 0.65 33.17 0.075 7.16 10.75 14.07
3/16/2021 12:00:00 PM 0.7 33.26 0.075 7.16 10.82 14.07
3/16/2021 12:15:00 PM 0.71 33.278 0.075 7.15 10.62 14.07
3/16/2021 12:30:00 PM 0.74 33.332 0.075 7.17 11.49 14.07
3/16/2021 12:45:00 PM 0.76 33.368 0.075 7.17 10.52 14.07
3/16/2021 1:00:00 PM 0.81 33.458 0.076 7.16 10.65 14.08
3/16/2021 1:15:00 PM 0.88 33.584 0.075 7.17 10.21 14.07
3/16/2021 1:30:00 PM 0.95 33.71 0.075 7.18 10.47 14.06
3/16/2021 1:45:00 PM 1 33.8 0.075 7.16 10.72 14.05
3/16/2021 2:00:00 PM 1.02 33.836 0.075 7.18 11.22 14.04
3/16/2021 2:15:00 PM 1.05 33.89 0.075 7.18 13.11 14.03
3/16/2021 2:30:00 PM 1.07 33.926 0.075 7.19 11.13 14.02
3/16/2021 2:45:00 PM 1.07 33.926 0.075 7.19 10.54 14
3/16/2021 3:00:00 PM 1.1 33.98 0.075 7.17 10.88 14
3/16/2021 3:15:00 PM 1.13 34.034 0.075 7.18 11.08 13.98
3/16/2021 3:30:00 PM 1.14 34.052 0.074 7.19 10.42 13.97
3/16/2021 3:45:00 PM 1.16 34.088 0.074 7.17 12.79 13.96
3/16/2021 4:00:00 PM 1.16 34.088 0.074 7.19 10.45 13.95
3/16/2021 4:15:00 PM 1.16 34.088 0.074 7.19 10.62 13.94
3/16/2021 4:30:00 PM 1.16 34.088 0.074 7.19 10.74 13.93
3/16/2021 4:45:00 PM 1.16 34.088 0.074 7.19 10.44 13.92
3/16/2021 5:00:00 PM 1.17 34.106 0.074 7.19 10.9 13.91
3/16/2021 5:15:00 PM 1.18 34.124 0.074 7.18 10.49 13.89
3/16/2021 5:30:00 PM 1.17 34.106 0.074 7.17 10.35 13.87
3/16/2021 5:45:00 PM 1.14 34.052 0.074 7.18 10.14 13.86
3/16/2021 6:00:00 PM 1.09 33.962 0.074 7.18 10.15 13.84
3/16/2021 6:15:00 PM 1.08 33.944 0.074 7.16 10.76 13.83
3/16/2021 6:30:00 PM 1.08 33.944 0.074 7.17 11.05 13.82
3/16/2021 6:45:00 PM 1.08 33.944 0.074 7.17 12.25 13.8
3/16/2021 7:00:00 PM 1.09 33.962 0.075 7.15 16.13 13.79
3/16/2021 7:15:00 PM 1.07 33.926 0.075 7.14 10.28 13.77
3/16/2021 7:30:00 PM 1.05 33.89 0.074 7.14 10.56 13.76
3/16/2021 7:45:00 PM 1.05 33.89 0.074 7.16 15.64 13.74
3/16/2021 8:00:00 PM 1.05 33.89 0.074 7.15 12.06 13.73
3/16/2021 8:15:00 PM 1.05 33.89 0.075 7.15 10.8 13.72
3/16/2021 8:30:00 PM 1.05 33.89 0.075 7.15 11.52 13.71
3/16/2021 8:45:00 PM 1.05 33.89 0.075 7.15 12.07 13.7
3/16/2021 9:00:00 PM 1.05 33.89 0.075 7.15 9.08 13.69
3/16/2021 9:15:00 PM 1.05 33.89 0.075 7.15 14.02 13.68
3/16/2021 9:30:00 PM 1.05 33.89 0.075 7.14 12.06 13.67
3/16/2021 9:45:00 PM 1.05 33.89 0.075 7.12 10.68 13.67
3/16/2021 10:00:00 PM 1.04 33.872 0.075 7.11 10.56 13.66
3/16/2021 10:15:00 PM 1.04 33.872 0.075 7.11 10.22 13.66
3/16/2021 10:30:00 PM 1.03 33.854 0.075 7.11 10.81 13.66
3/16/2021 10:45:00 PM 1.03 33.854 0.075 7.13 17.32 13.65
3/16/2021 11:00:00 PM 1.02 33.836 0.075 7.12 10.45 13.65
3/16/2021 11:15:00 PM 1.02 33.836 0.075 7.12 10.25 13.64
3/16/2021 11:30:00 PM 1.02 33.836 0.075 7.13 222.65 13.64
3/16/2021 11:45:00 PM 1.02 33.836 0.075 7.13 9.65 13.64
3/17/2021 12:00:00 AM 1.02 33.836 0.075 7.12 11.07 13.64
3/17/2021 12:15:00 AM 1.02 33.836 0.075 7.13 11.63 13.63
3/17/2021 12:30:00 AM 1.02 33.836 0.075 7.13 12.2 13.63
3/17/2021 12:45:00 AM 1.01 33.818 0.075 7.13 10.87 13.63
3/17/2021 1:00:00 AM 1.01 33.818 0.075 7.12 13.12 13.62
3/17/2021 1:15:00 AM 1.01 33.818 0.075 7.13 10.54 13.63
3/17/2021 1:30:00 AM 1.01 33.818 0.076 7.12 10.5 13.62
3/17/2021 1:45:00 AM 1.01 33.818 0.076 7.13 10.22 13.62
3/17/2021 2:00:00 AM 1.01 33.818 0.075 7.13 10.48 13.62
3/17/2021 2:15:00 AM 1.01 33.818 0.076 7.13 10.25 13.61
3/17/2021 2:30:00 AM 1.02 33.836 0.076 7.13 10.52 13.61
3/17/2021 2:45:00 AM 1.02 33.836 0.076 7.13 10.67 13.61
3/17/2021 3:00:00 AM 1.03 33.854 0.076 7.13 10.31 13.61
3/17/2021 3:15:00 AM 1.03 33.854 0.076 7.13 10.45 13.61
3/17/2021 3:30:00 AM 1.03 33.854 0.076 7.12 10.41 13.6
3/17/2021 3:45:00 AM 1.04 33.872 0.076 7.13 10.45 13.6
3/17/2021 4:00:00 AM 1.05 33.89 0.076 7.13 10.51 13.6
3/17/2021 4:15:00 AM 1.05 33.89 0.076 7.12 10.2 13.59
3/17/2021 4:30:00 AM 1.06 33.908 0.076 7.12 9.99 13.6
3/17/2021 4:45:00 AM 1.06 33.908 0.076 7.12 10.45 13.59
3/17/2021 5:00:00 AM 1.07 33.926 0.076 7.12 10.86 13.59
3/17/2021 5:15:00 AM 1.07 33.926 0.076 7.13 10.27 13.59
3/17/2021 5:30:00 AM 1.08 33.944 0.076 7.12 10.27 13.59
3/17/2021 5:45:00 AM 1.08 33.944 0.076 7.13 10.14 13.58
3/17/2021 6:00:00 AM 1.09 33.962 0.077 7.12 10.16 13.58
3/17/2021 6:15:00 AM 1.1 33.98 0.076 7.13 10.28 13.58
3/17/2021 6:30:00 AM 1.1 33.98 0.076 7.13 11.06 13.58
3/17/2021 6:45:00 AM 1.11 33.998 0.076 7.13 10.38 13.57
3/17/2021 7:00:00 AM 1.12 34.016 0.076 7.13 10.61 13.57
3/17/2021 7:15:00 AM 1.12 34.016 0.076 7.13 10.29 13.58
3/17/2021 7:30:00 AM 1.13 34.034 0.077 7.12 10.26 13.58
3/17/2021 7:45:00 AM 1.14 34.052 0.076 7.12 10.53 13.58
3/17/2021 8:00:00 AM 1.15 34.07 0.076 7.12 10.26 13.58
3/17/2021 8:15:00 AM 1.17 34.106 0.076 7.13 10.32 13.6
3/17/2021 8:30:00 AM 1.18 34.124 0.077 7.13 11.28 13.6
3/17/2021 8:45:00 AM 1.2 34.16 0.077 7.14 10.55 13.63
3/17/2021 9:00:00 AM 1.23 34.214 0.077 7.12 10.4 13.65
3/17/2021 9:15:00 AM 1.26 34.268 0.077 7.15 10.22 13.66
3/17/2021 9:30:00 AM 1.29 34.322 0.077 7.15 10.24 13.67
3/17/2021 9:45:00 AM 1.33 34.394 0.077 7.16 9.97 13.68
3/17/2021 10:00:00 AM 1.38 34.484 0.077 7.16 10.04 13.7
3/17/2021 10:15:00 AM 1.44 34.592 0.077 7.16 9.89 13.71
3/17/2021 10:30:00 AM 1.49 34.682 0.077 7.17 9.89 13.72
3/17/2021 10:45:00 AM 1.55 34.79 0.077 7.18 10.15 13.72
3/17/2021 11:00:00 AM 1.61 34.898 0.077 7.17 10.03 13.73
3/17/2021 11:15:00 AM 1.67 35.006 0.077 7.18 10.23 13.73
3/17/2021 11:30:00 AM 1.75 35.15 0.077 7.19 9.66 13.73
3/17/2021 11:45:00 AM 1.85 35.33 0.077 7.18 10 13.73
3/17/2021 12:00:00 PM 1.96 35.528 0.077 7.19 10.37 13.72
3/17/2021 12:15:00 PM 2.08 35.744 0.077 7.19 10.36 13.72
3/17/2021 12:30:00 PM 2.23 36.014 0.077 7.2 10.12 13.7
3/17/2021 12:45:00 PM 2.37 36.266 0.077 7.19 9.91 13.69
3/17/2021 1:00:00 PM 2.52 36.536 0.077 7.18 10.23 13.67
3/17/2021 1:15:00 PM 2.68 36.824 0.077 7.18 10.52 13.66
3/17/2021 1:30:00 PM 2.85 37.13 0.077 7.18 10.15 13.63
3/17/2021 1:45:00 PM 3.04 37.472 0.077 7.19 10.41 13.59
3/17/2021 2:00:00 PM 3.26 37.868 0.077 7.19 10.23 13.56
3/17/2021 2:15:00 PM 3.46 38.228 0.077 7.22 10.04 13.52
3/17/2021 2:30:00 PM 3.68 38.624 0.077 7.23 10.21 13.48
3/17/2021 2:45:00 PM 3.87 38.966 0.077 7.23 10.65 13.43
3/17/2021 3:00:00 PM 4.03 39.254 0.077 7.23 10.09 13.39
3/17/2021 3:15:00 PM 4.17 39.506 0.077 7.22 10.23 13.34
3/17/2021 3:30:00 PM 4.29 39.722 0.077 7.24 10.31 13.29
3/17/2021 3:45:00 PM 4.39 39.902 0.077 7.22 10.48 13.25
3/17/2021 4:00:00 PM 4.45 40.01 0.077 7.24 11.02 13.21
3/17/2021 4:15:00 PM 4.5 40.1 0.077 7.25 11.04 13.17
3/17/2021 4:30:00 PM 4.56 40.208 0.077 7.25 10.76 13.13
3/17/2021 4:45:00 PM 4.6 40.28 0.077 7.25 10.96 13.09
3/17/2021 5:00:00 PM 4.65 40.37 0.077 7.24 10.99 13.05
3/17/2021 5:15:00 PM 4.7 40.46 0.077 7.25 11.12 13.01
3/17/2021 5:30:00 PM 4.74 40.532 0.077 7.25 10.78 12.97
3/17/2021 5:45:00 PM 4.76 40.568 0.077 7.25 11.13 12.93
3/17/2021 6:00:00 PM 4.76 40.568 0.077 7.25 11.28 12.89
3/17/2021 6:15:00 PM 4.76 40.568 0.077 7.23 11.3 12.85
3/17/2021 6:30:00 PM 4.75 40.55 0.077 7.24 11.2 12.82
3/17/2021 6:45:00 PM 4.73 40.514 0.077 7.25 11.86 12.77
3/17/2021 7:00:00 PM 4.71 40.478 0.076 7.25 12.56 12.74
3/17/2021 7:15:00 PM 4.68 40.424 0.076 7.24 12.36 12.7
3/17/2021 7:30:00 PM 4.63 40.334 0.076 7.23 11.93 12.67
3/17/2021 7:45:00 PM 4.58 40.244 0.076 7.22 11.89 12.64
3/17/2021 8:00:00 PM 4.52 40.136 0.076 7.22 12.17 12.62
3/17/2021 8:15:00 PM 4.46 40.028 0.076 7.21 11.97 12.62
3/17/2021 8:30:00 PM 4.39 39.902 0.076 7.2 12.52 12.6
3/17/2021 8:45:00 PM 4.32 39.776 0.076 7.2 13.45 12.6
3/17/2021 9:00:00 PM 4.24 39.632 0.076 7.19 13.48 12.6
3/17/2021 9:15:00 PM 4.16 39.488 0.076 7.18 13.23 12.61
3/17/2021 9:30:00 PM 4.09 39.362 0.076 7.18 13.23 12.6
3/17/2021 9:45:00 PM 4.01 39.218 0.076 7.18 13.27 12.61
3/17/2021 10:00:00 PM 3.93 39.074 0.076 7.17 13.51 12.62
3/17/2021 10:15:00 PM 3.87 38.966 0.076 7.17 13.39 12.63
3/17/2021 10:30:00 PM 3.8 38.84 0.076 7.16 12.77 12.64
3/17/2021 10:45:00 PM 3.74 38.732 0.076 7.16 13.5 12.65
3/17/2021 11:00:00 PM 3.67 38.606 0.076 7.16 13.08 12.66
3/17/2021 11:15:00 PM 3.6 38.48 0.076 7.15 12.69 12.67
3/17/2021 11:30:00 PM 3.53 38.354 0.076 7.15 12.93 12.69
3/17/2021 11:45:00 PM 3.47 38.246 0.076 7.13 13 12.71
3/18/2021 12:00:00 AM 3.41 38.138 0.076 7.15 12.74 12.73
3/18/2021 12:15:00 AM 3.36 38.048 0.076 7.15 13.11 12.74
3/18/2021 12:30:00 AM 3.31 37.958 0.076 7.15 12.83 12.76
3/18/2021 12:45:00 AM 3.25 37.85 0.076 7.14 12.95 12.78
3/18/2021 1:00:00 AM 3.2 37.76 0.076 7.13 12.31 12.8
3/18/2021 1:15:00 AM 3.15 37.67 0.076 7.12 12.32 12.82
3/18/2021 1:30:00 AM 3.11 37.598 0.076 7.11 12.68 12.84
3/18/2021 1:45:00 AM 3.08 37.544 0.076 7.12 12.67 12.84
3/18/2021 2:00:00 AM 3.04 37.472 0.076 7.13 12.87 12.85
3/18/2021 2:15:00 AM 3.01 37.418 0.076 7.13 12.77 12.87
3/18/2021 2:30:00 AM 2.99 37.382 0.076 7.13 12.39 12.88
3/18/2021 2:45:00 AM 2.96 37.328 0.076 7.13 12.47 12.89
3/18/2021 3:00:00 AM 2.93 37.274 0.076 7.12 12.5 12.9
3/18/2021 3:15:00 AM 2.91 37.238 0.076 7.12 12.25 12.9
3/18/2021 3:30:00 AM 2.89 37.202 0.076 7.11 13.59 12.91
3/18/2021 3:45:00 AM 2.87 37.166 0.076 7.1 11.95 12.92
3/18/2021 4:00:00 AM 2.85 37.13 0.076 7.11 12.35 12.92
3/18/2021 4:15:00 AM 2.84 37.112 0.076 7.1 12.1 12.92
3/18/2021 4:30:00 AM 2.83 37.094 0.076 7.13 12.32 12.93
3/18/2021 4:45:00 AM 2.81 37.058 0.076 7.13 12.24 12.93
3/18/2021 5:00:00 AM 2.81 37.058 0.076 7.13 11.59 12.93
3/18/2021 5:15:00 AM 2.8 37.04 0.076 7.13 12.02 12.93
3/18/2021 5:30:00 AM 2.79 37.022 0.077 7.13 11.52 12.93
3/18/2021 5:45:00 AM 2.78 37.004 0.077 7.12 11.83 12.93
3/18/2021 6:00:00 AM 2.78 37.004 0.077 7.12 11.72 12.93
3/18/2021 6:15:00 AM 2.77 36.986 0.077 7.11 11.22 12.93
3/18/2021 6:30:00 AM 2.77 36.986 0.077 7.12 11.45 12.93
3/18/2021 6:45:00 AM 2.76 36.968 0.077 7.1 11.49 12.94
3/18/2021 7:00:00 AM 2.76 36.968 0.076 7.11 12.4 12.92
3/18/2021 7:15:00 AM 2.76 36.968 0.077 7.1 11.93 12.93
3/18/2021 7:30:00 AM 2.75 36.95 0.077 7.11 12.09 12.93
3/18/2021 7:45:00 AM 2.75 36.95 0.078 7.11 15.2 12.94
3/18/2021 8:00:00 AM 2.75 36.95 0.078 7.1 12.62 12.94
3/18/2021 8:15:00 AM 2.75 36.95 0.078 7.12 12.7 12.94
3/18/2021 8:30:00 AM 2.76 36.968 0.078 7.13 13.01 12.96
3/18/2021 8:45:00 AM 2.76 36.968 0.078 7.13 18.58 12.97
3/18/2021 9:00:00 AM 2.77 36.986 0.078 7.12 16.35 12.99
3/18/2021 9:15:00 AM 2.78 37.004 0.079 7.13 15.06 13
3/18/2021 9:30:00 AM 2.78 37.004 0.079 7.13 16.1 13.01
3/18/2021 9:45:00 AM 2.79 37.022 0.079 7.15 18.79 13.02
3/18/2021 10:00:00 AM 2.8 37.04 0.08 7.14 25.22 13.03
3/18/2021 10:15:00 AM 2.81 37.058 0.082 7.13 19.46 13.05
3/18/2021 10:30:00 AM 2.82 37.076 0.085 7.16 37.73 13.06
3/18/2021 10:45:00 AM 2.83 37.094 0.09 7.17 72.34 13.07
3/18/2021 11:00:00 AM 2.84 37.112 0.098 7.18 47.51 13.08
3/18/2021 11:15:00 AM 2.84 37.112 0.106 7.19 43.31 13.09
3/18/2021 11:30:00 AM 2.84 37.112 0.112 7.2 57.13 13.11
3/18/2021 11:45:00 AM 2.84 37.112 0.116 7.19 55.94 13.12
3/18/2021 12:00:00 PM 2.83 37.094 0.121 7.21 44.98 13.14
3/18/2021 12:15:00 PM 2.81 37.058 0.125 7.22 58.68 13.16
3/18/2021 12:30:00 PM 2.8 37.04 0.128 7.22 63.64 13.18
3/18/2021 12:45:00 PM 2.8 37.04 0.133 7.22 88.37 13.18
3/18/2021 1:00:00 PM 2.82 37.076 0.134 7.22 93.78 13.18
3/18/2021 1:15:00 PM 2.83 37.094 0.133 7.22 87.29 13.18
3/18/2021 1:30:00 PM 2.85 37.13 0.131 7.22 98.41 13.17
3/18/2021 1:45:00 PM 2.88 37.184 0.128 7.21 95.96 13.16
3/18/2021 2:00:00 PM 2.92 37.256 0.123 7.19 107.45 13.14
3/18/2021 2:15:00 PM 2.95 37.31 0.122 7.19 119.55 13.11
3/18/2021 2:30:00 PM 2.98 37.364 0.117 7.17 581.98 13.09
3/18/2021 2:45:00 PM 3 37.4 0.108 7.17 164.05 13.1
3/18/2021 3:00:00 PM 3.02 37.436 0.102 7.16 144.78 13.09
3/18/2021 3:15:00 PM 3.04 37.472 0.097 7.1 139.61 13.08
3/18/2021 3:30:00 PM 3.05 37.49 0.093 7.14 168.1 13.06
3/18/2021 3:45:00 PM 3.06 37.508 0.09 7.12 134.89 13.06
3/18/2021 4:00:00 PM 3.07 37.526 0.088 7.13 124.54 13.05
3/18/2021 4:15:00 PM 3.07 37.526 0.085 7.09 174.81 13.05
3/18/2021 4:30:00 PM 3.07 37.526 0.083 7.09 150.22 13.04
3/18/2021 4:45:00 PM 3.07 37.526 0.081 7.09 107.1 13.03
3/18/2021 5:00:00 PM 3.07 37.526 0.08 7.1 125.73 13.02
3/18/2021 5:15:00 PM 3.07 37.526 0.08 7.09 114.53 13.02
3/18/2021 5:30:00 PM 3.07 37.526 0.079 7.08 101.77 13.02
3/18/2021 5:45:00 PM 3.07 37.526 0.078 7.1 86.99 13.02
3/18/2021 6:00:00 PM 3.06 37.508 0.078 7.03 101.06 13.02
3/18/2021 6:15:00 PM 3.06 37.508 0.077 7.05 100.96 13.02
3/18/2021 6:30:00 PM 3.05 37.49 0.077 7.03 99.32 13.02
3/18/2021 6:45:00 PM 3.04 37.472 0.077 7.02 96.22 13.02
3/18/2021 7:00:00 PM 3.03 37.454 0.078 7 90.29 13.02
3/18/2021 7:15:00 PM 3.02 37.436 0.079 7.05 73.3 13.02
3/18/2021 7:30:00 PM 3 37.4 0.079 7.06 66.6 13.02
3/18/2021 7:45:00 PM 2.98 37.364 0.078 7.05 80.16 13.03
3/18/2021 8:00:00 PM 2.96 37.328 0.077 7.05 76.13 13.04
3/18/2021 8:15:00 PM 2.95 37.31 0.076 7.05 76.64 13.03
3/18/2021 8:30:00 PM 2.93 37.274 0.075 7.05 70.12 13.04
3/18/2021 8:45:00 PM 2.91 37.238 0.075 7.04 66.65 13.04
3/18/2021 9:00:00 PM 2.9 37.22 0.074 7.04 72.12 13.04
3/18/2021 9:15:00 PM 2.88 37.184 0.073 7.04 56.55 13.05
3/18/2021 9:30:00 PM 2.85 37.13 0.073 7.04 53.31 13.05
3/18/2021 9:45:00 PM 2.83 37.094 0.072 7.01 43.34 13.05
3/18/2021 10:00:00 PM 2.81 37.058 0.072 7.02 53.6 13.06
3/18/2021 10:15:00 PM 2.78 37.004 0.072 7.02 55.01 13.06
3/18/2021 10:30:00 PM 2.76 36.968 0.072 7.01 54.07 13.07
3/18/2021 10:45:00 PM 2.73 36.914 0.071 7 48.78 13.08
3/18/2021 11:00:00 PM 2.7 36.86 0.071 6.99 62.41 13.08
3/18/2021 11:15:00 PM 2.67 36.806 0.071 6.99 34.03 13.09
3/18/2021 11:30:00 PM 2.64 36.752 0.071 6.97 46.9 13.1
3/18/2021 11:45:00 PM 2.6 36.68 0.071 6.96 43.57 13.11
3/19/2021 12:00:00 AM 2.57 36.626 0.071 6.96 37.18 13.12
3/19/2021 12:15:00 AM 2.53 36.554 0.071 6.97 40.04 13.12
3/19/2021 12:30:00 AM 2.49 36.482 0.071 6.97 40.69 13.14
3/19/2021 12:45:00 AM 2.45 36.41 0.07 6.97 39.37 13.15
3/19/2021 1:00:00 AM 2.4 36.32 0.07 7.01 34.31 13.16
3/19/2021 1:15:00 AM 2.36 36.248 0.07 6.98 44.57 13.17
3/19/2021 1:30:00 AM 2.32 36.176 0.07 6.99 34.94 13.18
3/19/2021 1:45:00 AM 2.27 36.086 0.07 6.96 32.58 13.2
3/19/2021 2:00:00 AM 2.22 35.996 0.07 6.98 24.41 13.2
3/19/2021 2:15:00 AM 2.17 35.906 0.07 6.99 31.92 13.22
3/19/2021 2:30:00 AM 2.12 35.816 0.07 7.07 147.51 13.24
3/19/2021 2:45:00 AM 2.06 35.708 0.07 7.06 33.15 13.27
3/19/2021 3:00:00 AM 2.01 35.618 0.069 7.07 33.03 13.27
3/19/2021 3:15:00 AM 1.96 35.528 0.07 7.07 33.95 13.3
3/19/2021 3:30:00 AM 1.9 35.42 0.07 7.05 31 13.32
3/19/2021 3:45:00 AM 1.84 35.312 0.069 7.07 35.33 13.33
3/19/2021 4:00:00 AM 1.78 35.204 0.07 7.07 30.73 13.35
3/19/2021 4:15:00 AM 1.72 35.096 0.07 7.07 32.45 13.37
3/19/2021 4:30:00 AM 1.65 34.97 0.069 7.06 26.18 13.4
3/19/2021 4:45:00 AM 1.58 34.844 0.069 7.07 36.57 13.43
3/19/2021 5:00:00 AM 1.52 34.736 0.069 7.07 26.5 13.44
3/19/2021 5:15:00 AM 1.46 34.628 0.069 7.07 27.82 13.46
3/19/2021 5:30:00 AM 1.39 34.502 0.069 7.07 27.54 13.49
3/19/2021 5:45:00 AM 1.33 34.394 0.069 7.07 25.02 13.52
3/19/2021 6:00:00 AM 1.27 34.286 0.069 7.04 24.09 13.54
3/19/2021 6:15:00 AM 1.21 34.178 0.069 7.07 25.62 13.56
3/19/2021 6:30:00 AM 1.15 34.07 0.069 7.07 25.32 13.59
3/19/2021 6:45:00 AM 1.08 33.944 0.069 7.07 22.8 13.61
3/19/2021 7:00:00 AM 1.02 33.836 0.069 7.07 20.65 13.64
3/19/2021 7:15:00 AM 0.95 33.71 0.069 7.07 23.31 13.65
3/19/2021 7:30:00 AM 0.9 33.62 0.069 7.07 21.74 13.67
3/19/2021 7:45:00 AM 0.85 33.53 0.068 7.06 30.27 13.7
3/19/2021 8:00:00 AM 0.8 33.44 0.068 7.05 22.49 13.74
3/19/2021 8:15:00 AM 0.75 33.35 0.068 7.07 19.73 13.76
3/19/2021 8:30:00 AM 0.71 33.278 0.068 7.07 20.38 13.78
3/19/2021 8:45:00 AM 0.67 33.206 0.069 7.05 20.03 13.81
3/19/2021 9:00:00 AM 0.65 33.17 0.068 7.08 18.27 13.84
3/19/2021 9:15:00 AM 0.63 33.134 0.068 7.08 20.25 13.87
3/19/2021 9:30:00 AM 0.65 33.17 0.068 7.08 21.39 13.9
3/19/2021 9:45:00 AM 0.69 33.242 0.068 7.08 20.59 13.92
3/19/2021 10:00:00 AM 0.74 33.332 0.068 7.06 19.56 13.93
3/19/2021 10:15:00 AM 0.79 33.422 0.068 7.08 19.76 13.96
3/19/2021 10:30:00 AM 0.86 33.548 0.068 7.09 19.81 13.97
3/19/2021 10:45:00 AM 0.94 33.692 0.068 7.08 19.83 13.98
3/19/2021 11:00:00 AM 1.04 33.872 0.068 7.06 18.88 13.98
3/19/2021 11:15:00 AM 1.14 34.052 0.068 7.08 19.28 13.99
3/19/2021 11:30:00 AM 1.26 34.268 0.068 7.1 18.86 13.97
3/19/2021 11:45:00 AM 1.4 34.52 0.068 7.1 18.78 13.96
3/19/2021 12:00:00 PM 1.56 34.808 0.068 7.1 17.8 13.95
3/19/2021 12:15:00 PM 1.71 35.078 0.068 7.09 18.3 13.92
3/19/2021 12:30:00 PM 1.87 35.366 0.068 7.11 18.02 13.89
3/19/2021 12:45:00 PM 2.04 35.672 0.068 7.08 17.58 13.86
3/19/2021 1:00:00 PM 2.22 35.996 0.068 7.11 17.91 13.83
3/19/2021 1:15:00 PM 2.42 36.356 0.068 7.12 17.41 13.79
3/19/2021 1:30:00 PM 2.61 36.698 0.067 7.13 17.62 13.74
3/19/2021 1:45:00 PM 2.8 37.04 0.067 7.13 17.94 13.68
3/19/2021 2:00:00 PM 2.98 37.364 0.067 7.13 15.86 13.63
3/19/2021 2:15:00 PM 3.14 37.652 0.068 7.12 17.11 13.58
3/19/2021 2:30:00 PM 3.3 37.94 0.068 7.12 34.67 13.52
3/19/2021 2:45:00 PM 3.45 38.21 0.067 7.13 17.64 13.48
3/19/2021 3:00:00 PM 3.57 38.426 0.068 7.14 19.43 13.42
3/19/2021 3:15:00 PM 3.68 38.624 0.068 7.11 18.79 13.38
3/19/2021 3:30:00 PM 3.78 38.804 0.068 7.14 18.8 13.33
3/19/2021 3:45:00 PM 3.86 38.948 0.068 7.15 18.07 13.3
3/19/2021 4:00:00 PM 3.93 39.074 0.068 7.15 18.9 13.25
3/19/2021 4:15:00 PM 3.99 39.182 0.068 7.15 19.37 13.21
3/19/2021 4:30:00 PM 4.02 39.236 0.067 7.15 26.9 13.18
3/19/2021 4:45:00 PM 4.03 39.254 0.068 7.12 246.59 13.15
3/19/2021 5:00:00 PM 4.02 39.236 0.068 7.15 18.64 13.13
3/19/2021 5:15:00 PM 3.99 39.182 0.067 7.15 54.5 13.11
3/19/2021 5:30:00 PM 3.95 39.11 0.068 7.13 18.05 13.1
3/19/2021 5:45:00 PM 3.89 39.002 0.068 7.14 181.51 13.08
3/19/2021 6:00:00 PM 3.82 38.876 0.068 7.14 37.1 13.09
3/19/2021 6:15:00 PM 3.74 38.732 0.067 7.14 16.28 13.1
3/19/2021 6:30:00 PM 3.66 38.588 0.068 7.14 19.86 13.08
3/19/2021 6:45:00 PM 3.56 38.408 0.068 7.13 20.34 13.09
3/19/2021 7:00:00 PM 3.47 38.246 0.068 7.13 16.65 13.09
3/19/2021 7:15:00 PM 3.38 38.084 0.068 7.12 19.32 13.09
3/19/2021 7:30:00 PM 3.28 37.904 0.068 7.09 19.41 13.1
3/19/2021 7:45:00 PM 3.18 37.724 0.068 7.09 18.99 13.12
3/19/2021 8:00:00 PM 3.07 37.526 0.068 7.12 19.08 13.13
3/19/2021 8:15:00 PM 2.97 37.346 0.068 7.11 19.92 13.15
3/19/2021 8:30:00 PM 2.86 37.148 0.068 7.11 16.58 13.16
3/19/2021 8:45:00 PM 2.76 36.968 0.068 7.1 18.58 13.19
3/19/2021 9:00:00 PM 2.66 36.788 0.068 7.09 14.91 13.22
3/19/2021 9:15:00 PM 2.55 36.59 0.069 7.07 18.84 13.25
3/19/2021 9:30:00 PM 2.45 36.41 0.068 7.09 18.7 13.26
3/19/2021 9:45:00 PM 2.36 36.248 0.068 7.1 18.51 13.29
3/19/2021 10:00:00 PM 2.27 36.086 0.069 7.09 19.33 13.32
3/19/2021 10:15:00 PM 2.17 35.906 0.068 7.09 18.25 13.34
3/19/2021 10:30:00 PM 2.09 35.762 0.069 7.09 18.3 13.37
3/19/2021 10:45:00 PM 2.01 35.618 0.069 7.08 17.99 13.39
3/19/2021 11:00:00 PM 1.93 35.474 0.069 7.06 17.59 13.42
3/19/2021 11:15:00 PM 1.86 35.348 0.069 7.07 15.71 13.44
3/19/2021 11:30:00 PM 1.8 35.24 0.069 7.09 19.24 13.46
3/19/2021 11:45:00 PM 1.73 35.114 0.068 7.07 17.05 13.49
3/20/2021 12:00:00 AM 1.67 35.006 0.069 7.08 18.49 13.52
3/20/2021 12:15:00 AM 1.6 34.88 0.069 7.08 18.27 13.54
3/20/2021 12:30:00 AM 1.54 34.772 0.068 7.05 17.53 13.56
3/20/2021 12:45:00 AM 1.48 34.664 0.068 7.08 16.83 13.58
3/20/2021 1:00:00 AM 1.42 34.556 0.069 7.07 16.57 13.61
3/20/2021 1:15:00 AM 1.36 34.448 0.069 7.07 16.56 13.63
3/20/2021 1:30:00 AM 1.31 34.358 0.069 7.07 16.64 13.64
3/20/2021 1:45:00 AM 1.26 34.268 0.069 7.07 17 13.67
3/20/2021 2:00:00 AM 1.21 34.178 0.069 7.07 13.69 13.68
3/20/2021 2:15:00 AM 1.16 34.088 0.069 7.07 17.4 13.7
3/20/2021 2:30:00 AM 1.11 33.998 0.069 7.07 15.02 13.73
3/20/2021 2:45:00 AM 1.07 33.926 0.068 7.06 17.73 13.74
3/20/2021 3:00:00 AM 1.02 33.836 0.069 7.07 13.08 13.76
3/20/2021 3:15:00 AM 0.97 33.746 0.069 7.07 17.12 13.78
3/20/2021 3:30:00 AM 0.93 33.674 0.069 7.04 16.65 13.78
3/20/2021 3:45:00 AM 0.89 33.602 0.069 7.07 16.5 13.8
3/20/2021 4:00:00 AM 0.85 33.53 0.069 7.07 16.9 13.82
3/20/2021 4:15:00 AM 0.81 33.458 0.069 7.07 15.78 13.83
3/20/2021 4:30:00 AM 0.76 33.368 0.069 7.07 14.99 13.85
3/20/2021 4:45:00 AM 0.73 33.314 0.069 7.07 17.24 13.86
3/20/2021 5:00:00 AM 0.69 33.242 0.069 7.08 16.99 13.88
3/20/2021 5:15:00 AM 0.65 33.17 0.069 7.07 15.95 13.89
3/20/2021 5:30:00 AM 0.62 33.116 0.069 7.07 16.3 13.9
3/20/2021 5:45:00 AM 0.58 33.044 0.069 7.07 15.27 13.91
3/20/2021 6:00:00 AM 0.55 32.99 0.069 7.07 15.3 13.92
3/20/2021 6:15:00 AM 0.51 32.918 0.069 7.08 15.31 13.94
3/20/2021 6:30:00 AM 0.48 32.864 0.069 7.07 12.79 13.95
3/20/2021 6:45:00 AM 0.45 32.81 0.069 7.06 17.15 13.97
3/20/2021 7:00:00 AM 0.42 32.756 0.069 7.07 16.75 13.97
3/20/2021 7:15:00 AM 0.39 32.702 0.069 7.07 15.8 14
3/20/2021 7:30:00 AM 0.37 32.666 0.069 7.02 15.15 14.01
3/20/2021 7:45:00 AM 0.35 32.63 0.069 7.07 15.09 14.03
3/20/2021 8:00:00 AM 0.34 32.612 0.069 7.08 14.93 14.05
3/20/2021 8:15:00 AM 0.33 32.594 0.069 7.07 14.51 14.07
3/20/2021 8:30:00 AM 0.32 32.576 0.069 7.08 14.98 14.09
3/20/2021 8:45:00 AM 0.33 32.594 0.069 7.05 14.26 14.1
3/20/2021 9:00:00 AM 0.34 32.612 0.07 7.09 14.72 14.12
3/20/2021 9:15:00 AM 0.38 32.684 0.069 7.09 14.53 14.14
3/20/2021 9:30:00 AM 0.44 32.792 0.069 7.09 14.78 14.15
3/20/2021 9:45:00 AM 0.52 32.936 0.07 7.1 14.16 14.15
3/20/2021 10:00:00 AM 0.62 33.116 0.07 7.1 15.61 14.17
3/20/2021 10:15:00 AM 0.72 33.296 0.07 7.07 14.29 14.17
3/20/2021 10:30:00 AM 0.84 33.512 0.07 7.11 15.42 14.17
3/20/2021 10:45:00 AM 0.99 33.782 0.071 7.11 14.92 14.17
3/20/2021 11:00:00 AM 1.16 34.088 0.07 7.12 15.26 14.15
3/20/2021 11:15:00 AM 1.34 34.412 0.07 7.12 14.38 14.13
3/20/2021 11:30:00 AM 1.53 34.754 0.07 7.13 14.6 14.11
3/20/2021 11:45:00 AM 1.74 35.132 0.07 7.12 14.34 14.07
3/20/2021 12:00:00 PM 1.96 35.528 0.07 7.13 14.8 14.04
3/20/2021 12:15:00 PM 2.19 35.942 0.07 7.13 14.1 13.99
3/20/2021 12:30:00 PM 2.43 36.374 0.07 7.13 14.57 13.95
3/20/2021 12:45:00 PM 2.66 36.788 0.07 7.14 14.67 13.91
3/20/2021 1:00:00 PM 2.88 37.184 0.07 7.14 14.16 13.85
3/20/2021 1:15:00 PM 3.11 37.598 0.069 7.14 13.79 13.79
3/20/2021 1:30:00 PM 3.35 38.03 0.07 7.15 14.41 13.73
3/20/2021 1:45:00 PM 3.58 38.444 0.069 7.15 14.15 13.67
3/20/2021 2:00:00 PM 3.81 38.858 0.07 7.13 14.19 13.59
3/20/2021 2:15:00 PM 4.03 39.254 0.069 7.16 14.72 13.51
3/20/2021 2:30:00 PM 4.26 39.668 0.069 7.16 14.71 13.43
3/20/2021 2:45:00 PM 4.47 40.046 0.069 7.13 14.25 13.36
3/20/2021 3:00:00 PM 4.67 40.406 0.069 7.17 14.63 13.29
3/20/2021 3:15:00 PM 4.84 40.712 0.069 7.17 14.63 13.22
3/20/2021 3:30:00 PM 4.99 40.982 0.069 7.17 15.33 13.15
3/20/2021 3:45:00 PM 5.12 41.216 0.069 7.18 14.85 13.08
3/20/2021 4:00:00 PM 5.23 41.414 0.069 7.18 16.19 13.02
3/20/2021 4:15:00 PM 5.34 41.612 0.069 7.18 16.15 12.96
3/20/2021 4:30:00 PM 5.42 41.756 0.069 7.15 14.59 12.91
3/20/2021 4:45:00 PM 5.49 41.882 0.069 7.19 15.36 12.85
3/20/2021 5:00:00 PM 5.53 41.954 0.069 7.19 14.6 12.81
3/20/2021 5:15:00 PM 5.56 42.008 0.069 7.17 16.2 12.76
3/20/2021 5:30:00 PM 5.57 42.026 0.069 7.18 16.09 12.73
3/20/2021 5:45:00 PM 5.56 42.008 0.069 7.18 15.91 12.69
3/20/2021 6:00:00 PM 5.54 41.972 0.069 7.17 18.02 12.67
3/20/2021 6:15:00 PM 5.49 41.882 0.069 7.19 17.29 12.65
3/20/2021 6:30:00 PM 5.44 41.792 0.069 7.18 15.97 12.63
3/20/2021 6:45:00 PM 5.37 41.666 0.069 7.18 15.38 12.62
3/20/2021 7:00:00 PM 5.28 41.504 0.069 7.17 15.99 12.61
3/20/2021 7:15:00 PM 5.2 41.36 0.069 7.16 14.56 12.59
3/20/2021 7:30:00 PM 5.11 41.198 0.069 7.16 18.6 12.6
3/20/2021 7:45:00 PM 5.02 41.036 0.069 7.15 16.58 12.59
3/20/2021 8:00:00 PM 4.92 40.856 0.069 7.12 17.24 12.6
3/20/2021 8:15:00 PM 4.81 40.658 0.068 7.14 17.86 12.6
3/20/2021 8:30:00 PM 4.7 40.46 0.069 7.14 17.13 12.62
3/20/2021 8:45:00 PM 4.59 40.262 0.068 7.12 16.98 12.63
3/20/2021 9:00:00 PM 4.48 40.064 0.069 7.12 18.83 12.64
3/20/2021 9:15:00 PM 4.36 39.848 0.069 7.12 14.06 12.66
3/20/2021 9:30:00 PM 4.25 39.65 0.069 7.11 419.78 12.68
3/20/2021 9:45:00 PM 4.14 39.452 0.069 7.11 12.01 12.71
3/20/2021 10:00:00 PM 4.03 39.254 0.069 7.11 99.99 12.74
3/20/2021 10:15:00 PM 3.91 39.038 0.069 7.11 177.71 12.76
3/20/2021 10:30:00 PM 3.8 38.84 0.069 7.11 10.24 12.79
3/20/2021 10:45:00 PM 3.69 38.642 0.069 7.1 11.14 12.82
3/20/2021 11:00:00 PM 3.58 38.444 0.069 7.1 103.53 12.85
3/20/2021 11:15:00 PM 3.47 38.246 0.069 7.1 138.16 12.88
3/20/2021 11:30:00 PM 3.37 38.066 0.069 7.1 12.73 12.91
3/20/2021 11:45:00 PM 3.27 37.886 0.069 7.1 79.62 12.94
3/21/2021 12:00:00 AM 3.18 37.724 0.069 7.09 98.22 12.97
3/21/2021 12:15:00 AM 3.09 37.562 0.07 7.1 87.42 13
3/21/2021 12:30:00 AM 3 37.4 0.069 7.09 95.78 13.03
3/21/2021 12:45:00 AM 2.91 37.238 0.069 7.09 10.98 13.05
3/21/2021 1:00:00 AM 2.83 37.094 0.069 7.09 255.53 13.07
3/21/2021 1:15:00 AM 2.75 36.95 0.069 7.09 123.3 13.11
3/21/2021 1:30:00 AM 2.67 36.806 0.069 7.09 12.02 13.14
3/21/2021 1:45:00 AM 2.59 36.662 0.069 7.08 95.84 13.17
3/21/2021 2:00:00 AM 2.51 36.518 0.069 7.09 111.52 13.19
3/21/2021 2:15:00 AM 2.44 36.392 0.069 7.09 11.92 13.21
3/21/2021 2:30:00 AM 2.37 36.266 0.069 7.08 109.68 13.24
3/21/2021 2:45:00 AM 2.3 36.14 0.069 7.06 73.78 13.26
3/21/2021 3:00:00 AM 2.23 36.014 0.069 7.05 37.2 13.28
3/21/2021 3:15:00 AM 2.17 35.906 0.07 7.08 81.94 13.3
3/21/2021 3:30:00 AM 2.1 35.78 0.07 7.08 153.98 13.32
3/21/2021 3:45:00 AM 2.04 35.672 0.07 7.09 207.29 13.34
3/21/2021 4:00:00 AM 1.98 35.564 0.069 7.08 115.22 13.37
3/21/2021 4:15:00 AM 1.92 35.456 0.07 7.06 117.97 13.38
3/21/2021 4:30:00 AM 1.86 35.348 0.07 7.08 118.5 13.41
3/21/2021 4:45:00 AM 1.8 35.24 0.07 7.08 14.67 13.43
3/21/2021 5:00:00 AM 1.74 35.132 0.07 7.08 14.65 13.45
3/21/2021 5:15:00 AM 1.68 35.024 0.07 7.07 18.33 13.47
3/21/2021 5:30:00 AM 1.63 34.934 0.07 7.09 21.54 13.5
3/21/2021 5:45:00 AM 1.57 34.826 0.07 7.09 991.17 13.51
3/21/2021 6:00:00 AM 1.52 34.736 0.065 7.08 18.98 13.53
3/21/2021 6:15:00 AM 1.47 34.646 0.07 7.04 12.71 13.55
3/21/2021 6:30:00 AM 1.42 34.556 0.07 7.08 13.04 13.57
3/21/2021 6:45:00 AM 1.37 34.466 0.071 7.08 12.69 13.59
3/21/2021 7:00:00 AM 1.32 34.376 0.07 7.09 12.51 13.61
3/21/2021 7:15:00 AM 1.27 34.286 0.07 7.09 12.58 13.63
3/21/2021 7:30:00 AM 1.23 34.214 0.071 7.06 12.95 13.66
3/21/2021 7:45:00 AM 1.19 34.142 0.07 7.06 12.22 13.68
3/21/2021 8:00:00 AM 1.16 34.088 0.071 7.05 12.48 13.71
3/21/2021 8:15:00 AM 1.14 34.052 0.07 7.09 11.81 13.73
3/21/2021 8:30:00 AM 1.13 34.034 0.071 7.1 12.01 13.76
3/21/2021 8:45:00 AM 1.12 34.016 0.07 7.1 11.99 13.79
3/21/2021 9:00:00 AM 1.13 34.034 0.07 7.11 12.18 13.82
3/21/2021 9:15:00 AM 1.16 34.088 0.07 7.07 11.63 13.84
3/21/2021 9:30:00 AM 1.22 34.196 0.07 7.11 11.41 13.86
3/21/2021 9:45:00 AM 1.31 34.358 0.071 7.12 11.49 13.88
3/21/2021 10:00:00 AM 1.41 34.538 0.071 7.12 11.25 13.88
3/21/2021 10:15:00 AM 1.53 34.754 0.071 7.12 12.2 13.88
3/21/2021 10:30:00 AM 1.67 35.006 0.07 7.13 12.06 13.88
3/21/2021 10:45:00 AM 1.83 35.294 0.07 7.09 12.04 13.86
3/21/2021 11:00:00 AM 2.02 35.636 0.07 7.09 11.77 13.85
3/21/2021 11:15:00 AM 2.22 35.996 0.07 7.13 12.04 13.84
3/21/2021 11:30:00 AM 2.43 36.374 0.071 7.14 12.18 13.82
3/21/2021 11:45:00 AM 2.65 36.77 0.07 7.15 11.96 13.79
3/21/2021 12:00:00 PM 2.89 37.202 0.071 7.15 11.99 13.75
3/21/2021 12:15:00 PM 3.13 37.634 0.071 7.12 11.87 13.71
3/21/2021 12:30:00 PM 3.38 38.084 0.071 7.15 11.71 13.67
3/21/2021 12:45:00 PM 3.63 38.534 0.07 7.15 11.46 13.62
3/21/2021 1:00:00 PM 3.89 39.002 0.07 7.16 11.38 13.56
3/21/2021 1:15:00 PM 4.13 39.434 0.07 7.17 11.51 13.51
3/21/2021 1:30:00 PM 4.38 39.884 0.07 7.17 11.55 13.45
3/21/2021 1:45:00 PM 4.62 40.316 0.07 7.17 11.83 13.39
3/21/2021 2:00:00 PM 4.85 40.73 0.07 7.17 11.81 13.32
3/21/2021 2:15:00 PM 5.08 41.144 0.07 7.17 12.3 13.24
3/21/2021 2:30:00 PM 5.31 41.558 0.07 7.18 11.58 13.17
3/21/2021 2:45:00 PM 5.53 41.954 0.07 7.19 12.02 13.09
3/21/2021 3:00:00 PM 5.74 42.332 0.07 7.19 12.79 13.02
3/21/2021 3:15:00 PM 5.93 42.674 0.07 7.16 12.7 12.94
3/21/2021 3:30:00 PM 6.1 42.98 0.07 7.19 12.32 12.87
3/21/2021 3:45:00 PM 6.25 43.25 0.07 7.2 12.41 12.8
3/21/2021 4:00:00 PM 6.39 43.502 0.07 7.21 12.13 12.71
3/21/2021 4:15:00 PM 6.5 43.7 0.07 7.21 12.92 12.66
3/21/2021 4:30:00 PM 6.6 43.88 0.07 7.2 12.44 12.6
3/21/2021 4:45:00 PM 6.69 44.042 0.069 7.2 12.42 12.53
3/21/2021 5:00:00 PM 6.75 44.15 0.071 7.21 12.71 12.48
3/21/2021 5:15:00 PM 6.79 44.222 0.07 7.21 12.96 12.42
3/21/2021 5:30:00 PM 6.81 44.258 0.07 7.21 12.74 12.38
3/21/2021 5:45:00 PM 6.83 44.294 0.071 7.21 13.18 12.34
3/21/2021 6:00:00 PM 6.83 44.294 0.07 7.21 13.26 12.3
3/21/2021 6:15:00 PM 6.8 44.24 0.07 7.17 12.57 12.27
3/21/2021 6:30:00 PM 6.77 44.186 0.07 7.2 12.89 12.24
3/21/2021 6:45:00 PM 6.7 44.06 0.07 7.2 12.93 12.22
3/21/2021 7:00:00 PM 6.63 43.934 0.069 7.19 15.37 12.19
3/21/2021 7:15:00 PM 6.55 43.79 0.07 7.19 13.98 12.18
3/21/2021 7:30:00 PM 6.47 43.646 0.07 7.15 13.32 12.17
3/21/2021 7:45:00 PM 6.38 43.484 0.07 7.16 12.86 12.15
3/21/2021 8:00:00 PM 6.28 43.304 0.069 7.17 13.23 12.16
3/21/2021 8:15:00 PM 6.17 43.106 0.07 7.16 13.28 12.16
3/21/2021 8:30:00 PM 6.06 42.908 0.07 7.14 13.35 12.16
3/21/2021 8:45:00 PM 5.94 42.692 0.069 7.15 13.07 12.17
3/21/2021 9:00:00 PM 5.82 42.476 0.07 7.14 12.79 12.18
3/21/2021 9:15:00 PM 5.7 42.26 0.069 7.14 13.3 12.2
3/21/2021 9:30:00 PM 5.58 42.044 0.07 7.1 13.12 12.22
3/21/2021 9:45:00 PM 5.46 41.828 0.07 7.13 13.2 12.24
3/21/2021 10:00:00 PM 5.34 41.612 0.069 7.12 13.36 12.26
3/21/2021 10:15:00 PM 5.21 41.378 0.07 7.12 13.46 12.28
3/21/2021 10:30:00 PM 5.09 41.162 0.07 7.12 13.32 12.33
3/21/2021 10:45:00 PM 4.96 40.928 0.07 7.12 13.24 12.35
3/21/2021 11:00:00 PM 4.83 40.694 0.069 7.11 12.78 12.39
3/21/2021 11:15:00 PM 4.71 40.478 0.07 7.11 12.68 12.41
3/21/2021 11:30:00 PM 4.59 40.262 0.07 7.11 12.66 12.44
3/21/2021 11:45:00 PM 4.47 40.046 0.07 7.11 12.99 12.48
3/22/2021 12:00:00 AM 4.35 39.83 0.07 7.11 12.28 12.51
3/22/2021 12:15:00 AM 4.24 39.632 0.069 7.08 13.02 12.54
3/22/2021 12:30:00 AM 4.13 39.434 0.07 7.11 12.86 12.57
3/22/2021 12:45:00 AM 4.03 39.254 0.069 7.1 12.7 12.61
3/22/2021 1:00:00 AM 3.93 39.074 0.07 7.07 12.93 12.64
3/22/2021 1:15:00 AM 3.83 38.894 0.069 7.1 13.65 12.67
3/22/2021 1:30:00 AM 3.74 38.732 0.07 7.1 12.48 12.7
3/22/2021 1:45:00 AM 3.65 38.57 0.069 7.1 12.58 12.73
3/22/2021 2:00:00 AM 3.57 38.426 0.069 7.1 12.37 12.75
3/22/2021 2:15:00 AM 3.49 38.282 0.07 7.09 13.29 12.77
3/22/2021 2:30:00 AM 3.41 38.138 0.07 7.1 14.22 12.8
3/22/2021 2:45:00 AM 3.33 37.994 0.07 7.09 12.75 12.82
3/22/2021 3:00:00 AM 3.25 37.85 0.069 7.08 12.92 12.85
3/22/2021 3:15:00 AM 3.17 37.706 0.07 7.09 13.07 12.87
3/22/2021 3:30:00 AM 3.1 37.58 0.07 7.08 12.59 12.89
3/22/2021 3:45:00 AM 3.03 37.454 0.07 7.09 12.91 12.92
3/22/2021 4:00:00 AM 2.96 37.328 0.071 7.09 12.59 12.94
3/22/2021 4:15:00 AM 2.9 37.22 0.07 7.09 12.47 12.96
3/22/2021 4:30:00 AM 2.83 37.094 0.07 7.05 12.32 12.98
3/22/2021 4:45:00 AM 2.77 36.986 0.071 7.08 12.56 13.01
3/22/2021 5:00:00 AM 2.71 36.878 0.07 7.09 12.43 13.03
3/22/2021 5:15:00 AM 2.65 36.77 0.07 7.06 12.76 13.05
3/22/2021 5:30:00 AM 2.59 36.662 0.071 7.09 12.28 13.08
3/22/2021 5:45:00 AM 2.53 36.554 0.069 7.09 12 13.08
3/22/2021 6:00:00 AM 2.47 36.446 0.07 7.05 12.54 13.12
3/22/2021 6:15:00 AM 2.42 36.356 0.07 7.08 12.45 13.13
3/22/2021 6:30:00 AM 2.36 36.248 0.07 7.09 11.92 13.16
3/22/2021 6:45:00 AM 2.31 36.158 0.071 7.09 12.19 13.17
3/22/2021 7:00:00 AM 2.26 36.068 0.071 7.09 11.61 13.19
3/22/2021 7:15:00 AM 2.21 35.978 0.072 7.09 12.18 13.21
3/22/2021 7:30:00 AM 2.16 35.888 0.07 7.09 11.83 13.24
3/22/2021 7:45:00 AM 2.12 35.816 0.07 7.09 11.39 13.27
3/22/2021 8:00:00 AM 2.08 35.744 0.071 7.09 11.37 13.3
3/22/2021 8:15:00 AM 2.06 35.708 0.071 7.09 13.9 13.33
3/22/2021 8:30:00 AM 2.05 35.69 0.071 7.09 11.99 13.36
3/22/2021 8:45:00 AM 2.04 35.672 0.071 7.1 12.2 13.39
3/22/2021 9:00:00 AM 2.05 35.69 0.071 7.09 12.36 13.41
3/22/2021 9:15:00 AM 2.08 35.744 0.071 7.1 12.01 13.44
3/22/2021 9:30:00 AM 2.13 35.834 0.072 7.12 12.53 13.47
3/22/2021 9:45:00 AM 2.22 35.996 0.073 7.11 14.71 13.49
3/22/2021 10:00:00 AM 2.33 36.194 0.072 7.1 11.77 13.5
3/22/2021 10:15:00 AM 2.45 36.41 0.072 7.11 11.25 13.5
3/22/2021 10:30:00 AM 2.6 36.68 0.072 7.14 10.79 13.51
3/22/2021 10:45:00 AM 2.77 36.986 0.072 7.13 10.82 13.5
3/22/2021 11:00:00 AM 2.96 37.328 0.072 7.12 10.98 13.49
3/22/2021 11:15:00 AM 3.16 37.688 0.072 7.13 11.15 13.47
3/22/2021 11:30:00 AM 3.37 38.066 0.071 7.15 17.41 13.45
3/22/2021 11:45:00 AM 3.6 38.48 0.071 7.16 17.49 13.42
3/22/2021 12:00:00 PM 3.85 38.93 0.071 7.16 15.48 13.39
3/22/2021 12:15:00 PM 4.09 39.362 0.071 7.17 11.85 13.36
3/22/2021 12:30:00 PM 4.34 39.812 0.071 7.17 11.81 13.31
3/22/2021 12:45:00 PM 4.58 40.244 0.072 7.17 11.45 13.27
3/22/2021 1:00:00 PM 4.84 40.712 0.071 7.18 11.52 13.22
3/22/2021 1:15:00 PM 5.1 41.18 0.071 7.18 11.3 13.16
3/22/2021 1:30:00 PM 5.34 41.612 0.072 7.19 12.54 13.1
3/22/2021 1:45:00 PM 5.58 42.044 0.071 7.19 11.82 13.04
3/22/2021 2:00:00 PM 5.8 42.44 0.07 7.2 11.92 12.99
3/22/2021 2:15:00 PM 6.02 42.836 0.071 7.2 11.22 12.93
3/22/2021 2:30:00 PM 6.23 43.214 0.071 7.21 11.48 12.85
3/22/2021 2:45:00 PM 6.43 43.574 0.071 7.21 11.55 12.78
3/22/2021 3:00:00 PM 6.61 43.898 0.071 7.21 11.8 12.72
3/22/2021 3:15:00 PM 6.79 44.222 0.071 7.22 11.96 12.65
3/22/2021 3:30:00 PM 6.96 44.528 0.071 7.22 11.73 12.57
3/22/2021 3:45:00 PM 7.1 44.78 0.07 7.22 11.78 12.5
3/22/2021 4:00:00 PM 7.23 45.014 0.071 7.23 11.75 12.43
3/22/2021 4:15:00 PM 7.35 45.23 0.07 7.22 14.35 12.36
3/22/2021 4:30:00 PM 7.45 45.41 0.071 7.23 14.93 12.3
3/22/2021 4:45:00 PM 7.53 45.554 0.071 7.24 14.02 12.25
3/22/2021 5:00:00 PM 7.59 45.662 0.07 7.23 13.78 12.19
3/22/2021 5:15:00 PM 7.63 45.734 0.07 7.24 13.69 12.14
3/22/2021 5:30:00 PM 7.66 45.788 0.07 7.24 13.71 12.09
3/22/2021 5:45:00 PM 7.67 45.806 0.07 7.23 13.51 12.05
3/22/2021 6:00:00 PM 7.67 45.806 0.071 7.23 13.89 12.02
3/22/2021 6:15:00 PM 7.65 45.77 0.07 7.23 13.63 11.97
3/22/2021 6:30:00 PM 7.62 45.716 0.07 7.22 13.58 11.94
3/22/2021 6:45:00 PM 7.57 45.626 0.07 7.21 13.68 11.91
3/22/2021 7:00:00 PM 7.51 45.518 0.071 7.21 13.58 11.88
3/22/2021 7:15:00 PM 7.43 45.374 0.07 7.21 13.23 11.86
3/22/2021 7:30:00 PM 7.35 45.23 0.07 7.19 13.18 11.84
3/22/2021 7:45:00 PM 7.26 45.068 0.07 7.17 13.9 11.83
3/22/2021 8:00:00 PM 7.16 44.888 0.07 7.18 13.7 11.82
3/22/2021 8:15:00 PM 7.06 44.708 0.07 7.17 13.9 11.82
3/22/2021 8:30:00 PM 6.95 44.51 0.07 7.17 14.05 11.82
3/22/2021 8:45:00 PM 6.83 44.294 0.07 7.16 13.98 11.83
3/22/2021 9:00:00 PM 6.71 44.078 0.07 7.11 13.88 11.83
3/22/2021 9:15:00 PM 6.58 43.844 0.07 7.14 14.48 11.85
3/22/2021 9:30:00 PM 6.45 43.61 0.07 7.14 14.58 11.87
3/22/2021 9:45:00 PM 6.33 43.394 0.069 7.13 14.23 11.89
3/22/2021 10:00:00 PM 6.21 43.178 0.07 7.12 13.94 11.91
3/22/2021 10:15:00 PM 6.09 42.962 0.07 7.13 15.15 11.94
3/22/2021 10:30:00 PM 5.96 42.728 0.07 7.12 15.27 11.95
3/22/2021 10:45:00 PM 5.84 42.512 0.071 7.12 15.52 11.99
3/22/2021 11:00:00 PM 5.71 42.278 0.07 7.11 15.81 12.02
3/22/2021 11:15:00 PM 5.59 42.062 0.07 7.11 16.58 12.05
3/22/2021 11:30:00 PM 5.46 41.828 0.069 7.08 15.5 12.08
3/22/2021 11:45:00 PM 5.33 41.594 0.069 7.07 16.49 12.12
3/23/2021 12:00:00 AM 5.21 41.378 0.069 7.1 14.86 12.15
3/23/2021 12:15:00 AM 5.09 41.162 0.069 7.09 16.44 12.18
3/23/2021 12:30:00 AM 4.97 40.946 0.07 7.09 15.07 12.22
3/23/2021 12:45:00 AM 4.85 40.73 0.069 7.07 15.13 12.25
3/23/2021 1:00:00 AM 4.74 40.532 0.07 7.06 15.04 12.29
3/23/2021 1:15:00 AM 4.64 40.352 0.07 7.1 15.63 12.32
3/23/2021 1:30:00 AM 4.53 40.154 0.07 7.08 16.65 12.35
3/23/2021 1:45:00 AM 4.44 39.992 0.069 7.08 16.57 12.38
3/23/2021 2:00:00 AM 4.34 39.812 0.07 7.09 14.86 12.41
3/23/2021 2:15:00 AM 4.26 39.668 0.069 7.1 15.41 12.44
3/23/2021 2:30:00 AM 4.17 39.506 0.071 7.1 14.98 12.46
3/23/2021 2:45:00 AM 4.08 39.344 0.07 7.09 15.15 12.49
3/23/2021 3:00:00 AM 4 39.2 0.07 7.06 14.85 12.52
3/23/2021 3:15:00 AM 3.92 39.056 0.07 7.08 14.32 12.54
3/23/2021 3:30:00 AM 3.84 38.912 0.07 7.07 14.9 12.57
3/23/2021 3:45:00 AM 3.76 38.768 0.069 7.06 14.19 12.59
3/23/2021 4:00:00 AM 3.69 38.642 0.07 7.04 14.43 12.62
3/23/2021 4:15:00 AM 3.61 38.498 0.07 7.08 14.24 12.65
3/23/2021 4:30:00 AM 3.55 38.39 0.07 7.07 13.9 12.66
3/23/2021 4:45:00 AM 3.48 38.264 0.07 7.09 14.24 12.69
3/23/2021 5:00:00 AM 3.42 38.156 0.07 7.07 14.24 12.71
3/23/2021 5:15:00 AM 3.35 38.03 0.069 7.08 14.56 12.74
3/23/2021 5:30:00 AM 3.29 37.922 0.07 7.05 13.94 12.75
3/23/2021 5:45:00 AM 3.22 37.796 0.07 7.07 14.4 12.78
3/23/2021 6:00:00 AM 3.16 37.688 0.07 7.07 13.84 12.79
3/23/2021 6:15:00 AM 3.1 37.58 0.07 7.09 13.89 12.82
3/23/2021 6:30:00 AM 3.04 37.472 0.07 7.08 14.1 12.83
3/23/2021 6:45:00 AM 2.98 37.364 0.07 7.09 13.59 12.86
3/23/2021 7:00:00 AM 2.93 37.274 0.069 7.09 13.73 12.87
3/23/2021 7:15:00 AM 2.88 37.184 0.07 7.09 13.51 12.9
3/23/2021 7:30:00 AM 2.83 37.094 0.07 7.07 14.2 12.93
3/23/2021 7:45:00 AM 2.78 37.004 0.071 7.09 13.83 12.96
3/23/2021 8:00:00 AM 2.74 36.932 0.07 7.08 13.88 13
3/23/2021 8:15:00 AM 2.71 36.878 0.071 7.09 13.27 13.02
3/23/2021 8:30:00 AM 2.69 36.842 0.07 7.09 13.59 13.07
3/23/2021 8:45:00 AM 2.69 36.842 0.07 7.11 13.86 13.1
3/23/2021 9:00:00 AM 2.69 36.842 0.07 7.1 13.56 13.14
3/23/2021 9:15:00 AM 2.72 36.896 0.07 7.08 16.73 13.17
3/23/2021 9:30:00 AM 2.77 36.986 0.071 7.1 15.11 13.19
3/23/2021 9:45:00 AM 2.85 37.13 0.071 7.13 14.53 13.22
3/23/2021 10:00:00 AM 2.96 37.328 0.07 7.14 13.48 13.23
3/23/2021 10:15:00 AM 3.09 37.562 0.07 7.12 13.04 13.25
3/23/2021 10:30:00 AM 3.23 37.814 0.07 7.1 13.45 13.25
3/23/2021 10:45:00 AM 3.4 38.12 0.07 7.15 13.11 13.25
3/23/2021 11:00:00 AM 3.59 38.462 0.07 7.15 13.28 13.24
3/23/2021 11:15:00 AM 3.78 38.804 0.07 7.17 12.9 13.23
3/23/2021 11:30:00 AM 4 39.2 0.07 7.17 13.16 13.21
3/23/2021 11:45:00 AM 4.22 39.596 0.07 7.18 13.94 13.19
3/23/2021 12:00:00 PM 4.45 40.01 0.071 7.19 14.14 13.17
3/23/2021 12:15:00 PM 4.69 40.442 0.07 7.18 14.72 13.14
3/23/2021 12:30:00 PM 4.92 40.856 0.07 7.17 14.76 13.11
3/23/2021 12:45:00 PM 5.16 41.288 0.07 7.2 13.63 13.07
3/23/2021 1:00:00 PM 5.4 41.72 0.07 7.2 14.04 13.02
3/23/2021 1:15:00 PM 5.6 42.08 0.07 7.2 13.59 12.97
3/23/2021 1:30:00 PM 5.84 42.512 0.07 7.21 14.57 12.93
3/23/2021 1:45:00 PM 6.07 42.926 0.069 7.22 13.41 12.88
3/23/2021 2:00:00 PM 6.3 43.34 0.07 7.22 14.28 12.81
3/23/2021 2:15:00 PM 6.53 43.754 0.07 7.22 13.83 12.75
3/23/2021 2:30:00 PM 6.71 44.078 0.069 7.21 15.3 12.7
3/23/2021 2:45:00 PM 6.89 44.402 0.07 7.23 13.54 12.64
3/23/2021 3:00:00 PM 7.05 44.69 0.069 7.23 13.79 12.57
3/23/2021 3:15:00 PM 7.17 44.906 0.069 7.23 14.07 12.51
3/23/2021 3:30:00 PM 7.31 45.158 0.069 7.24 13.51 12.45
3/23/2021 3:45:00 PM 7.43 45.374 0.07 7.25 13.56 12.38
3/23/2021 4:00:00 PM 7.56 45.608 0.07 7.23 13.29 12.33
3/23/2021 4:15:00 PM 7.69 45.842 0.069 7.21 13.98 12.26
3/23/2021 4:30:00 PM 7.8 46.04 0.07 7.21 14.87 12.2
3/23/2021 4:45:00 PM 7.85 46.13 0.07 7.24 14.68 12.15
3/23/2021 5:00:00 PM 7.93 46.274 0.07 7.23 13.88 12.1
3/23/2021 5:15:00 PM 8 46.4 0.069 7.24 15.25 12.06
3/23/2021 5:30:00 PM 8.03 46.454 0.069 7.22 15.57 12.01
3/23/2021 5:45:00 PM 8.05 46.49 0.069 7.22 16.32 11.97
3/23/2021 6:00:00 PM 8.06 46.508 0.068 7.22 18.33 11.94
3/23/2021 6:15:00 PM 8.07 46.526 0.069 7.25 14.88 11.89
3/23/2021 6:30:00 PM 8.06 46.508 0.069 7.24 15.01 11.85
3/23/2021 6:45:00 PM 8.04 46.472 0.069 7.24 14.61 11.81
3/23/2021 7:00:00 PM 8.01 46.418 0.068 7.23 15.53 11.77
3/23/2021 7:15:00 PM 7.96 46.328 0.068 7.22 18.42 11.74
3/23/2021 7:30:00 PM 7.9 46.22 0.069 7.21 15.51 11.71
3/23/2021 7:45:00 PM 7.83 46.094 0.069 7.2 16.58 11.68
3/23/2021 8:00:00 PM 7.76 45.968 0.069 7.2 17.82 11.66
3/23/2021 8:15:00 PM 7.68 45.824 0.069 7.17 17.5 11.65
3/23/2021 8:30:00 PM 7.58 45.644 0.069 7.18 19.28 11.64
3/23/2021 8:45:00 PM 7.49 45.482 0.069 7.17 18.19 11.63
3/23/2021 9:00:00 PM 7.4 45.32 0.068 7.16 20.48 11.64
3/23/2021 9:15:00 PM 7.3 45.14 0.069 7.16 19.35 11.64
3/23/2021 9:30:00 PM 7.21 44.978 0.07 7.14 17.75 11.65
3/23/2021 9:45:00 PM 7.12 44.816 0.069 7.15 17.28 11.65
3/23/2021 10:00:00 PM 7.02 44.636 0.069 7.13 19.89 11.67
3/23/2021 10:15:00 PM 6.92 44.456 0.069 7.11 19.5 11.68
3/23/2021 10:30:00 PM 6.82 44.276 0.07 7.09 17.26 11.7
3/23/2021 10:45:00 PM 6.72 44.096 0.069 7.12 18.95 11.71
3/23/2021 11:00:00 PM 6.62 43.916 0.069 7.12 24.95 11.74
3/23/2021 11:15:00 PM 6.52 43.736 0.069 7.12 18.96 11.75
3/23/2021 11:30:00 PM 6.42 43.556 0.069 7.1 18.57 11.77
3/23/2021 11:45:00 PM 6.32 43.376 0.068 7.11 18.05 11.8
3/24/2021 12:00:00 AM 6.23 43.214 0.069 7.11 18.06 11.82
3/24/2021 12:15:00 AM 6.14 43.052 0.069 7.09 18.7 11.84
3/24/2021 12:30:00 AM 6.06 42.908 0.069 7.08 17.64 11.87
3/24/2021 12:45:00 AM 5.98 42.764 0.069 7.1 18.16 11.89
3/24/2021 1:00:00 AM 5.9 42.62 0.069 7.09 17.9 11.9
3/24/2021 1:15:00 AM 5.83 42.494 0.069 7.09 19.65 11.92
3/24/2021 1:30:00 AM 5.78 42.404 0.069 7.1 19.66 11.94
3/24/2021 1:45:00 AM 5.74 42.332 0.069 7.1 18.65 11.96
3/24/2021 2:00:00 AM 5.69 42.242 0.068 7.09 18.62 11.97
3/24/2021 2:15:00 AM 5.65 42.17 0.069 7.1 18.64 11.99
3/24/2021 2:30:00 AM 5.59 42.062 0.069 7.09 18.91 12.01
3/24/2021 2:45:00 AM 5.55 41.99 0.069 7.09 19.42 12.02
3/24/2021 3:00:00 AM 5.51 41.918 0.069 7.1 18.97 12.03
3/24/2021 3:15:00 AM 5.46 41.828 0.069 7.1 19.25 12.05
3/24/2021 3:30:00 AM 5.41 41.738 0.068 7.1 17.1 12.06
3/24/2021 3:45:00 AM 5.37 41.666 0.069 7.08 18.38 12.07
3/24/2021 4:00:00 AM 5.34 41.612 0.069 7.1 18.14 12.09
3/24/2021 4:15:00 AM 5.32 41.576 0.069 7.1 18.21 12.09
3/24/2021 4:30:00 AM 5.3 41.54 0.068 7.09 17.51 12.1
3/24/2021 4:45:00 AM 5.28 41.504 0.069 7.1 17.51 12.11
3/24/2021 5:00:00 AM 5.25 41.45 0.069 7.08 18.24 12.12
3/24/2021 5:15:00 AM 5.23 41.414 0.069 7.09 17.4 12.12
3/24/2021 5:30:00 AM 5.22 41.396 0.069 7.09 18.07 12.13
3/24/2021 5:45:00 AM 5.2 41.36 0.069 7.08 16.52 12.13
3/24/2021 6:00:00 AM 5.18 41.324 0.068 7.06 16.88 12.14
3/24/2021 6:15:00 AM 5.17 41.306 0.069 7.09 17.25 12.15
3/24/2021 6:30:00 AM 5.15 41.27 0.069 7.09 17.66 12.15
3/24/2021 6:45:00 AM 5.14 41.252 0.069 7.08 17.13 12.16
3/24/2021 7:00:00 AM 5.13 41.234 0.069 7.09 17.99 12.16
3/24/2021 7:15:00 AM 5.12 41.216 0.068 7.06 19.87 12.16
3/24/2021 7:30:00 AM 5.11 41.198 0.068 7.09 19.03 12.18
3/24/2021 7:45:00 AM 5.1 41.18 0.068 7.1 17.97 12.19
3/24/2021 8:00:00 AM 5.09 41.162 0.068 7.08 18.61 12.2
3/24/2021 8:15:00 AM 5.09 41.162 0.069 7.1 17.77 12.22
3/24/2021 8:30:00 AM 5.09 41.162 0.068 7.09 17.94 12.23
3/24/2021 8:45:00 AM 5.09 41.162 0.069 7.1 19.08 12.25
3/24/2021 9:00:00 AM 5.1 41.18 0.068 7.08 18.96 12.26
3/24/2021 9:15:00 AM 5.12 41.216 0.069 7.11 19.1 12.29
3/24/2021 9:30:00 AM 5.13 41.234 0.069 7.11 19.13 12.3
3/24/2021 9:45:00 AM 5.15 41.27 0.069 7.11 20.27 12.31
3/24/2021 10:00:00 AM 5.17 41.306 0.069 7.13 20.72 12.32
3/24/2021 10:15:00 AM 5.19 41.342 0.068 7.11 21.02 12.33
3/24/2021 10:30:00 AM 5.23 41.414 0.068 7.11 21.84 12.35
3/24/2021 10:45:00 AM 5.26 41.468 0.068 7.14 27.8 12.36
3/24/2021 11:00:00 AM 5.3 41.54 0.07 7.14 23.81 12.38
3/24/2021 11:15:00 AM 5.35 41.63 0.069 7.15 24.12 12.39
3/24/2021 11:30:00 AM 5.39 41.702 0.069 7.14 25.44 12.39
3/24/2021 11:45:00 AM 5.44 41.792 0.068 7.15 36.37 12.4
3/24/2021 12:00:00 PM 5.5 41.9 0.068 7.14 24.32 12.4
3/24/2021 12:15:00 PM 5.56 42.008 0.069 7.14 28.36 12.41
3/24/2021 12:30:00 PM 5.63 42.134 0.07 7.17 22.81 12.41
3/24/2021 12:45:00 PM 5.69 42.242 0.07 7.18 27.41 12.41
3/24/2021 1:00:00 PM 5.75 42.35 0.07 7.17 33.85 12.4
3/24/2021 1:15:00 PM 5.8 42.44 0.071 7.17 31.82 12.39
3/24/2021 1:30:00 PM 5.87 42.566 0.072 7.2 32.47 12.39
3/24/2021 1:45:00 PM 5.93 42.674 0.074 7.18 44.05 12.38
3/24/2021 2:00:00 PM 5.99 42.782 0.075 7.19 28.18 12.37
3/24/2021 2:15:00 PM 6.06 42.908 0.075 7.19 39.3 12.36
3/24/2021 2:30:00 PM 6.11 42.998 0.077 7.19 33.13 12.33
3/24/2021 2:45:00 PM 6.17 43.106 0.076 7.22 33.79 12.3
3/24/2021 3:00:00 PM 6.22 43.196 0.077 7.18 40.59 12.3
3/24/2021 3:15:00 PM 6.28 43.304 0.076 7.2 37.56 12.27
3/24/2021 3:30:00 PM 6.34 43.412 0.075 7.21 40.33 12.22
3/24/2021 3:45:00 PM 6.4 43.52 0.076 7.2 35.49 12.19
3/24/2021 4:00:00 PM 6.47 43.646 0.077 7.21 45.79 12.16
3/24/2021 4:15:00 PM 6.52 43.736 0.076 7.2 44.09 12.13
3/24/2021 4:30:00 PM 6.58 43.844 0.075 7.21 46.64 12.09
3/24/2021 4:45:00 PM 6.62 43.916 0.076 7.18 39.15 12.06
3/24/2021 5:00:00 PM 6.66 43.988 0.076 7.18 43.87 12.02
3/24/2021 5:15:00 PM 6.7 44.06 0.075 7.19 39.15 11.99
3/24/2021 5:30:00 PM 6.74 44.132 0.075 7.19 53.9 11.97
3/24/2021 5:45:00 PM 6.78 44.204 0.075 7.15 45.07 11.95
3/24/2021 6:00:00 PM 6.82 44.276 0.075 7.19 61.65 11.92
3/24/2021 6:15:00 PM 6.85 44.33 0.075 7.18 56.4 11.9
3/24/2021 6:30:00 PM 6.86 44.348 0.075 7.16 49.61 11.88
3/24/2021 6:45:00 PM 6.88 44.384 0.075 7.17 51.03 11.86
3/24/2021 7:00:00 PM 6.88 44.384 0.076 7.17 41.42 11.84
3/24/2021 7:15:00 PM 6.88 44.384 0.075 7.16 49.87 11.82
3/24/2021 7:30:00 PM 6.88 44.384 0.075 7.16 46.96 11.8
3/24/2021 7:45:00 PM 6.88 44.384 0.075 7.15 47.01 11.8
3/24/2021 8:00:00 PM 6.88 44.384 0.075 7.12 48.13 11.78
3/24/2021 8:15:00 PM 6.88 44.384 0.076 7.13 53 11.77
3/24/2021 8:30:00 PM 6.87 44.366 0.075 7.13 39.62 11.74
3/24/2021 8:45:00 PM 6.87 44.366 0.074 7.13 42.83 11.75
3/24/2021 9:00:00 PM 6.86 44.348 0.074 7.1 46.41 11.73
3/24/2021 9:15:00 PM 6.86 44.348 0.074 7.12 42.39 11.73
3/24/2021 9:30:00 PM 6.85 44.33 0.075 7.09 41.78 11.72
3/24/2021 9:45:00 PM 6.85 44.33 0.074 7.12 40.07 11.72
3/24/2021 10:00:00 PM 6.83 44.294 0.075 7.11 46.48 11.7
3/24/2021 10:15:00 PM 6.83 44.294 0.075 7.11 44.86 11.7
3/24/2021 10:30:00 PM 6.82 44.276 0.074 7.11 36.58 11.69
3/24/2021 10:45:00 PM 6.81 44.258 0.074 7.1 56.8 11.7
3/24/2021 11:00:00 PM 6.8 44.24 0.073 7.08 52.9 11.68
3/24/2021 11:15:00 PM 6.79 44.222 0.074 7.09 41.08 11.69
3/24/2021 11:30:00 PM 6.77 44.186 0.074 7.1 34.9 11.69
3/24/2021 11:45:00 PM 6.75 44.15 0.073 7.08 28.67 11.7
3/25/2021 12:00:00 AM 6.73 44.114 0.073 7.06 39.14 11.7
3/25/2021 12:15:00 AM 6.71 44.078 0.073 7.09 42.31 11.7
3/25/2021 12:30:00 AM 6.7 44.06 0.073 7.09 38.3 11.7
3/25/2021 12:45:00 AM 6.68 44.024 0.075 7.07 35.99 11.69
3/25/2021 1:00:00 AM 6.67 44.006 0.071 7.02 31.39 11.7
3/25/2021 1:15:00 AM 6.66 43.988 0.072 7.08 37.12 11.7
3/25/2021 1:30:00 AM 6.65 43.97 0.072 7.08 47.49 11.7
3/25/2021 1:45:00 AM 6.64 43.952 0.072 7.08 28.07 11.71
3/25/2021 2:00:00 AM 6.64 43.952 0.071 7.04 32.65 11.71
3/25/2021 2:15:00 AM 6.64 43.952 0.071 7.07 39.3 11.7
3/25/2021 2:30:00 AM 6.63 43.934 0.071 7.08 26.46 11.7
3/25/2021 2:45:00 AM 6.62 43.916 0.072 7.08 31.8 11.71
3/25/2021 3:00:00 AM 6.62 43.916 0.071 7.07 29.5 11.71
3/25/2021 3:15:00 AM 6.61 43.898 0.071 7.07 27.48 11.71
3/25/2021 3:30:00 AM 6.6 43.88 0.071 7.07 35.24 11.7
3/25/2021 3:45:00 AM 6.6 43.88 0.07 7.07 26.65 11.71
3/25/2021 4:00:00 AM 6.6 43.88 0.07 7.07 27.32 11.7
3/25/2021 4:15:00 AM 6.59 43.862 0.07 7.07 23.23 11.71
3/25/2021 4:30:00 AM 6.59 43.862 0.071 7.07 26.22 11.71
3/25/2021 4:45:00 AM 6.58 43.844 0.071 7.07 30.74 11.71
3/25/2021 5:00:00 AM 6.57 43.826 0.071 7.07 27.43 11.71
3/25/2021 5:15:00 AM 6.56 43.808 0.071 7.07 24.94 11.71
3/25/2021 5:30:00 AM 6.55 43.79 0.071 7.07 21.89 11.72
3/25/2021 5:45:00 AM 6.54 43.772 0.071 7.07 44.04 11.71
3/25/2021 6:00:00 AM 6.53 43.754 0.07 7.07 23 11.72
3/25/2021 6:15:00 AM 6.53 43.754 0.07 7.07 28.4 11.72
3/25/2021 6:30:00 AM 6.52 43.736 0.069 7.07 25.26 11.72
3/25/2021 6:45:00 AM 6.51 43.718 0.07 7.04 29.16 11.73
3/25/2021 7:00:00 AM 6.5 43.7 0.071 7.01 29.91 11.74
3/25/2021 7:15:00 AM 6.49 43.682 0.07 7.07 30.54 11.74
3/25/2021 7:30:00 AM 6.49 43.682 0.069 7.07 22.64 11.76
3/25/2021 7:45:00 AM 6.49 43.682 0.07 7.07 23.97 11.76
3/25/2021 8:00:00 AM 6.49 43.682 0.07 7.08 23.1 11.77
3/25/2021 8:15:00 AM 6.5 43.7 0.07 7.08 23.04 11.79
3/25/2021 8:30:00 AM 6.52 43.736 0.069 7.08 24.05 11.82
3/25/2021 8:45:00 AM 6.54 43.772 0.07 7.09 22.95 11.84
3/25/2021 9:00:00 AM 6.56 43.808 0.069 7.1 22.83 11.86
3/25/2021 9:15:00 AM 6.59 43.862 0.069 7.1 19.78 11.88
3/25/2021 9:30:00 AM 6.66 43.988 0.069 7.11 22 11.91
3/25/2021 9:45:00 AM 6.72 44.096 0.069 7.12 21.28 11.93
3/25/2021 10:00:00 AM 6.82 44.276 0.069 7.13 21.36 11.95
3/25/2021 10:15:00 AM 6.91 44.438 0.07 7.14 21.24 11.96
3/25/2021 10:30:00 AM 7 44.6 0.069 7.14 22.03 11.98
3/25/2021 10:45:00 AM 7.09 44.762 0.069 7.15 22.52 11.98
3/25/2021 11:00:00 AM 7.17 44.906 0.068 7.15 24 11.99
3/25/2021 11:15:00 AM 7.31 45.158 0.068 7.16 21 11.99
3/25/2021 11:30:00 AM 7.5 45.5 0.068 7.17 22.05 11.98
3/25/2021 11:45:00 AM 7.68 45.824 0.069 7.18 19.49 11.97
3/25/2021 12:00:00 PM 7.93 46.274 0.069 7.19 21.08 11.95
3/25/2021 12:15:00 PM 8.19 46.742 0.069 7.19 22.48 11.92
3/25/2021 12:30:00 PM 8.43 47.174 0.069 7.2 20.86 11.9
3/25/2021 12:45:00 PM 8.64 47.552 0.068 7.2 29.03 11.87
3/25/2021 1:00:00 PM 8.87 47.966 0.067 7.18 20.73 11.84
3/25/2021 1:15:00 PM 9.11 48.398 0.069 7.2 19.14 11.79
3/25/2021 1:30:00 PM 9.35 48.83 0.068 7.22 19.92 11.75
3/25/2021 1:45:00 PM 9.55 49.19 0.067 7.23 19.16 11.71
3/25/2021 2:00:00 PM 9.73 49.514 0.069 7.23 18.9 11.66
3/25/2021 2:15:00 PM 9.92 49.856 0.068 7.24 20.12 11.62
3/25/2021 2:30:00 PM 10.14 50.252 0.068 7.24 18.86 11.56
3/25/2021 2:45:00 PM 10.35 50.63 0.068 7.25 20.56 11.5
3/25/2021 3:00:00 PM 10.51 50.918 0.068 7.23 19.94 11.45
3/25/2021 3:15:00 PM 10.65 51.17 0.068 7.23 20.27 11.4
3/25/2021 3:30:00 PM 10.77 51.386 0.067 7.23 19.97 11.35
3/25/2021 3:45:00 PM 10.87 51.566 0.067 7.23 20.2 11.3
3/25/2021 4:00:00 PM 10.94 51.692 0.069 7.24 21.11 11.25
3/25/2021 4:15:00 PM 11.02 51.836 0.069 7.24 19.06 11.21
3/25/2021 4:30:00 PM 11.09 51.962 0.068 7.25 21.46 11.17
3/25/2021 4:45:00 PM 11.14 52.052 0.068 7.24 18.94 11.12
3/25/2021 5:00:00 PM 11.17 52.106 0.068 7.26 19.34 11.09
3/25/2021 5:15:00 PM 11.19 52.142 0.068 7.25 20.67 11.06
3/25/2021 5:30:00 PM 11.2 52.16 0.068 7.25 29.67 11.03
3/25/2021 5:45:00 PM 11.19 52.142 0.068 7.25 20.6 10.99
3/25/2021 6:00:00 PM 11.16 52.088 0.067 7.25 19.54 10.96
3/25/2021 6:15:00 PM 11.11 51.998 0.068 7.24 20.37 10.94
3/25/2021 6:30:00 PM 11.06 51.908 0.067 7.23 20.77 10.91
3/25/2021 6:45:00 PM 10.99 51.782 0.068 7.21 22.17 10.89
3/25/2021 7:00:00 PM 10.91 51.638 0.067 7.19 20.17 10.86
3/25/2021 7:15:00 PM 10.81 51.458 0.067 7.18 19.43 10.84
3/25/2021 7:30:00 PM 10.72 51.296 0.067 7.16 20.29 10.81
3/25/2021 7:45:00 PM 10.63 51.134 0.067 7.14 19.58 10.79
3/25/2021 8:00:00 PM 10.53 50.954 0.069 7.13 20.39 10.78
3/25/2021 8:15:00 PM 10.43 50.774 0.068 7.12 21.27 10.77
3/25/2021 8:30:00 PM 10.33 50.594 0.066 7.11 19.33 10.77
3/25/2021 8:45:00 PM 10.22 50.396 0.066 7.11 19.79 10.77
3/25/2021 9:00:00 PM 10.13 50.234 0.068 7.1 18.75 10.76
3/25/2021 9:15:00 PM 10.03 50.054 0.068 7.09 20.22 10.77
3/25/2021 9:30:00 PM 9.93 49.874 0.067 7.09 20.55 10.77
3/25/2021 9:45:00 PM 9.84 49.712 0.069 7.06 19.4 10.78
3/25/2021 10:00:00 PM 9.75 49.55 0.069 7.06 20.17 10.79
3/25/2021 10:15:00 PM 9.68 49.424 0.069 7.05 21.59 10.8
3/25/2021 10:30:00 PM 9.61 49.298 0.066 7.06 19.26 10.81
3/25/2021 10:45:00 PM 9.54 49.172 0.07 7.07 19.12 10.82
3/25/2021 11:00:00 PM 9.48 49.064 0.068 7.09 19.21 10.83
3/25/2021 11:15:00 PM 9.42 48.956 0.07 7.1 18.77 10.84
3/25/2021 11:30:00 PM 9.36 48.848 0.069 7.07 18.82 10.85
3/25/2021 11:45:00 PM 9.3 48.74 0.069 7.1 19.66 10.86
3/26/2021 12:00:00 AM 9.25 48.65 0.069 7.09 19.66 10.87
3/26/2021 12:15:00 AM 9.21 48.578 0.07 7.08 23.72 10.87
3/26/2021 12:30:00 AM 9.16 48.488 0.069 7.09 19.84 10.88
3/26/2021 12:45:00 AM 9.11 48.398 0.071 7.07 19.19 10.89
3/26/2021 1:00:00 AM 9.06 48.308 0.071 7.08 19.17 10.91
3/26/2021 1:15:00 AM 9.01 48.218 0.069 7.07 19.96 10.91
3/26/2021 1:30:00 AM 8.97 48.146 0.068 7.07 26.9 10.91
3/26/2021 1:45:00 AM 8.94 48.092 0.069 7.06 27.07 10.93
3/26/2021 2:00:00 AM 8.91 48.038 0.069 7.07 20 10.93
3/26/2021 2:15:00 AM 8.88 47.984 0.07 7.08 20.14 10.93
3/26/2021 2:30:00 AM 8.84 47.912 0.065 7.07 18.55 10.94
3/26/2021 2:45:00 AM 8.82 47.876 0.07 7.07 17.76 10.94
3/26/2021 3:00:00 AM 8.78 47.804 0.069 7.08 20.92 10.95
3/26/2021 3:15:00 AM 8.76 47.768 0.069 7.07 21.55 10.96
3/26/2021 3:30:00 AM 8.74 47.732 0.071 7.08 19.57 10.95
3/26/2021 3:45:00 AM 8.71 47.678 0.069 7.08 19.14 10.96
3/26/2021 4:00:00 AM 8.69 47.642 0.069 7.08 21.26 10.96
3/26/2021 4:15:00 AM 8.66 47.588 0.069 7.08 17.27 10.98
3/26/2021 4:30:00 AM 8.64 47.552 0.07 7.09 19.63 10.96
3/26/2021 4:45:00 AM 8.62 47.516 0.069 7.09 22.17 10.97
3/26/2021 5:00:00 AM 8.6 47.48 0.071 7.1 21.64 10.97
3/26/2021 5:15:00 AM 8.57 47.426 0.07 7.1 20.55 10.98
3/26/2021 5:30:00 AM 8.55 47.39 0.07 7.09 22.15 10.98
3/26/2021 5:45:00 AM 8.53 47.354 0.07 7.1 21.28 10.98
3/26/2021 6:00:00 AM 8.51 47.318 0.072 7.11 18.33 10.98
3/26/2021 6:15:00 AM 8.5 47.3 0.071 7.1 20.57 10.98
3/26/2021 6:30:00 AM 8.49 47.282 0.069 7.11 19.81 10.97
3/26/2021 6:45:00 AM 8.49 47.282 0.071 7.1 19.52 10.98
3/26/2021 7:00:00 AM 8.5 47.3 0.07 7.12 19.26 10.98
3/26/2021 7:15:00 AM 8.51 47.318 0.071 7.11 19.02 10.98
3/26/2021 7:30:00 AM 8.52 47.336 0.072 7.09 17.97 10.98
3/26/2021 7:45:00 AM 8.52 47.336 0.07 7.13 19.18 11
3/26/2021 8:00:00 AM 8.55 47.39 0.071 7.14 18.38 11.02
3/26/2021 8:15:00 AM 8.6 47.48 0.07 7.14 18.28 11.04
3/26/2021 8:30:00 AM 8.65 47.57 0.071 7.14 18.29 11.06
3/26/2021 8:45:00 AM 8.69 47.642 0.071 7.15 18.43 11.07
3/26/2021 9:00:00 AM 8.72 47.696 0.071 7.16 17.49 11.08
3/26/2021 9:15:00 AM 8.79 47.822 0.07 7.17 18.69 11.11
3/26/2021 9:30:00 AM 8.87 47.966 0.071 7.14 18.45 11.12
3/26/2021 9:45:00 AM 8.95 48.11 0.071 7.19 18.19 11.16
3/26/2021 10:00:00 AM 9.05 48.29 0.071 7.2 17.63 11.16
3/26/2021 10:15:00 AM 9.13 48.434 0.071 7.19 17.98 11.17
3/26/2021 10:30:00 AM 9.25 48.65 0.071 7.2 16.81 11.17
3/26/2021 10:45:00 AM 9.4 48.92 0.07 7.18 16.62 11.17
3/26/2021 11:00:00 AM 9.6 49.28 0.071 7.22 17.05 11.17
3/26/2021 11:15:00 AM 9.81 49.658 0.07 7.23 19.74 11.17
3/26/2021 11:30:00 AM 9.94 49.892 0.071 7.24 26.04 11.16
3/26/2021 11:45:00 AM 10.02 50.036 0.07 7.24 17.35 11.16
3/26/2021 12:00:00 PM 10.12 50.216 0.07 7.26 17.19 11.15
3/26/2021 12:15:00 PM 10.22 50.396 0.071 7.25 17.83 11.14
3/26/2021 12:30:00 PM 10.37 50.666 0.07 7.27 16.66 11.13
3/26/2021 12:45:00 PM 10.46 50.828 0.071 7.27 16.63 11.11
3/26/2021 1:00:00 PM 10.5 50.9 0.071 7.27 16.3 11.08
3/26/2021 1:15:00 PM 10.51 50.918 0.07 7.27 16.02 11.07
3/26/2021 1:30:00 PM 10.53 50.954 0.07 7.27 17.52 11.03
3/26/2021 1:45:00 PM 10.59 51.062 0.071 7.28 15.71 11.02
3/26/2021 2:00:00 PM 10.66 51.188 0.071 7.29 15.2 11.01
3/26/2021 2:15:00 PM 10.68 51.224 0.071 7.27 15.77 11.01
3/26/2021 2:30:00 PM 10.68 51.224 0.071 7.28 15.78 11
3/26/2021 2:45:00 PM 10.67 51.206 0.071 7.28 15.49 10.97
3/26/2021 3:00:00 PM 10.67 51.206 0.071 7.29 15.52 10.95
3/26/2021 3:15:00 PM 10.63 51.134 0.071 7.27 15.96 10.91
3/26/2021 3:30:00 PM 10.62 51.116 0.07 7.27 15.54 10.9
3/26/2021 3:45:00 PM 10.6 51.08 0.071 7.28 15.58 10.89
3/26/2021 4:00:00 PM 10.6 51.08 0.07 7.27 15.51 10.9
3/26/2021 4:15:00 PM 10.6 51.08 0.07 7.28 16.21 10.91
3/26/2021 4:30:00 PM 10.59 51.062 0.071 7.28 16.97 10.92
3/26/2021 4:45:00 PM 10.55 50.99 0.071 7.29 16.03 10.92
3/26/2021 5:00:00 PM 10.5 50.9 0.071 7.29 16.85 10.92
3/26/2021 5:15:00 PM 10.46 50.828 0.07 7.29 15.86 10.94
3/26/2021 5:30:00 PM 10.41 50.738 0.07 7.28 16.97 10.94
3/26/2021 5:45:00 PM 10.36 50.648 0.072 7.28 17.63 10.93
3/26/2021 6:00:00 PM 10.29 50.522 0.071 7.26 15.85 10.93
3/26/2021 6:15:00 PM 10.23 50.414 0.069 7.27 15.31 10.92
3/26/2021 6:30:00 PM 10.16 50.288 0.07 7.27 15.7 10.91
3/26/2021 6:45:00 PM 10.09 50.162 0.071 7.24 15.86 10.9
3/26/2021 7:00:00 PM 10.01 50.018 0.071 7.23 15.78 10.88
3/26/2021 7:15:00 PM 9.92 49.856 0.071 7.24 15.12 10.88
3/26/2021 7:30:00 PM 9.83 49.694 0.071 7.21 16.26 10.87
3/26/2021 7:45:00 PM 9.75 49.55 0.072 7.22 16.43 10.87
3/26/2021 8:00:00 PM 9.67 49.406 0.071 7.2 16.3 10.87
3/26/2021 8:15:00 PM 9.59 49.262 0.072 7.21 15.02 10.87
3/26/2021 8:30:00 PM 9.51 49.118 0.071 7.19 15.32 10.87
3/26/2021 8:45:00 PM 9.44 48.992 0.071 7.19 16.37 10.87
3/26/2021 9:00:00 PM 9.36 48.848 0.072 7.19 17.16 10.88
3/26/2021 9:15:00 PM 9.29 48.722 0.071 7.19 16.83 10.89
3/26/2021 9:30:00 PM 9.22 48.596 0.072 7.19 17.63 10.9
3/26/2021 9:45:00 PM 9.14 48.452 0.072 7.17 16.05 10.91
3/26/2021 10:00:00 PM 9.07 48.326 0.072 7.18 15.18 10.92
3/26/2021 10:15:00 PM 9 48.2 0.071 7.16 15.05 10.93
3/26/2021 10:30:00 PM 8.93 48.074 0.072 7.17 17.83 10.94
3/26/2021 10:45:00 PM 8.86 47.948 0.072 7.16 15.64 10.95
3/26/2021 11:00:00 PM 8.79 47.822 0.073 7.16 14.7 10.97
3/26/2021 11:15:00 PM 8.73 47.714 0.072 7.16 14.51 10.99
3/26/2021 11:30:00 PM 8.67 47.606 0.072 7.16 14.87 10.99
3/26/2021 11:45:00 PM 8.61 47.498 0.072 7.16 14.29 11.01
3/27/2021 12:00:00 AM 8.55 47.39 0.072 7.16 14.32 11.03
3/27/2021 12:15:00 AM 8.49 47.282 0.073 7.16 14.17 11.04
3/27/2021 12:30:00 AM 8.43 47.174 0.073 7.15 17.21 11.05
3/27/2021 12:45:00 AM 8.36 47.048 0.073 7.15 14.14 11.07
3/27/2021 1:00:00 AM 8.29 46.922 0.073 7.15 14.62 11.08
3/27/2021 1:15:00 AM 8.22 46.796 0.073 7.15 17.09 11.1
3/27/2021 1:30:00 AM 8.14 46.652 0.073 7.15 16.08 11.12
3/27/2021 1:45:00 AM 8.08 46.544 0.073 7.14 13.92 11.13
3/27/2021 2:00:00 AM 8 46.4 0.073 7.16 14.56 11.16
3/27/2021 2:15:00 AM 7.93 46.274 0.074 7.14 14.17 11.17
3/27/2021 2:30:00 AM 7.85 46.13 0.073 7.15 14.05 11.19
3/27/2021 2:45:00 AM 7.79 46.022 0.073 7.14 14.33 11.21
3/27/2021 3:00:00 AM 7.73 45.914 0.073 7.14 14.63 11.23
3/27/2021 3:15:00 AM 7.68 45.824 0.072 7.13 15.34 11.24
3/27/2021 3:30:00 AM 7.63 45.734 0.072 7.14 14.99 11.26
3/27/2021 3:45:00 AM 7.58 45.644 0.073 7.14 16.11 11.28
3/27/2021 4:00:00 AM 7.53 45.554 0.073 7.11 14.97 11.29
3/27/2021 4:15:00 AM 7.48 45.464 0.072 7.14 14.84 11.32
3/27/2021 4:30:00 AM 7.43 45.374 0.072 7.13 14.04 11.32
3/27/2021 4:45:00 AM 7.39 45.302 0.073 7.13 14.62 11.34
3/27/2021 5:00:00 AM 7.36 45.248 0.073 7.14 13.62 11.35
3/27/2021 5:15:00 AM 7.32 45.176 0.073 7.11 13.79 11.37
3/27/2021 5:30:00 AM 7.28 45.104 0.073 7.13 13.44 11.38
3/27/2021 5:45:00 AM 7.24 45.032 0.074 7.13 13.85 11.38
3/27/2021 6:00:00 AM 7.21 44.978 0.073 7.14 13.73 11.4
3/27/2021 6:15:00 AM 7.17 44.906 0.073 7.14 13.63 11.41
3/27/2021 6:30:00 AM 7.14 44.852 0.073 7.13 13.06 11.42
3/27/2021 6:45:00 AM 7.1 44.78 0.073 7.13 14.35 11.44
3/27/2021 7:00:00 AM 7.07 44.726 0.073 7.12 12.85 11.45
3/27/2021 7:15:00 AM 7.04 44.672 0.074 7.13 14.67 11.46
3/27/2021 7:30:00 AM 7.01 44.618 0.074 7.14 12.34 11.48
3/27/2021 7:45:00 AM 6.99 44.582 0.073 7.14 12.27 11.51
3/27/2021 8:00:00 AM 6.97 44.546 0.073 7.13 12.82 11.53
3/27/2021 8:15:00 AM 6.95 44.51 0.073 7.15 14.66 11.56
3/27/2021 8:30:00 AM 6.94 44.492 0.073 7.17 12.16 11.6
3/27/2021 8:45:00 AM 6.93 44.474 0.073 7.17 14.85 11.63
3/27/2021 9:00:00 AM 6.94 44.492 0.074 7.17 14.59 11.67
3/27/2021 9:15:00 AM 6.94 44.492 0.073 7.18 13.82 11.7
3/27/2021 9:30:00 AM 6.95 44.51 0.073 7.19 12.99 11.75
3/27/2021 9:45:00 AM 6.95 44.51 0.073 7.19 12.89 11.77
3/27/2021 10:00:00 AM 6.96 44.528 0.073 7.21 11.77 11.79
3/27/2021 10:15:00 AM 6.97 44.546 0.074 7.21 12.75 11.82
3/27/2021 10:30:00 AM 7.09 44.762 0.074 7.21 12.44 11.85
3/27/2021 10:45:00 AM 7.13 44.834 0.074 7.22 12.56 11.88
3/27/2021 11:00:00 AM 7.21 44.978 0.074 7.23 12.38 11.9
3/27/2021 11:15:00 AM 7.26 45.068 0.074 7.23 13.41 11.91
3/27/2021 11:30:00 AM 7.31 45.158 0.073 7.25 13.49 11.93
3/27/2021 11:45:00 AM 7.4 45.32 0.073 7.25 12.74 11.94
3/27/2021 12:00:00 PM 7.57 45.626 0.073 7.27 12.9 11.96
3/27/2021 12:15:00 PM 7.84 46.112 0.074 7.27 12.8 11.95
3/27/2021 12:30:00 PM 8.08 46.544 0.074 7.28 13.42 11.94
3/27/2021 12:45:00 PM 8.31 46.958 0.073 7.28 12.35 11.91
3/27/2021 1:00:00 PM 8.5 47.3 0.073 7.28 13.06 11.9
3/27/2021 1:15:00 PM 8.53 47.354 0.073 7.27 12.42 11.87
3/27/2021 1:30:00 PM 8.56 47.408 0.074 7.3 13.9 11.86
3/27/2021 1:45:00 PM 8.65 47.57 0.072 7.3 12.44 11.85
3/27/2021 2:00:00 PM 8.8 47.84 0.073 7.31 12.33 11.83
3/27/2021 2:15:00 PM 8.99 48.182 0.073 7.32 12.66 11.8
3/27/2021 2:30:00 PM 9.16 48.488 0.073 7.32 12.34 11.78
3/27/2021 2:45:00 PM 9.34 48.812 0.073 7.32 14.08 11.74
3/27/2021 3:00:00 PM 9.48 49.064 0.072 7.33 13.36 11.71
3/27/2021 3:15:00 PM 9.61 49.298 0.073 7.33 14.56 11.67
3/27/2021 3:30:00 PM 9.76 49.568 0.073 7.33 12.25 11.63
3/27/2021 3:45:00 PM 9.87 49.766 0.073 7.33 11.85 11.59
3/27/2021 4:00:00 PM 9.96 49.928 0.073 7.34 11.42 11.56
3/27/2021 4:15:00 PM 10.01 50.018 0.073 7.33 11.67 11.52
3/27/2021 4:30:00 PM 10.08 50.144 0.072 7.34 12.11 11.48
3/27/2021 4:45:00 PM 10.14 50.252 0.073 7.34 11.4 11.44
3/27/2021 5:00:00 PM 10.2 50.36 0.072 7.34 10.97 11.41
3/27/2021 5:15:00 PM 10.24 50.432 0.072 7.35 11.46 11.37
3/27/2021 5:30:00 PM 10.27 50.486 0.073 7.34 11.66 11.34
3/27/2021 5:45:00 PM 10.3 50.54 0.073 7.34 12.11 11.31
3/27/2021 6:00:00 PM 10.32 50.576 0.072 7.34 12.14 11.28
3/27/2021 6:15:00 PM 10.32 50.576 0.073 7.34 12.27 11.25
3/27/2021 6:30:00 PM 10.31 50.558 0.073 7.34 11.87 11.22
3/27/2021 6:45:00 PM 10.27 50.486 0.073 7.33 11.66 11.19
3/27/2021 7:00:00 PM 10.24 50.432 0.073 7.32 11.25 11.14
3/27/2021 7:15:00 PM 10.2 50.36 0.073 7.3 11.45 11.09
3/27/2021 7:30:00 PM 10.14 50.252 0.073 7.29 11.75 11.04
3/27/2021 7:45:00 PM 10.09 50.162 0.073 7.28 11.5 11
3/27/2021 8:00:00 PM 10.05 50.09 0.072 7.26 11.95 10.96
3/27/2021 8:15:00 PM 10 50 0.073 7.23 11.77 10.93
3/27/2021 8:30:00 PM 9.95 49.91 0.073 7.24 11.86 10.9
3/27/2021 8:45:00 PM 9.89 49.802 0.074 7.23 12.55 10.89
3/27/2021 9:00:00 PM 9.82 49.676 0.074 7.22 14.07 10.87
3/27/2021 9:15:00 PM 9.74 49.532 0.074 7.21 12.56 10.86
3/27/2021 9:30:00 PM 9.66 49.388 0.074 7.21 12.04 10.85
3/27/2021 9:45:00 PM 9.58 49.244 0.074 7.2 12.1 10.85
3/27/2021 10:00:00 PM 9.49 49.082 0.074 7.17 12.17 10.85
3/27/2021 10:15:00 PM 9.4 48.92 0.074 7.16 12.31 10.85
3/27/2021 10:30:00 PM 9.31 48.758 0.074 7.19 12.4 10.86
3/27/2021 10:45:00 PM 9.22 48.596 0.074 7.18 12.08 10.87
3/27/2021 11:00:00 PM 9.12 48.416 0.074 7.18 16.18 10.88
3/27/2021 11:15:00 PM 9.03 48.254 0.074 7.16 12.12 10.89
3/27/2021 11:30:00 PM 8.94 48.092 0.074 7.16 15.04 10.91
3/27/2021 11:45:00 PM 8.84 47.912 0.075 7.16 14.48 10.92
3/28/2021 12:00:00 AM 8.76 47.768 0.074 7.15 11.78 10.93
3/28/2021 12:15:00 AM 8.67 47.606 0.074 7.15 12.18 10.95
3/28/2021 12:30:00 AM 8.59 47.462 0.074 7.15 11.8 10.96
3/28/2021 12:45:00 AM 8.5 47.3 0.075 7.15 11.19 10.98
3/28/2021 1:00:00 AM 8.43 47.174 0.075 7.14 11.7 11
3/28/2021 1:15:00 AM 8.36 47.048 0.075 7.15 11.43 11.01
3/28/2021 1:30:00 AM 8.29 46.922 0.076 7.14 11.27 11.03
3/28/2021 1:45:00 AM 8.23 46.814 0.075 7.14 11.57 11.04
3/28/2021 2:00:00 AM 8.17 46.706 0.075 7.14 11.15 11.06
3/28/2021 2:15:00 AM 8.11 46.598 0.078 7.14 10.95 11.07
3/28/2021 2:30:00 AM 8.06 46.508 0.074 7.09 11.05 11.08
3/28/2021 2:45:00 AM 8.01 46.418 0.075 7.14 10.98 11.09
3/28/2021 3:00:00 AM 7.96 46.328 0.075 7.13 11.06 11.11
3/28/2021 3:15:00 AM 7.91 46.238 0.074 7.14 12.48 11.12
3/28/2021 3:30:00 AM 7.87 46.166 0.075 7.14 11.73 11.13
3/28/2021 3:45:00 AM 7.82 46.076 0.076 7.14 11.4 11.14
3/28/2021 4:00:00 AM 7.77 45.986 0.075 7.14 11.52 11.15
3/28/2021 4:15:00 AM 7.73 45.914 0.075 7.14 11.42 11.16
3/28/2021 4:30:00 AM 7.68 45.824 0.076 7.14 11.73 11.17
3/28/2021 4:45:00 AM 7.65 45.77 0.076 7.14 12.08 11.18
3/28/2021 5:00:00 AM 7.61 45.698 0.076 7.13 12.31 11.2
3/28/2021 5:15:00 AM 7.58 45.644 0.076 7.14 11.68 11.2
3/28/2021 5:30:00 AM 7.56 45.608 0.077 7.14 11.57 11.21
3/28/2021 5:45:00 AM 7.54 45.572 0.076 7.14 12.18 11.21
3/28/2021 6:00:00 AM 7.53 45.554 0.076 7.14 12.25 11.21
3/28/2021 6:15:00 AM 7.53 45.554 0.078 7.14 12.41 11.22
3/28/2021 6:30:00 AM 7.53 45.554 0.074 7.13 11.62 11.21
3/28/2021 6:45:00 AM 7.52 45.536 0.076 7.14 12.4 11.22
3/28/2021 7:00:00 AM 7.52 45.536 0.076 7.14 11.64 11.22
3/28/2021 7:15:00 AM 7.53 45.554 0.076 7.14 11.17 11.22
3/28/2021 7:30:00 AM 7.53 45.554 0.075 7.15 12.39 11.23
3/28/2021 7:45:00 AM 7.53 45.554 0.077 7.15 11.37 11.25
3/28/2021 8:00:00 AM 7.54 45.572 0.074 7.15 10.93 11.25
3/28/2021 8:15:00 AM 7.54 45.572 0.076 7.15 12.21 11.25
3/28/2021 8:30:00 AM 7.55 45.59 0.077 7.15 11 11.27
3/28/2021 8:45:00 AM 7.56 45.608 0.077 7.14 11.45 11.27
3/28/2021 9:00:00 AM 7.57 45.626 0.075 7.15 11.46 11.27
3/28/2021 9:15:00 AM 7.59 45.662 0.077 7.15 11.41 11.3
3/28/2021 9:30:00 AM 7.61 45.698 0.077 7.11 12.14 11.32
3/28/2021 9:45:00 AM 7.63 45.734 0.076 7.17 11.74 11.35
3/28/2021 10:00:00 AM 7.66 45.788 0.075 7.16 11.74 11.37
3/28/2021 10:15:00 AM 7.68 45.824 0.077 7.14 12.55 11.39
3/28/2021 10:30:00 AM 7.7 45.86 0.075 7.14 12.4 11.41
3/28/2021 10:45:00 AM 7.74 45.932 0.076 7.18 12.75 11.42
3/28/2021 11:00:00 AM 7.78 46.004 0.075 7.21 14.73 11.45
3/28/2021 11:15:00 AM 7.82 46.076 0.078 7.2 12.85 11.46
3/28/2021 11:30:00 AM 7.86 46.148 0.076 7.22 13.75 11.48
3/28/2021 11:45:00 AM 7.89 46.202 0.075 7.16 17.02 11.49
3/28/2021 12:00:00 PM 7.93 46.274 0.076 7.23 15.4 11.5
3/28/2021 12:15:00 PM 7.96 46.328 0.076 7.23 13.72 11.5
3/28/2021 12:30:00 PM 8.03 46.454 0.076 7.24 12.28 11.51
3/28/2021 12:45:00 PM 8.09 46.562 0.076 7.26 13.1 11.52
3/28/2021 1:00:00 PM 8.13 46.634 0.079 7.25 12.29 11.5
3/28/2021 1:15:00 PM 8.19 46.742 0.078 7.24 12.17 11.51
3/28/2021 1:30:00 PM 8.22 46.796 0.076 7.22 17.52 11.5
3/28/2021 1:45:00 PM 8.28 46.904 0.076 7.26 16.99 11.5
3/28/2021 2:00:00 PM 8.35 47.03 0.074 7.28 15.11 11.51
3/28/2021 2:15:00 PM 8.41 47.138 0.076 7.27 13.29 11.5
3/28/2021 2:30:00 PM 8.48 47.264 0.075 7.28 13.08 11.5
3/28/2021 2:45:00 PM 8.55 47.39 0.077 7.28 13.76 11.5
3/28/2021 3:00:00 PM 8.61 47.498 0.075 7.28 15.01 11.48
3/28/2021 3:15:00 PM 8.67 47.606 0.076 7.3 14.09 11.46
3/28/2021 3:30:00 PM 8.73 47.714 0.075 7.31 14.33 11.46
3/28/2021 3:45:00 PM 8.77 47.786 0.074 7.3 12.81 11.44
3/28/2021 4:00:00 PM 8.8 47.84 0.074 7.3 13.21 11.42
3/28/2021 4:15:00 PM 8.83 47.894 0.076 7.29 13.07 11.39
3/28/2021 4:30:00 PM 8.84 47.912 0.076 7.24 13.41 11.34
3/28/2021 4:45:00 PM 8.88 47.984 0.078 7.3 77.3 11.28
3/28/2021 5:00:00 PM 8.89 48.002 0.076 7.25 17.72 11.26
3/28/2021 5:15:00 PM 8.91 48.038 0.077 7.27 15.16 11.23
3/28/2021 5:30:00 PM 8.91 48.038 0.077 7.27 19.03 11.2
3/28/2021 5:45:00 PM 8.91 48.038 0.078 7.26 31.24 11.18
3/28/2021 6:00:00 PM 8.9 48.02 0.077 7.26 24.46 11.16
3/28/2021 6:15:00 PM 8.9 48.02 0.079 7.26 20.54 11.13
3/28/2021 6:30:00 PM 8.88 47.984 0.082 7.26 20.19 11.09
3/28/2021 6:45:00 PM 8.86 47.948 0.082 7.26 17.99 11.08
3/28/2021 7:00:00 PM 8.82 47.876 0.083 7.25 17.39 11.08
3/28/2021 7:15:00 PM 8.78 47.804 0.082 7.24 17.28 11.06
3/28/2021 7:30:00 PM 8.73 47.714 0.083 7.24 20.05 11.03
3/28/2021 7:45:00 PM 8.68 47.624 0.084 7.23 19.41 11.03
3/28/2021 8:00:00 PM 8.63 47.534 0.083 7.19 19.22 11.02
3/28/2021 8:15:00 PM 8.58 47.444 0.084 7.18 19.82 11.02
3/28/2021 8:30:00 PM 8.52 47.336 0.083 7.19 23.26 11.01
3/28/2021 8:45:00 PM 8.46 47.228 0.085 7.19 26.82 11.01
3/28/2021 9:00:00 PM 8.41 47.138 0.084 7.21 21.58 11
3/28/2021 9:15:00 PM 8.35 47.03 0.085 7.21 32.43 11
3/28/2021 9:30:00 PM 8.3 46.94 0.084 7.21 27.13 11
3/28/2021 9:45:00 PM 8.24 46.832 0.085 7.2 24.9 11.01
3/28/2021 10:00:00 PM 8.19 46.742 0.083 7.2 27.19 11.01
3/28/2021 10:15:00 PM 8.14 46.652 0.084 7.18 27 11.02
3/28/2021 10:30:00 PM 8.08 46.544 0.085 7.15 27.06 11.03
3/28/2021 10:45:00 PM 8 46.4 0.085 7.17 29.47 11.04
3/28/2021 11:00:00 PM 7.92 46.256 0.083 7.16 26.54 11.06
3/28/2021 11:15:00 PM 7.85 46.13 0.085 7.16 30.19 11.07
3/28/2021 11:30:00 PM 7.79 46.022 0.084 7.16 31.73 11.08
3/28/2021 11:45:00 PM 7.71 45.878 0.083 7.16 26.76 11.1
3/29/2021 12:00:00 AM 7.64 45.752 0.083 7.16 36.56 11.12
3/29/2021 12:15:00 AM 7.56 45.608 0.083 7.16 27.7 11.14
3/29/2021 12:30:00 AM 7.46 45.428 0.083 7.15 30.11 11.15
3/29/2021 12:45:00 AM 7.37 45.266 0.084 7.15 27.19 11.17
3/29/2021 1:00:00 AM 7.27 45.086 0.084 7.13 28.51 11.19
3/29/2021 1:15:00 AM 7.18 44.924 0.083 7.14 25.99 11.21
3/29/2021 1:30:00 AM 7.1 44.78 0.083 7.14 21.99 11.23
3/29/2021 1:45:00 AM 7.04 44.672 0.082 7.14 21.14 11.25
3/29/2021 2:00:00 AM 6.98 44.564 0.083 7.13 21.14 11.27
3/29/2021 2:15:00 AM 6.92 44.456 0.084 7.12 20.78 11.29
3/29/2021 2:30:00 AM 6.84 44.312 0.085 7.13 23.41 11.31
3/29/2021 2:45:00 AM 6.78 44.204 0.084 7.12 19.19 11.33
3/29/2021 3:00:00 AM 6.71 44.078 0.084 7.14 22.54 11.35
3/29/2021 3:15:00 AM 6.65 43.97 0.085 7.14 21.35 11.37
3/29/2021 3:30:00 AM 6.58 43.844 0.083 7.13 19.26 11.39
3/29/2021 3:45:00 AM 6.51 43.718 0.084 7.13 18.78 11.42
3/29/2021 4:00:00 AM 6.45 43.61 0.084 7.12 18.63 11.43
3/29/2021 4:15:00 AM 6.38 43.484 0.083 7.11 17.86 11.45
3/29/2021 4:30:00 AM 6.33 43.394 0.084 7.12 17.61 11.48
3/29/2021 4:45:00 AM 6.28 43.304 0.084 7.13 18.3 11.49
3/29/2021 5:00:00 AM 6.22 43.196 0.083 7.12 19.19 11.52
3/29/2021 5:15:00 AM 6.17 43.106 0.083 7.11 19.06 11.52
3/29/2021 5:30:00 AM 6.11 42.998 0.083 7.11 18.28 11.54
3/29/2021 5:45:00 AM 6.05 42.89 0.083 7.09 18.58 11.57
3/29/2021 6:00:00 AM 5.99 42.782 0.082 7.12 18.84 11.58
3/29/2021 6:15:00 AM 5.94 42.692 0.083 7.11 18.27 11.61
3/29/2021 6:30:00 AM 5.88 42.584 0.083 7.12 17.46 11.63
3/29/2021 6:45:00 AM 5.83 42.494 0.082 7.12 19.5 11.65
3/29/2021 7:00:00 AM 5.78 42.404 0.083 7.12 26.39 11.67
3/29/2021 7:15:00 AM 5.73 42.314 0.082 7.08 32.88 11.7
3/29/2021 7:30:00 AM 5.68 42.224 0.082 7.09 24.09 11.72
3/29/2021 7:45:00 AM 5.64 42.152 0.082 7.12 24.71 11.75
3/29/2021 8:00:00 AM 5.6 42.08 0.082 7.12 21.44 11.78
3/29/2021 8:15:00 AM 5.55 41.99 0.083 7.13 23.8 11.81
3/29/2021 8:30:00 AM 5.51 41.918 0.082 7.13 21.9 11.84
3/29/2021 8:45:00 AM 5.48 41.864 0.082 7.14 20.21 11.89
3/29/2021 9:00:00 AM 5.45 41.81 0.082 7.15 20.17 11.94
3/29/2021 9:15:00 AM 5.42 41.756 0.082 7.15 21 11.98
3/29/2021 9:30:00 AM 5.42 41.756 0.082 7.15 21.14 12.03
3/29/2021 9:45:00 AM 5.4 41.72 0.082 7.15 20.68 12.07
3/29/2021 10:00:00 AM 5.39 41.702 0.083 7.15 21.4 12.12
3/29/2021 10:15:00 AM 5.39 41.702 0.081 7.17 29.98 12.16
3/29/2021 10:30:00 AM 5.39 41.702 0.083 7.18 20.47 12.19
3/29/2021 10:45:00 AM 5.4 41.72 0.082 7.19 20.55 12.23
3/29/2021 11:00:00 AM 5.42 41.756 0.081 7.19 19.54 12.27
3/29/2021 11:15:00 AM 5.44 41.792 0.081 7.2 20.49 12.3
3/29/2021 11:30:00 AM 5.48 41.864 0.082 7.19 19.02 12.32
3/29/2021 11:45:00 AM 5.55 41.99 0.081 7.2 20.29 12.35
3/29/2021 12:00:00 PM 5.78 42.404 0.081 7.21 19.54 12.36
3/29/2021 12:15:00 PM 6 42.8 0.081 7.22 18.86 12.37
3/29/2021 12:30:00 PM 6.15 43.07 0.081 7.22 19.11 12.36
3/29/2021 12:45:00 PM 6.4 43.52 0.082 7.22 19.13 12.35
3/29/2021 1:00:00 PM 6.52 43.736 0.081 7.23 19.37 12.34
3/29/2021 1:15:00 PM 6.72 44.096 0.08 7.24 18.85 12.33
3/29/2021 1:30:00 PM 6.9 44.42 0.079 7.24 19.92 12.32
3/29/2021 1:45:00 PM 7.09 44.762 0.078 7.25 18.35 12.3
3/29/2021 2:00:00 PM 7.3 45.14 0.08 7.25 18.15 12.27
3/29/2021 2:15:00 PM 7.51 45.518 0.081 7.25 18.28 12.24
3/29/2021 2:30:00 PM 7.7 45.86 0.078 7.26 18.4 12.2
3/29/2021 2:45:00 PM 7.87 46.166 0.082 7.27 18.65 12.16
3/29/2021 3:00:00 PM 8.02 46.436 0.079 7.27 18.9 12.12
3/29/2021 3:15:00 PM 8.16 46.688 0.08 7.29 19.59 12.09
3/29/2021 3:30:00 PM 8.26 46.868 0.08 7.27 19.03 12.05
3/29/2021 3:45:00 PM 8.32 46.976 0.081 7.29 19.25 12.02
3/29/2021 4:00:00 PM 8.35 47.03 0.08 7.28 19.93 11.99
3/29/2021 4:15:00 PM 8.35 47.03 0.077 7.28 19.67 11.97
3/29/2021 4:30:00 PM 8.36 47.048 0.08 7.29 18.17 11.93
3/29/2021 4:45:00 PM 8.36 47.048 0.079 7.29 19.12 11.91
3/29/2021 5:00:00 PM 8.35 47.03 0.078 7.26 21.49 11.89
3/29/2021 5:15:00 PM 8.32 46.976 0.08 7.29 21.44 11.86
3/29/2021 5:30:00 PM 8.3 46.94 0.08 7.26 19.57 11.83
3/29/2021 5:45:00 PM 8.27 46.886 0.079 7.26 22.01 11.81
3/29/2021 6:00:00 PM 8.24 46.832 0.079 7.26 20.49 11.78
3/29/2021 6:15:00 PM 8.21 46.778 0.079 7.24 19.32 11.75
3/29/2021 6:30:00 PM 8.18 46.724 0.079 7.27 19.56 11.71
3/29/2021 6:45:00 PM 8.14 46.652 0.08 7.26 20.69 11.68
3/29/2021 7:00:00 PM 8.1 46.58 0.078 7.24 18.97 11.64
3/29/2021 7:15:00 PM 8.07 46.526 0.081 7.24 20.24 11.59
3/29/2021 7:30:00 PM 8.02 46.436 0.08 7.21 19.77 11.56
3/29/2021 7:45:00 PM 7.97 46.346 0.08 7.16 26.19 11.52
3/29/2021 8:00:00 PM 7.9 46.22 0.081 7.2 15724.94 11.5
3/29/2021 8:15:00 PM 7.83 46.094 0.08 7.15 7.37 11.49
3/29/2021 8:30:00 PM 7.74 45.932 0.081 7.15 77.9 11.48
3/29/2021 8:45:00 PM 7.65 45.77 0.079 7.16 350.29 11.48
3/29/2021 9:00:00 PM 7.55 45.59 0.078 7.13 128.32 11.48
3/29/2021 9:15:00 PM 7.45 45.41 0.081 7.14 82.05 11.48
3/29/2021 9:30:00 PM 7.34 45.212 0.079 7.14 709.01 11.49
3/29/2021 9:45:00 PM 7.23 45.014 0.08 7.13 13066.55 11.5
3/29/2021 10:00:00 PM 7.12 44.816 0.08 7.1 16.51 11.5
3/29/2021 10:15:00 PM 7.02 44.636 0.079 7.13 53.38 11.51
3/29/2021 10:30:00 PM 6.92 44.456 0.078 7.09 27.82 11.52
3/29/2021 10:45:00 PM 6.82 44.276 0.078 7.09 14.19 11.54
3/29/2021 11:00:00 PM 6.72 44.096 0.078 7.11 14.89 11.56
3/29/2021 11:15:00 PM 6.63 43.934 0.08 7.11 13.65 11.58
3/29/2021 11:30:00 PM 6.53 43.754 0.081 7.13 15.08 11.6
3/29/2021 11:45:00 PM 6.43 43.574 0.081 7.1 13.62 11.62
3/30/2021 12:00:00 AM 6.33 43.394 0.077 7.12 324.59 11.63
3/30/2021 12:15:00 AM 6.23 43.214 0.079 7.1 16.75 11.66
3/30/2021 12:30:00 AM 6.14 43.052 0.079 7.09 13.22 11.7
3/30/2021 12:45:00 AM 6.03 42.854 0.079 7.09 13.8 11.72
3/30/2021 1:00:00 AM 5.93 42.674 0.081 7.09 13.75 11.74
3/30/2021 1:15:00 AM 5.83 42.494 0.081 7.09 13.11 11.77
3/30/2021 1:30:00 AM 5.74 42.332 0.081 7.04 14.19 11.79
3/30/2021 1:45:00 AM 5.64 42.152 0.081 7.07 14.24 11.82
3/30/2021 2:00:00 AM 5.55 41.99 0.081 7.07 13.92 11.86
3/30/2021 2:15:00 AM 5.46 41.828 0.081 7.04 757.45 11.88
3/30/2021 2:30:00 AM 5.37 41.666 0.081 7.07 13.64 11.91
3/30/2021 2:45:00 AM 5.28 41.504 0.079 7.09 13.89 11.94
3/30/2021 3:00:00 AM 5.2 41.36 0.08 7.08 14.46 11.96
3/30/2021 3:15:00 AM 5.12 41.216 0.081 7.05 210.01 11.98
3/30/2021 3:30:00 AM 5.04 41.072 0.08 7.07 15.54 12.01
3/30/2021 3:45:00 AM 4.96 40.928 0.081 7.07 15.66 12.03
3/30/2021 4:00:00 AM 4.89 40.802 0.076 7.09 40.92 12.06
3/30/2021 4:15:00 AM 4.81 40.658 0.08 7.06 781.14 12.08
3/30/2021 4:30:00 AM 4.74 40.532 0.08 7.08 277.8 12.11
3/30/2021 4:45:00 AM 4.67 40.406 0.081 7.07 139.02 12.13
3/30/2021 5:00:00 AM 4.6 40.28 0.083 7.08 271.37 12.15
3/30/2021 5:15:00 AM 4.53 40.154 0.082 7.07 13.98 12.17
3/30/2021 5:30:00 AM 4.47 40.046 0.08 7.09 14.55 12.2
3/30/2021 5:45:00 AM 4.41 39.938 0.079 7.05 14.58 12.21
3/30/2021 6:00:00 AM 4.34 39.812 0.081 7.06 14.82 12.23
3/30/2021 6:15:00 AM 4.28 39.704 0.082 7.04 15 12.25
3/30/2021 6:30:00 AM 4.22 39.596 0.082 7.05 15.18 12.28
3/30/2021 6:45:00 AM 4.16 39.488 0.081 7.07 15.09 12.3
3/30/2021 7:00:00 AM 4.11 39.398 0.082 7.05 13.9 12.33
3/30/2021 7:15:00 AM 4.06 39.308 0.08 7.06 14.17 12.36
3/30/2021 7:30:00 AM 4.02 39.236 0.081 7.05 15.1 12.39
3/30/2021 7:45:00 AM 3.98 39.164 0.077 7.08 5.63 12.42
3/30/2021 8:00:00 AM 3.95 39.11 0.081 7.07 13.85 12.48
3/30/2021 8:15:00 AM 3.94 39.092 0.076 7.06 76.56 12.52
3/30/2021 8:30:00 AM 3.94 39.092 0.067 7.05 598.35 12.56
3/30/2021 8:45:00 AM 3.96 39.128 0.079 7.11 14.07 12.6
3/30/2021 9:00:00 AM 3.98 39.164 0.082 7.09 15.62 12.63
3/30/2021 9:15:00 AM 4.03 39.254 0.081 7.11 14.33 12.67
3/30/2021 9:30:00 AM 4.11 39.398 0.08 7.11 15.83 12.7
3/30/2021 9:45:00 AM 4.2 39.56 0.078 7.1 6.15 12.73
3/30/2021 10:00:00 AM 4.32 39.776 0.079 7.14 6.61 12.74
3/30/2021 10:15:00 AM 4.46 40.028 0.082 7.14 16.65 12.76
3/30/2021 10:30:00 AM 4.63 40.334 0.081 7.14 16.54 12.77
3/30/2021 10:45:00 AM 4.82 40.676 0.081 7.15 17.42 12.77
3/30/2021 11:00:00 AM 5.03 41.054 0.082 7.16 15.95 12.76
3/30/2021 11:15:00 AM 5.26 41.468 0.081 7.16 15.18 12.75
3/30/2021 11:30:00 AM 5.5 41.9 0.08 7.17 14.97 12.73
3/30/2021 11:45:00 AM 5.76 42.368 0.081 7.14 15.31 12.7
3/30/2021 12:00:00 PM 6.04 42.872 0.08 7.15 16.14 12.68
3/30/2021 12:15:00 PM 6.31 43.358 0.081 7.19 16.39 12.64
3/30/2021 12:30:00 PM 6.58 43.844 0.079 7.17 5.38 12.61
3/30/2021 12:45:00 PM 6.86 44.348 0.08 7.2 16.54 12.57
3/30/2021 1:00:00 PM 7.13 44.834 0.079 7.2 5.97 12.53
3/30/2021 1:15:00 PM 7.39 45.302 0.081 7.23 5.13 12.48
3/30/2021 1:30:00 PM 7.65 45.77 0.082 7.22 4.76 12.43
3/30/2021 1:45:00 PM 7.9 46.22 0.078 7.24 15.72 12.37
3/30/2021 2:00:00 PM 8.15 46.67 0.08 7.23 15.38 12.32
3/30/2021 2:15:00 PM 8.39 47.102 0.081 7.26 15.86 12.25
3/30/2021 2:30:00 PM 8.61 47.498 0.082 7.24 5.15 12.2
3/30/2021 2:45:00 PM 8.81 47.858 0.081 7.24 5.85 12.14
3/30/2021 3:00:00 PM 8.98 48.164 0.08 7.24 16.97 12.08
3/30/2021 3:15:00 PM 9.14 48.452 0.08 7.27 5.47 12.02
3/30/2021 3:30:00 PM 9.26 48.668 0.079 7.26 4.56 11.97
3/30/2021 3:45:00 PM 9.36 48.848 0.08 7.28 17.02 11.92
3/30/2021 4:00:00 PM 9.43 48.974 0.079 7.28 16.68 11.87
3/30/2021 4:15:00 PM 9.5 49.1 0.081 7.27 5.02 11.82
3/30/2021 4:30:00 PM 9.55 49.19 0.081 7.29 5.78 11.77
3/30/2021 4:45:00 PM 9.61 49.298 0.08 7.29 4.87 11.72
3/30/2021 5:00:00 PM 9.66 49.388 0.08 7.29 5.21 11.66
3/30/2021 5:15:00 PM 9.71 49.478 0.08 7.3 16.02 11.61
3/30/2021 5:30:00 PM 9.72 49.496 0.079 7.23 11.8 11.55
3/30/2021 5:45:00 PM 9.76 49.568 0.081 7.28 13.99 11.51
3/30/2021 6:00:00 PM 9.78 49.604 0.08 7.29 15.51 11.47
3/30/2021 6:15:00 PM 9.79 49.622 0.078 7.27 15.61 11.42
3/30/2021 6:30:00 PM 9.79 49.622 0.077 7.29 12.51 11.38
3/30/2021 6:45:00 PM 9.78 49.604 0.081 7.28 14.67 11.32
3/30/2021 7:00:00 PM 9.74 49.532 0.079 7.27 15.8 11.27
3/30/2021 7:15:00 PM 9.7 49.46 0.078 7.24 15.49 11.21
3/30/2021 7:30:00 PM 9.67 49.406 0.079 7.23 5.11 11.16
3/30/2021 7:45:00 PM 9.63 49.334 0.081 7.22 15.15 11.11
3/30/2021 8:00:00 PM 9.59 49.262 0.08 7.19 16.24 11.07
3/30/2021 8:15:00 PM 9.53 49.154 0.081 7.2 15.43 11.04
3/30/2021 8:30:00 PM 9.48 49.064 0.082 7.22 15.99 11.02
3/30/2021 8:45:00 PM 9.41 48.938 0.08 7.2 15.04 10.99
3/30/2021 9:00:00 PM 9.33 48.794 0.078 7.18 15.86 10.99
3/30/2021 9:15:00 PM 9.25 48.65 0.082 7.17 5.55 10.98
3/30/2021 9:30:00 PM 9.16 48.488 0.081 7.16 6.46 10.98
3/30/2021 9:45:00 PM 9.07 48.326 0.08 7.18 15.95 10.98
3/30/2021 10:00:00 PM 8.99 48.182 0.08 7.16 6.33 10.99
3/30/2021 10:15:00 PM 8.89 48.002 0.082 7.15 16.94 10.99
3/30/2021 10:30:00 PM 8.81 47.858 0.078 7.16 16.77 11
3/30/2021 10:45:00 PM 8.72 47.696 0.08 7.16 16.65 11.01
3/30/2021 11:00:00 PM 8.64 47.552 0.081 7.09 7133.9 11.01
3/30/2021 11:15:00 PM 8.56 47.408 0.082 7.15 780.79 11.03
3/30/2021 11:30:00 PM 8.49 47.282 0.08 7.12 5.12 11.04
3/30/2021 11:45:00 PM 8.42 47.156 0.08 7.13 87.95 11.05
3/31/2021 12:00:00 AM 8.34 47.012 0.082 7.09 7.73 11.06
3/31/2021 12:15:00 AM 8.27 46.886 0.082 7.11 9.61 11.08
3/31/2021 12:30:00 AM 8.2 46.76 0.079 7.13 9.87 11.09
3/31/2021 12:45:00 AM 8.13 46.634 0.08 7.13 12.03 11.1
3/31/2021 1:00:00 AM 8.05 46.49 0.081 7.12 12.33 11.12
3/31/2021 1:15:00 AM 7.98 46.364 0.081 7.13 15.94 11.13
3/31/2021 1:30:00 AM 7.9 46.22 0.082 7.09 296.93 11.15
3/31/2021 1:45:00 AM 7.84 46.112 0.081 7.1 2700.06 11.17
3/31/2021 2:00:00 AM 7.77 45.986 0.082 7.09 19.68 11.18
3/31/2021 2:15:00 AM 7.7 45.86 0.081 7.11 2112.79 11.2
3/31/2021 2:30:00 AM 7.64 45.752 0.082 7.1 3371.46 11.22
3/31/2021 2:45:00 AM 7.58 45.644 0.082 7.1 10.13 11.23
3/31/2021 3:00:00 AM 7.52 45.536 0.081 7.08 10.47 11.24
3/31/2021 3:15:00 AM 7.46 45.428 0.081 7.08 7.08 11.25
3/31/2021 3:30:00 AM 7.41 45.338 0.081 7.09 6.42 11.27
3/31/2021 3:45:00 AM 7.36 45.248 0.08 7.08 6.25 11.29
3/31/2021 4:00:00 AM 7.31 45.158 0.082 7.08 6.27 11.3
3/31/2021 4:15:00 AM 7.26 45.068 0.083 7.05 6.31 11.32
3/31/2021 4:30:00 AM 7.21 44.978 0.083 7.08 6.47 11.32
3/31/2021 4:45:00 AM 7.17 44.906 0.081 7.07 6.29 11.34
3/31/2021 5:00:00 AM 7.14 44.852 0.08 7.06 6.33 11.35
3/31/2021 5:15:00 AM 7.1 44.78 0.081 7.08 6.14 11.36
3/31/2021 5:30:00 AM 7.07 44.726 0.082 7.09 6.15 11.36
3/31/2021 5:45:00 AM 7.05 44.69 0.082 7.09 6.68 11.37
3/31/2021 6:00:00 AM 7.02 44.636 0.082 7.09 6.23 11.38
3/31/2021 6:15:00 AM 6.99 44.582 0.083 7.1 6.59 11.39
3/31/2021 6:30:00 AM 6.97 44.546 0.084 7.12 15.68 11.39
3/31/2021 6:45:00 AM 6.95 44.51 0.083 7.09 6.5 11.4
3/31/2021 7:00:00 AM 6.93 44.474 0.082 7.08 6.94 11.41
3/31/2021 7:15:00 AM 6.92 44.456 0.083 7.07 6.73 11.43
3/31/2021 7:30:00 AM 6.91 44.438 0.082 7.06 6.83 11.45
3/31/2021 7:45:00 AM 6.91 44.438 0.082 7.12 22.51 11.48
3/31/2021 8:00:00 AM 6.92 44.456 0.083 7.12 33.34 11.52
3/31/2021 8:15:00 AM 6.93 44.474 0.083 7.14 328.42 11.56
3/31/2021 8:30:00 AM 6.95 44.51 0.082 7.12 6.62 11.61
3/31/2021 8:45:00 AM 6.98 44.564 0.083 7.16 7.41 11.64
3/31/2021 9:00:00 AM 7.01 44.618 0.083 7.18 9.28 11.68
3/31/2021 9:15:00 AM 7.04 44.672 0.083 7.14 10.07 11.72
3/31/2021 9:30:00 AM 7.07 44.726 0.083 7.15 6.33 11.75
3/31/2021 9:45:00 AM 7.11 44.798 0.082 7.17 8.32 11.78
3/31/2021 10:00:00 AM 7.15 44.87 0.081 7.17 8.08 11.8
3/31/2021 10:15:00 AM 7.21 44.978 0.082 7.16 6.93 11.82
3/31/2021 10:30:00 AM 7.27 45.086 0.082 7.2 6.39 11.85
3/31/2021 10:45:00 AM 7.32 45.176 0.082 7.22 6.19 11.87
3/31/2021 11:00:00 AM 7.38 45.284 0.082 7.23 5.97 11.88
3/31/2021 11:15:00 AM 7.44 45.392 0.084 7.24 6.27 11.89
3/31/2021 11:30:00 AM 7.5 45.5 0.082 7.23 6.09 11.89
3/31/2021 11:45:00 AM 7.54